Wetterdaten: Mittwoch, 23.08.2017
Datum Zeit Temp. A. Pool Temp. Feuchte A. Luftdruck Regen Wind Richtung Richtung Sonnenschein ET UV Solar Taupunkt Windchill Windben Empfang
23.08.2017 00:00 13,2 C 21,7 C 82 % 1018,1 hPa 0,0 l/m 3,8 km/h (1 Bft) S-SW 211 0 min 0,000 mm 0,0 UV-I 0 W/m 10,2 C 13,2 C 6,4 km/h (2 Bft) 100,00 %
23.08.2017 00:02 13,1 C 21,7 C 82 % 1018,1 hPa 0,0 l/m 5,1 km/h (1 Bft) S-SW 211 0 min 0,000 mm 0,0 UV-I 0 W/m 10,1 C 13,1 C 8,0 km/h (2 Bft) 12,50 %
23.08.2017 00:04 13,1 C 21,7 C 82 % 1018,2 hPa 0,0 l/m 4,6 km/h (1 Bft) S-SW 211 0 min 0,000 mm 0,0 UV-I 0 W/m 10,1 C 13,1 C 6,4 km/h (2 Bft) 87,50 %
23.08.2017 00:06 13,1 C 21,7 C 82 % 1018,1 hPa 0,0 l/m 4,5 km/h (1 Bft) S-SW 211 0 min 0,000 mm 0,0 UV-I 0 W/m 10,1 C 13,1 C 6,4 km/h (2 Bft) 100,00 %
23.08.2017 00:08 13,0 C 21,7 C 82 % 1018,1 hPa 0,0 l/m 4,5 km/h (1 Bft) S-SW 211 0 min 0,000 mm 0,0 UV-I 0 W/m 10,0 C 13,0 C 8,0 km/h (2 Bft) 96,49 %
23.08.2017 00:10 13,0 C 21,7 C 82 % 1018,2 hPa 0,0 l/m 4,1 km/h (1 Bft) S-SW 211 0 min 0,000 mm 0,0 UV-I 0 W/m 10,0 C 13,0 C 6,4 km/h (2 Bft) 100,00 %
23.08.2017 00:12 12,9 C 21,7 C 82 % 1018,1 hPa 0,0 l/m 5,1 km/h (1 Bft) S-SW 211 0 min 0,000 mm 0,0 UV-I 0 W/m 9,9 C 12,9 C 6,4 km/h (2 Bft) 100,00 %
23.08.2017 00:14 13,0 C 21,7 C 82 % 1018,1 hPa 0,0 l/m 4,1 km/h (1 Bft) S-SW 211 0 min 0,000 mm 0,0 UV-I 0 W/m 10,0 C 13,0 C 8,0 km/h (2 Bft) 100,00 %
23.08.2017 00:16 13,0 C 21,7 C 82 % 1018,1 hPa 0,0 l/m 5,0 km/h (1 Bft) S-SW 211 0 min 0,000 mm 0,0 UV-I 0 W/m 10,0 C 13,0 C 8,0 km/h (2 Bft) 100,00 %
23.08.2017 00:18 13,0 C 21,7 C 82 % 1018,1 hPa 0,0 l/m 5,1 km/h (1 Bft) S-SW 209 0 min 0,000 mm 0,0 UV-I 0 W/m 10,0 C 13,0 C 8,0 km/h (2 Bft) 100,00 %
23.08.2017 00:20 13,0 C 21,7 C 82 % 1018,0 hPa 0,0 l/m 5,2 km/h (1 Bft) S-SW 201 0 min 0,000 mm 0,0 UV-I 0 W/m 10,0 C 13,0 C 8,0 km/h (2 Bft) 100,00 %
23.08.2017 00:22 12,9 C 21,7 C 82 % 1018,0 hPa 0,0 l/m 4,0 km/h (1 Bft) S-SW 201 0 min 0,000 mm 0,0 UV-I 0 W/m 9,9 C 12,9 C 6,4 km/h (2 Bft) 94,34 %
23.08.2017 00:24 12,9 C 21,7 C 82 % 1018,1 hPa 0,0 l/m 5,2 km/h (1 Bft) S-SW 197 0 min 0,000 mm 0,0 UV-I 0 W/m 9,9 C 12,9 C 6,4 km/h (2 Bft) 94,74 %
23.08.2017 00:26 13,0 C 21,7 C 82 % 1018,1 hPa 0,0 l/m 5,1 km/h (1 Bft) S-SW 197 0 min 0,000 mm 0,0 UV-I 0 W/m 10,0 C 13,0 C 8,0 km/h (2 Bft) 96,23 %
23.08.2017 00:28 13,0 C 21,7 C 82 % 1018,1 hPa 0,0 l/m 5,1 km/h (1 Bft) S-SW 196 0 min 0,000 mm 0,0 UV-I 0 W/m 10,0 C 13,0 C 8,0 km/h (2 Bft) 95,74 %
23.08.2017 00:30 13,0 C 21,7 C 83 % 1018,2 hPa 0,0 l/m 4,8 km/h (1 Bft) S-SW 196 0 min 0,000 mm 0,0 UV-I 0 W/m 10,2 C 13,0 C 8,0 km/h (2 Bft) 94,00 %
23.08.2017 00:32 12,9 C 21,7 C 83 % 1018,1 hPa 0,0 l/m 6,0 km/h (2 Bft) S-SW 196 0 min 0,000 mm 0,0 UV-I 0 W/m 10,1 C 12,9 C 9,7 km/h (2 Bft) 94,29 %
23.08.2017 00:34 12,9 C 21,7 C 83 % 1018,1 hPa 0,0 l/m 4,6 km/h (1 Bft) S-SW 196 0 min 0,000 mm 0,0 UV-I 0 W/m 10,1 C 12,9 C 6,4 km/h (2 Bft) 96,43 %
23.08.2017 00:36 12,9 C 21,7 C 83 % 1018,1 hPa 0,0 l/m 4,9 km/h (1 Bft) S-SW 196 0 min 0,000 mm 0,0 UV-I 0 W/m 10,1 C 12,9 C 9,7 km/h (2 Bft) 96,00 %
23.08.2017 00:38 12,9 C 21,7 C 83 % 1018,0 hPa 0,0 l/m 5,6 km/h (1 Bft) S-SW 196 0 min 0,000 mm 0,0 UV-I 0 W/m 10,1 C 12,9 C 9,7 km/h (2 Bft) 91,49 %
23.08.2017 00:40 12,9 C 21,7 C 83 % 1018,1 hPa 0,0 l/m 4,9 km/h (1 Bft) S-SW 196 0 min 0,000 mm 0,0 UV-I 0 W/m 10,1 C 12,9 C 8,0 km/h (2 Bft) 94,74 %
23.08.2017 00:42 12,9 C 21,1 C 83 % 1018,1 hPa 0,0 l/m 5,5 km/h (1 Bft) S-SW 195 0 min 0,000 mm 0,0 UV-I 0 W/m 10,1 C 12,9 C 9,7 km/h (2 Bft) 94,64 %
23.08.2017 00:44 12,9 C 21,1 C 83 % 1018,0 hPa 0,0 l/m 4,6 km/h (1 Bft) S-SW 195 0 min 0,000 mm 0,0 UV-I 0 W/m 10,1 C 12,9 C 6,4 km/h (2 Bft) 93,62 %
23.08.2017 00:46 12,9 C 21,1 C 83 % 1018,0 hPa 0,0 l/m 5,2 km/h (1 Bft) S-SW 195 0 min 0,000 mm 0,0 UV-I 0 W/m 10,1 C 12,9 C 8,0 km/h (2 Bft) 97,37 %
23.08.2017 00:48 12,9 C 21,1 C 83 % 1018,0 hPa 0,0 l/m 5,1 km/h (1 Bft) S-SW 205 0 min 0,000 mm 0,0 UV-I 0 W/m 10,1 C 12,9 C 8,0 km/h (2 Bft) 92,00 %
23.08.2017 00:50 12,9 C 21,1 C 83 % 1018,0 hPa 0,0 l/m 5,4 km/h (1 Bft) S-SW 205 0 min 0,000 mm 0,0 UV-I 0 W/m 10,1 C 12,9 C 9,7 km/h (2 Bft) 96,00 %
23.08.2017 00:52 12,8 C 21,1 C 83 % 1018,0 hPa 0,0 l/m 4,9 km/h (1 Bft) S-SW 205 0 min 0,000 mm 0,0 UV-I 0 W/m 10,0 C 12,8 C 8,0 km/h (2 Bft) 95,74 %
23.08.2017 00:54 12,8 C 21,1 C 83 % 1018,0 hPa 0,0 l/m 6,2 km/h (2 Bft) S-SW 205 0 min 0,000 mm 0,0 UV-I 0 W/m 10,0 C 12,8 C 9,7 km/h (2 Bft) 95,74 %
23.08.2017 00:56 12,8 C 21,1 C 83 % 1018,0 hPa 0,0 l/m 5,6 km/h (1 Bft) S-SW 205 0 min 0,000 mm 0,0 UV-I 0 W/m 10,0 C 12,8 C 8,0 km/h (2 Bft) 95,24 %
23.08.2017 00:58 12,8 C 21,1 C 83 % 1018,0 hPa 0,0 l/m 5,5 km/h (1 Bft) S-SW 209 0 min 0,000 mm 0,0 UV-I 0 W/m 10,0 C 12,8 C 9,7 km/h (2 Bft) 96,15 %
23.08.2017 01:00 12,8 C 21,1 C 83 % 1017,9 hPa 0,0 l/m 6,2 km/h (2 Bft) S 186 0 min 0,025 mm 0,0 UV-I 0 W/m 10,0 C 12,8 C 8,0 km/h (2 Bft) 97,44 %
23.08.2017 01:02 12,8 C 21,1 C 83 % 1017,9 hPa 0,0 l/m 5,0 km/h (1 Bft) S 189 0 min 0,000 mm 0,0 UV-I 0 W/m 10,0 C 12,8 C 8,0 km/h (2 Bft) 97,87 %
23.08.2017 01:04 12,7 C 21,1 C 83 % 1017,9 hPa 0,0 l/m 4,4 km/h (1 Bft) S 180 0 min 0,000 mm 0,0 UV-I 0 W/m 9,9 C 12,7 C 6,4 km/h (2 Bft) 97,87 %
23.08.2017 01:06 12,7 C 21,1 C 83 % 1017,9 hPa 0,0 l/m 4,5 km/h (1 Bft) S 181 0 min 0,000 mm 0,0 UV-I 0 W/m 9,9 C 12,7 C 6,4 km/h (2 Bft) 96,00 %
23.08.2017 01:08 12,7 C 21,1 C 83 % 1017,9 hPa 0,0 l/m 4,0 km/h (1 Bft) S 181 0 min 0,000 mm 0,0 UV-I 0 W/m 9,9 C 12,7 C 8,0 km/h (2 Bft) 96,00 %
23.08.2017 01:10 12,7 C 21,1 C 83 % 1017,9 hPa 0,0 l/m 4,1 km/h (1 Bft) S 181 0 min 0,000 mm 0,0 UV-I 0 W/m 9,9 C 12,7 C 6,4 km/h (2 Bft) 95,74 %
23.08.2017 01:12 12,7 C 21,1 C 84 % 1017,9 hPa 0,0 l/m 3,7 km/h (1 Bft) S 181 0 min 0,000 mm 0,0 UV-I 0 W/m 10,1 C 12,7 C 4,8 km/h (1 Bft) 97,56 %
23.08.2017 01:14 12,6 C 21,1 C 84 % 1017,9 hPa 0,0 l/m 4,1 km/h (1 Bft) S 181 0 min 0,000 mm 0,0 UV-I 0 W/m 10,0 C 12,6 C 6,4 km/h (2 Bft) 98,00 %
23.08.2017 01:16 12,6 C 21,1 C 84 % 1017,8 hPa 0,0 l/m 3,7 km/h (1 Bft) S 181 0 min 0,000 mm 0,0 UV-I 0 W/m 10,0 C 12,6 C 6,4 km/h (2 Bft) 95,74 %
23.08.2017 01:18 12,6 C 21,1 C 84 % 1017,9 hPa 0,0 l/m 5,8 km/h (2 Bft) S 181 0 min 0,000 mm 0,0 UV-I 0 W/m 10,0 C 12,6 C 9,7 km/h (2 Bft) 100,00 %
23.08.2017 01:20 12,6 C 21,1 C 84 % 1017,9 hPa 0,0 l/m 4,8 km/h (1 Bft) S 181 0 min 0,000 mm 0,0 UV-I 0 W/m 10,0 C 12,6 C 8,0 km/h (2 Bft) 97,37 %
23.08.2017 01:22 12,6 C 21,1 C 84 % 1017,9 hPa 0,0 l/m 4,3 km/h (1 Bft) S 181 0 min 0,000 mm 0,0 UV-I 0 W/m 10,0 C 12,6 C 6,4 km/h (2 Bft) 98,04 %
23.08.2017 01:24 12,6 C 21,1 C 84 % 1017,8 hPa 0,0 l/m 6,0 km/h (2 Bft) S 181 0 min 0,000 mm 0,0 UV-I 0 W/m 10,0 C 12,6 C 8,0 km/h (2 Bft) 100,00 %
23.08.2017 01:26 12,6 C 21,1 C 84 % 1017,9 hPa 0,0 l/m 5,6 km/h (1 Bft) S-SW 198 0 min 0,000 mm 0,0 UV-I 0 W/m 10,0 C 12,6 C 8,0 km/h (2 Bft) 100,00 %
23.08.2017 01:28 12,6 C 21,1 C 84 % 1017,9 hPa 0,0 l/m 4,8 km/h (1 Bft) S-SW 198 0 min 0,000 mm 0,0 UV-I 0 W/m 10,0 C 12,6 C 8,0 km/h (2 Bft) 100,00 %
23.08.2017 01:30 12,6 C 21,1 C 84 % 1017,9 hPa 0,0 l/m 5,9 km/h (2 Bft) S-SW 196 0 min 0,000 mm 0,0 UV-I 0 W/m 10,0 C 12,6 C 9,7 km/h (2 Bft) 100,00 %
23.08.2017 01:32 12,6 C 21,1 C 84 % 1017,9 hPa 0,0 l/m 5,6 km/h (1 Bft) S 188 0 min 0,000 mm 0,0 UV-I 0 W/m 10,0 C 12,6 C 9,7 km/h (2 Bft) 97,56 %
23.08.2017 01:34 12,6 C 21,1 C 84 % 1017,9 hPa 0,0 l/m 6,7 km/h (2 Bft) S-SW 206 0 min 0,000 mm 0,0 UV-I 0 W/m 10,0 C 12,4 C 9,7 km/h (2 Bft) 98,00 %
23.08.2017 01:36 12,6 C 21,1 C 84 % 1017,9 hPa 0,0 l/m 5,0 km/h (1 Bft) S-SW 203 0 min 0,000 mm 0,0 UV-I 0 W/m 10,0 C 12,6 C 9,7 km/h (2 Bft) 100,00 %
23.08.2017 01:38 12,6 C 21,1 C 83 % 1017,9 hPa 0,0 l/m 6,0 km/h (2 Bft) S-SW 194 0 min 0,000 mm 0,0 UV-I 0 W/m 9,8 C 12,6 C 9,7 km/h (2 Bft) 100,00 %
23.08.2017 01:40 12,6 C 21,1 C 83 % 1017,9 hPa 0,0 l/m 3,9 km/h (1 Bft) S-SW 194 0 min 0,000 mm 0,0 UV-I 0 W/m 9,8 C 12,6 C 6,4 km/h (2 Bft) 100,00 %
23.08.2017 01:42 12,5 C 21,1 C 84 % 1017,9 hPa 0,0 l/m 4,4 km/h (1 Bft) S-SW 195 0 min 0,000 mm 0,0 UV-I 0 W/m 9,9 C 12,5 C 6,4 km/h (2 Bft) 100,00 %
23.08.2017 01:44 12,4 C 21,1 C 84 % 1017,9 hPa 0,0 l/m 3,7 km/h (1 Bft) S-SW 195 0 min 0,000 mm 0,0 UV-I 0 W/m 9,8 C 12,4 C 8,0 km/h (2 Bft) 100,00 %
23.08.2017 01:46 12,4 C 21,1 C 84 % 1017,9 hPa 0,0 l/m 3,9 km/h (1 Bft) S-SW 195 0 min 0,000 mm 0,0 UV-I 0 W/m 9,8 C 12,4 C 6,4 km/h (2 Bft) 100,00 %
23.08.2017 01:48 12,3 C 21,1 C 84 % 1017,9 hPa 0,0 l/m 3,3 km/h (1 Bft) S-SW 195 0 min 0,000 mm 0,0 UV-I 0 W/m 9,7 C 12,3 C 4,8 km/h (1 Bft) 100,00 %
23.08.2017 01:50 12,3 C 21,1 C 84 % 1017,9 hPa 0,0 l/m 2,8 km/h (1 Bft) S-SW 195 0 min 0,000 mm 0,0 UV-I 0 W/m 9,7 C 12,3 C 4,8 km/h (1 Bft) 100,00 %
23.08.2017 01:52 12,3 C 21,1 C 84 % 1017,9 hPa 0,0 l/m 2,9 km/h (1 Bft) S-SW 195 0 min 0,000 mm 0,0 UV-I 0 W/m 9,7 C 12,3 C 4,8 km/h (1 Bft) 100,00 %
23.08.2017 01:54 12,2 C 21,1 C 85 % 1017,9 hPa 0,0 l/m 3,6 km/h (1 Bft) S-SW 195 0 min 0,000 mm 0,0 UV-I 0 W/m 9,8 C 12,2 C 6,4 km/h (2 Bft) 100,00 %
23.08.2017 01:56 12,2 C 21,1 C 85 % 1017,9 hPa 0,0 l/m 3,2 km/h (1 Bft) S-SW 195 0 min 0,000 mm 0,0 UV-I 0 W/m 9,8 C 12,2 C 4,8 km/h (1 Bft) 100,00 %
23.08.2017 01:58 12,2 C 21,1 C 85 % 1017,9 hPa 0,0 l/m 3,1 km/h (1 Bft) S-SW 195 0 min 0,000 mm 0,0 UV-I 0 W/m 9,8 C 12,2 C 4,8 km/h (1 Bft) 98,00 %
23.08.2017 02:00 12,1 C 21,1 C 85 % 1017,9 hPa 0,0 l/m 3,2 km/h (1 Bft) S-SW 195 0 min 0,000 mm 0,0 UV-I 0 W/m 9,7 C 12,1 C 4,8 km/h (1 Bft) 100,00 %
23.08.2017 02:02 12,1 C 21,1 C 85 % 1017,9 hPa 0,0 l/m 4,0 km/h (1 Bft) S-SW 195 0 min 0,000 mm 0,0 UV-I 0 W/m 9,7 C 12,1 C 4,8 km/h (1 Bft) 100,00 %
23.08.2017 02:04 11,9 C 21,1 C 85 % 1017,9 hPa 0,0 l/m 4,2 km/h (1 Bft) S-SW 195 0 min 0,000 mm 0,0 UV-I 0 W/m 9,5 C 11,9 C 4,8 km/h (1 Bft) 100,00 %
23.08.2017 02:06 11,9 C 21,1 C 85 % 1017,9 hPa 0,0 l/m 3,9 km/h (1 Bft) S-SW 195 0 min 0,000 mm 0,0 UV-I 0 W/m 9,5 C 11,9 C 4,8 km/h (1 Bft) 97,73 %
23.08.2017 02:08 11,8 C 21,1 C 86 % 1017,9 hPa 0,0 l/m 2,5 km/h (1 Bft) S-SW 195 0 min 0,000 mm 0,0 UV-I 0 W/m 9,5 C 11,8 C 4,8 km/h (1 Bft) 100,00 %
23.08.2017 02:10 11,8 C 21,1 C 86 % 1017,8 hPa 0,0 l/m 2,9 km/h (1 Bft) S-SW 195 0 min 0,000 mm 0,0 UV-I 0 W/m 9,5 C 11,8 C 4,8 km/h (1 Bft) 100,00 %
23.08.2017 02:12 11,7 C 21,1 C 86 % 1017,8 hPa 0,0 l/m 2,7 km/h (1 Bft) S-SW 195 0 min 0,000 mm 0,0 UV-I 0 W/m 9,4 C 11,7 C 4,8 km/h (1 Bft) 100,00 %
23.08.2017 02:14 11,7 C 21,1 C 86 % 1017,9 hPa 0,0 l/m 2,9 km/h (1 Bft) S-SW 195 0 min 0,000 mm 0,0 UV-I 0 W/m 9,4 C 11,7 C 4,8 km/h (1 Bft) 100,00 %
23.08.2017 02:16 11,7 C 21,1 C 87 % 1017,8 hPa 0,0 l/m 2,5 km/h (1 Bft) S-SW 195 0 min 0,000 mm 0,0 UV-I 0 W/m 9,6 C 11,7 C 4,8 km/h (1 Bft) 100,00 %
23.08.2017 02:18 11,6 C 21,1 C 87 % 1017,9 hPa 0,0 l/m 2,4 km/h (1 Bft) S-SW 195 0 min 0,000 mm 0,0 UV-I 0 W/m 9,5 C 11,6 C 3,2 km/h (1 Bft) 100,00 %
23.08.2017 02:20 11,6 C 21,1 C 87 % 1017,9 hPa 0,0 l/m 1,9 km/h (1 Bft) S-SW 195 0 min 0,000 mm 0,0 UV-I 0 W/m 9,5 C 11,6 C 3,2 km/h (1 Bft) 100,00 %
23.08.2017 02:22 11,6 C 21,1 C 87 % 1017,9 hPa 0,0 l/m 1,9 km/h (1 Bft) S-SW 195 0 min 0,000 mm 0,0 UV-I 0 W/m 9,5 C 11,6 C 3,2 km/h (1 Bft) 100,00 %
23.08.2017 02:24 11,5 C 21,1 C 87 % 1017,9 hPa 0,0 l/m 2,2 km/h (1 Bft) S-SW 195 0 min 0,000 mm 0,0 UV-I 0 W/m 9,4 C 11,5 C 4,8 km/h (1 Bft) 98,11 %
23.08.2017 02:26 11,4 C 21,1 C 87 % 1017,9 hPa 0,0 l/m 2,7 km/h (1 Bft) S-SW 195 0 min 0,000 mm 0,0 UV-I 0 W/m 9,3 C 11,4 C 3,2 km/h (1 Bft) 97,37 %
23.08.2017 02:28 11,3 C 21,1 C 87 % 1017,9 hPa 0,0 l/m 2,4 km/h (1 Bft) S-SW 195 0 min 0,000 mm 0,0 UV-I 0 W/m 9,2 C 11,3 C 3,2 km/h (1 Bft) 98,00 %
23.08.2017 02:30 11,3 C 21,1 C 88 % 1017,9 hPa 0,0 l/m 1,4 km/h (1 Bft) S-SW 195 0 min 0,000 mm 0,0 UV-I 0 W/m 9,4 C 11,3 C 3,2 km/h (1 Bft) 96,00 %
23.08.2017 02:32 11,2 C 21,1 C 88 % 1017,9 hPa 0,0 l/m 1,1 km/h (1 Bft) S-SW 195 0 min 0,000 mm 0,0 UV-I 0 W/m 9,3 C 11,2 C 3,2 km/h (1 Bft) 94,00 %
23.08.2017 02:34 11,2 C 21,1 C 88 % 1017,9 hPa 0,0 l/m 2,1 km/h (1 Bft) S-SW 195 0 min 0,000 mm 0,0 UV-I 0 W/m 9,3 C 11,2 C 4,8 km/h (1 Bft) 97,37 %
23.08.2017 02:36 11,2 C 21,1 C 88 % 1017,8 hPa 0,0 l/m 2,1 km/h (1 Bft) S-SW 195 0 min 0,000 mm 0,0 UV-I 0 W/m 9,3 C 11,2 C 3,2 km/h (1 Bft) 98,00 %
23.08.2017 02:38 11,2 C 21,1 C 89 % 1017,8 hPa 0,0 l/m 1,4 km/h (1 Bft) S-SW 195 0 min 0,000 mm 0,0 UV-I 0 W/m 9,5 C 11,2 C 3,2 km/h (1 Bft) 98,11 %
23.08.2017 02:40 11,2 C 21,1 C 89 % 1017,9 hPa 0,0 l/m 1,7 km/h (1 Bft) S-SW 195 0 min 0,000 mm 0,0 UV-I 0 W/m 9,5 C 11,2 C 3,2 km/h (1 Bft) 94,29 %
23.08.2017 02:42 11,2 C 21,1 C 89 % 1017,8 hPa 0,0 l/m 1,4 km/h (1 Bft) S-SW 195 0 min 0,000 mm 0,0 UV-I 0 W/m 9,5 C 11,2 C 3,2 km/h (1 Bft) 96,00 %
23.08.2017 02:44 11,2 C 21,1 C 89 % 1017,8 hPa 0,0 l/m 0,4 km/h (0 Bft) S-SW 195 0 min 0,000 mm 0,0 UV-I 0 W/m 9,5 C 11,2 C 1,6 km/h (1 Bft) 98,00 %
23.08.2017 02:46 11,1 C 21,1 C 89 % 1017,9 hPa 0,0 l/m 0,0 km/h (0 Bft) S-SW 195 0 min 0,000 mm 0,0 UV-I 0 W/m 9,4 C 11,1 C 0,0 km/h (0 Bft) 96,00 %
23.08.2017 02:48 11,0 C 21,1 C 89 % 1017,9 hPa 0,0 l/m 0,2 km/h (0 Bft) S-SW 195 0 min 0,000 mm 0,0 UV-I 0 W/m 9,3 C 11,0 C 1,6 km/h (1 Bft) 97,14 %
23.08.2017 02:50 10,9 C 21,1 C 90 % 1017,9 hPa 0,0 l/m 0,0 km/h (0 Bft) S-SW 195 0 min 0,000 mm 0,0 UV-I 0 W/m 9,3 C 10,9 C 0,0 km/h (0 Bft) 96,00 %
23.08.2017 02:52 10,8 C 21,1 C 90 % 1017,9 hPa 0,0 l/m 0,0 km/h (0 Bft) S-SW 195 0 min 0,000 mm 0,0 UV-I 0 W/m 9,2 C 10,8 C 0,0 km/h (0 Bft) 98,00 %
23.08.2017 02:54 10,8 C 21,1 C 90 % 1017,9 hPa 0,0 l/m 0,0 km/h (0 Bft) S-SW 195 0 min 0,000 mm 0,0 UV-I 0 W/m 9,2 C 10,8 C 0,0 km/h (0 Bft) 98,04 %
23.08.2017 02:56 10,8 C 21,1 C 90 % 1017,9 hPa 0,0 l/m 0,0 km/h (0 Bft) S-SW 195 0 min 0,000 mm 0,0 UV-I 0 W/m 9,2 C 10,8 C 0,0 km/h (0 Bft) 97,37 %
23.08.2017 02:58 10,8 C 21,1 C 90 % 1017,9 hPa 0,0 l/m 0,0 km/h (0 Bft) S-SW 195 0 min 0,000 mm 0,0 UV-I 0 W/m 9,2 C 10,8 C 0,0 km/h (0 Bft) 96,00 %
23.08.2017 03:00 10,8 C 21,1 C 90 % 1017,8 hPa 0,0 l/m 0,0 km/h (0 Bft) S-SW 195 0 min 0,000 mm 0,0 UV-I 0 W/m 9,2 C 10,8 C 0,0 km/h (0 Bft) 98,00 %
23.08.2017 03:02 10,8 C 21,1 C 90 % 1017,8 hPa 0,0 l/m 0,0 km/h (0 Bft) S-SW 195 0 min 0,000 mm 0,0 UV-I 0 W/m 9,2 C 10,8 C 0,0 km/h (0 Bft) 100,00 %
23.08.2017 03:04 10,8 C 21,1 C 90 % 1017,8 hPa 0,0 l/m 0,0 km/h (0 Bft) S-SW 195 0 min 0,000 mm 0,0 UV-I 0 W/m 9,2 C 10,8 C 0,0 km/h (0 Bft) 96,00 %
23.08.2017 03:06 10,8 C 21,1 C 90 % 1017,8 hPa 0,0 l/m 0,0 km/h (0 Bft) S-SW 195 0 min 0,000 mm 0,0 UV-I 0 W/m 9,2 C 10,8 C 0,0 km/h (0 Bft) 98,00 %
23.08.2017 03:08 10,7 C 21,1 C 90 % 1017,8 hPa 0,0 l/m 0,0 km/h (0 Bft) S-SW 195 0 min 0,000 mm 0,0 UV-I 0 W/m 9,1 C 10,7 C 0,0 km/h (0 Bft) 100,00 %
23.08.2017 03:10 10,7 C 21,1 C 90 % 1017,8 hPa 0,0 l/m 0,0 km/h (0 Bft) S-SW 195 0 min 0,000 mm 0,0 UV-I 0 W/m 9,1 C 10,7 C 0,0 km/h (0 Bft) 100,00 %
23.08.2017 03:12 10,6 C 21,1 C 90 % 1017,8 hPa 0,0 l/m 0,0 km/h (0 Bft) S-SW 195 0 min 0,000 mm 0,0 UV-I 0 W/m 9,0 C 10,6 C 0,0 km/h (0 Bft) 100,00 %
23.08.2017 03:14 10,6 C 21,1 C 90 % 1017,9 hPa 0,0 l/m 0,4 km/h (0 Bft) S-SW 195 0 min 0,000 mm 0,0 UV-I 0 W/m 9,0 C 10,6 C 4,8 km/h (1 Bft) 98,00 %
23.08.2017 03:16 10,7 C 21,1 C 91 % 1017,9 hPa 0,0 l/m 2,6 km/h (1 Bft) S-SW 194 0 min 0,000 mm 0,0 UV-I 0 W/m 9,3 C 10,7 C 4,8 km/h (1 Bft) 100,00 %
23.08.2017 03:18 10,7 C 21,1 C 91 % 1017,9 hPa 0,0 l/m 2,5 km/h (1 Bft) S-SW 194 0 min 0,000 mm 0,0 UV-I 0 W/m 9,3 C 10,7 C 4,8 km/h (1 Bft) 97,18 %
23.08.2017 03:20 10,8 C 21,1 C 90 % 1018,0 hPa 0,0 l/m 2,1 km/h (1 Bft) S-SW 194 0 min 0,000 mm 0,0 UV-I 0 W/m 9,2 C 10,8 C 3,2 km/h (1 Bft) 100,00 %
23.08.2017 03:22 10,7 C 21,1 C 90 % 1018,0 hPa 0,0 l/m 0,5 km/h (0 Bft) S-SW 194 0 min 0,000 mm 0,0 UV-I 0 W/m 9,1 C 10,7 C 1,6 km/h (1 Bft) 100,00 %
23.08.2017 03:24 10,7 C 21,1 C 90 % 1018,1 hPa 0,0 l/m 0,3 km/h (0 Bft) S-SW 194 0 min 0,000 mm 0,0 UV-I 0 W/m 9,1 C 10,7 C 1,6 km/h (1 Bft) 98,00 %
23.08.2017 03:26 10,6 C 21,1 C 90 % 1018,1 hPa 0,0 l/m 0,0 km/h (0 Bft) S-SW 194 0 min 0,000 mm 0,0 UV-I 0 W/m 9,0 C 10,6 C 1,6 km/h (1 Bft) 100,00 %
23.08.2017 03:28 10,4 C 21,1 C 90 % 1018,2 hPa 0,0 l/m 0,1 km/h (0 Bft) S-SW 194 0 min 0,000 mm 0,0 UV-I 0 W/m 8,8 C 10,4 C 1,6 km/h (1 Bft) 100,00 %
23.08.2017 03:30 10,3 C 21,1 C 91 % 1018,2 hPa 0,0 l/m 1,4 km/h (1 Bft) S-SW 194 0 min 0,000 mm 0,0 UV-I 0 W/m 8,9 C 10,3 C 3,2 km/h (1 Bft) 100,00 %
23.08.2017 03:32 10,2 C 21,1 C 91 % 1018,2 hPa 0,0 l/m 3,6 km/h (1 Bft) S-SW 194 0 min 0,000 mm 0,0 UV-I 0 W/m 8,8 C 10,2 C 4,8 km/h (1 Bft) 96,00 %
23.08.2017 03:34 10,3 C 21,1 C 92 % 1018,2 hPa 0,0 l/m 3,2 km/h (1 Bft) S-SW 194 0 min 0,000 mm 0,0 UV-I 0 W/m 9,1 C 10,3 C 4,8 km/h (1 Bft) 97,62 %
23.08.2017 03:36 10,3 C 21,1 C 92 % 1018,2 hPa 0,0 l/m 2,9 km/h (1 Bft) S-SW 194 0 min 0,000 mm 0,0 UV-I 0 W/m 9,1 C 10,3 C 4,8 km/h (1 Bft) 97,87 %
23.08.2017 03:38 10,3 C 21,1 C 92 % 1018,1 hPa 0,0 l/m 2,6 km/h (1 Bft) S-SW 194 0 min 0,000 mm 0,0 UV-I 0 W/m 9,1 C 10,3 C 4,8 km/h (1 Bft) 98,00 %
23.08.2017 03:40 10,4 C 21,1 C 92 % 1018,1 hPa 0,0 l/m 0,6 km/h (0 Bft) S-SW 194 0 min 0,000 mm 0,0 UV-I 0 W/m 9,2 C 10,4 C 3,2 km/h (1 Bft) 98,00 %
23.08.2017 03:42 10,4 C 21,1 C 92 % 1018,0 hPa 0,0 l/m 0,5 km/h (0 Bft) S-SW 194 0 min 0,000 mm 0,0 UV-I 0 W/m 9,2 C 10,4 C 1,6 km/h (1 Bft) 97,87 %
23.08.2017 03:44 10,4 C 21,1 C 92 % 1018,0 hPa 0,0 l/m 1,1 km/h (1 Bft) S-SW 194 0 min 0,000 mm 0,0 UV-I 0 W/m 9,2 C 10,4 C 3,2 km/h (1 Bft) 97,87 %
23.08.2017 03:46 10,3 C 21,1 C 92 % 1017,9 hPa 0,0 l/m 0,6 km/h (0 Bft) S-SW 194 0 min 0,000 mm 0,0 UV-I 0 W/m 9,1 C 10,3 C 1,6 km/h (1 Bft) 97,37 %
23.08.2017 03:48 10,3 C 21,1 C 92 % 1018,0 hPa 0,0 l/m 0,1 km/h (0 Bft) S-SW 194 0 min 0,000 mm 0,0 UV-I 0 W/m 9,1 C 10,3 C 1,6 km/h (1 Bft) 98,11 %
23.08.2017 03:50 10,3 C 21,1 C 92 % 1018,0 hPa 0,0 l/m 0,7 km/h (0 Bft) S-SW 194 0 min 0,000 mm 0,0 UV-I 0 W/m 9,1 C 10,3 C 3,2 km/h (1 Bft) 95,74 %
23.08.2017 03:52 10,2 C 21,1 C 92 % 1018,0 hPa 0,0 l/m 0,8 km/h (0 Bft) S-SW 194 0 min 0,000 mm 0,0 UV-I 0 W/m 9,0 C 10,2 C 3,2 km/h (1 Bft) 93,18 %
23.08.2017 03:54 10,1 C 21,1 C 91 % 1018,0 hPa 0,0 l/m 2,0 km/h (1 Bft) S-SW 194 0 min 0,000 mm 0,0 UV-I 0 W/m 8,7 C 10,1 C 3,2 km/h (1 Bft) 97,87 %
23.08.2017 03:56 10,0 C 21,1 C 91 % 1018,0 hPa 0,0 l/m 0,2 km/h (0 Bft) S-SW 194 0 min 0,000 mm 0,0 UV-I 0 W/m 8,6 C 10,0 C 1,6 km/h (1 Bft) 96,00 %
23.08.2017 03:58 9,9 C 21,1 C 92 % 1018,0 hPa 0,0 l/m 0,0 km/h (0 Bft) S-SW 194 0 min 0,000 mm 0,0 UV-I 0 W/m 8,7 C 9,9 C 0,0 km/h (0 Bft) 98,11 %
23.08.2017 04:00 9,9 C 21,1 C 92 % 1018,0 hPa 0,0 l/m 0,0 km/h (0 Bft) S-SW 194 0 min 0,000 mm 0,0 UV-I 0 W/m 8,7 C 9,9 C 1,6 km/h (1 Bft) 97,14 %
23.08.2017 04:02 9,9 C 21,1 C 92 % 1018,0 hPa 0,0 l/m 0,5 km/h (0 Bft) S-SW 194 0 min 0,000 mm 0,0 UV-I 0 W/m 8,7 C 9,9 C 3,2 km/h (1 Bft) 91,30 %
23.08.2017 04:04 9,9 C 21,1 C 93 % 1018,0 hPa 0,0 l/m 1,0 km/h (0 Bft) S-SW 194 0 min 0,000 mm 0,0 UV-I 0 W/m 8,8 C 9,9 C 3,2 km/h (1 Bft) 98,11 %
23.08.2017 04:06 9,9 C 21,1 C 92 % 1017,9 hPa 0,0 l/m 0,5 km/h (0 Bft) S-SW 194 0 min 0,000 mm 0,0 UV-I 0 W/m 8,7 C 9,9 C 1,6 km/h (1 Bft) 98,00 %
23.08.2017 04:08 9,9 C 21,1 C 92 % 1018,0 hPa 0,0 l/m 0,9 km/h (0 Bft) S-SW 194 0 min 0,000 mm 0,0 UV-I 0 W/m 8,7 C 9,9 C 3,2 km/h (1 Bft) 100,00 %
23.08.2017 04:10 9,9 C 21,1 C 92 % 1017,9 hPa 0,0 l/m 0,0 km/h (0 Bft) S-SW 194 0 min 0,000 mm 0,0 UV-I 0 W/m 8,7 C 9,9 C 1,6 km/h (1 Bft) 96,00 %
23.08.2017 04:12 9,9 C 21,1 C 92 % 1017,9 hPa 0,0 l/m 0,0 km/h (0 Bft) S-SW 194 0 min 0,000 mm 0,0 UV-I 0 W/m 8,7 C 9,9 C 0,0 km/h (0 Bft) 98,11 %
23.08.2017 04:14 9,9 C 21,1 C 92 % 1017,9 hPa 0,0 l/m 1,4 km/h (1 Bft) S-SW 194 0 min 0,000 mm 0,0 UV-I 0 W/m 8,7 C 9,9 C 4,8 km/h (1 Bft) 95,74 %
23.08.2017 04:16 9,8 C 21,1 C 93 % 1017,9 hPa 0,0 l/m 1,5 km/h (1 Bft) S-SW 194 0 min 0,000 mm 0,0 UV-I 0 W/m 8,7 C 9,8 C 3,2 km/h (1 Bft) 100,00 %
23.08.2017 04:18 9,8 C 21,1 C 92 % 1017,9 hPa 0,0 l/m 0,7 km/h (0 Bft) S-SW 194 0 min 0,000 mm 0,0 UV-I 0 W/m 8,6 C 9,8 C 3,2 km/h (1 Bft) 98,00 %
23.08.2017 04:20 9,8 C 21,1 C 92 % 1017,9 hPa 0,0 l/m 1,6 km/h (1 Bft) S-SW 194 0 min 0,000 mm 0,0 UV-I 0 W/m 8,6 C 9,8 C 4,8 km/h (1 Bft) 98,11 %
23.08.2017 04:22 9,7 C 21,1 C 92 % 1017,9 hPa 0,0 l/m 2,7 km/h (1 Bft) S-SW 194 0 min 0,000 mm 0,0 UV-I 0 W/m 8,5 C 9,7 C 4,8 km/h (1 Bft) 100,00 %
23.08.2017 04:24 9,7 C 21,1 C 93 % 1017,9 hPa 0,0 l/m 1,9 km/h (1 Bft) S-SW 194 0 min 0,000 mm 0,0 UV-I 0 W/m 8,6 C 9,7 C 4,8 km/h (1 Bft) 100,00 %
23.08.2017 04:26 9,7 C 21,1 C 93 % 1017,9 hPa 0,0 l/m 1,6 km/h (1 Bft) S-SW 194 0 min 0,000 mm 0,0 UV-I 0 W/m 8,6 C 9,7 C 3,2 km/h (1 Bft) 97,87 %
23.08.2017 04:28 9,8 C 21,1 C 93 % 1017,9 hPa 0,0 l/m 0,8 km/h (0 Bft) S-SW 194 0 min 0,000 mm 0,0 UV-I 0 W/m 8,7 C 9,8 C 3,2 km/h (1 Bft) 100,00 %
23.08.2017 04:30 9,8 C 21,1 C 93 % 1017,9 hPa 0,0 l/m 0,5 km/h (0 Bft) S-SW 194 0 min 0,000 mm 0,0 UV-I 0 W/m 8,7 C 9,8 C 3,2 km/h (1 Bft) 96,00 %
23.08.2017 04:32 9,8 C 21,1 C 93 % 1017,9 hPa 0,0 l/m 0,0 km/h (0 Bft) S-SW 194 0 min 0,000 mm 0,0 UV-I 0 W/m 8,7 C 9,8 C 1,6 km/h (1 Bft) 97,87 %
23.08.2017 04:34 9,8 C 21,1 C 93 % 1017,9 hPa 0,0 l/m 0,5 km/h (0 Bft) S-SW 194 0 min 0,000 mm 0,0 UV-I 0 W/m 8,7 C 9,8 C 1,6 km/h (1 Bft) 95,45 %
23.08.2017 04:36 9,8 C 20,6 C 93 % 1017,8 hPa 0,0 l/m 0,7 km/h (0 Bft) S-SW 194 0 min 0,000 mm 0,0 UV-I 0 W/m 8,7 C 9,8 C 3,2 km/h (1 Bft) 96,00 %
23.08.2017 04:38 9,8 C 20,6 C 93 % 1017,9 hPa 0,0 l/m 0,4 km/h (0 Bft) S-SW 194 0 min 0,000 mm 0,0 UV-I 0 W/m 8,7 C 9,8 C 1,6 km/h (1 Bft) 97,56 %
23.08.2017 04:40 9,8 C 20,6 C 93 % 1017,9 hPa 0,0 l/m 0,5 km/h (0 Bft) S-SW 194 0 min 0,000 mm 0,0 UV-I 0 W/m 8,7 C 9,8 C 1,6 km/h (1 Bft) 98,00 %
23.08.2017 04:42 9,8 C 20,6 C 93 % 1017,8 hPa 0,0 l/m 0,1 km/h (0 Bft) S-SW 194 0 min 0,000 mm 0,0 UV-I 0 W/m 8,7 C 9,8 C 1,6 km/h (1 Bft) 95,74 %
23.08.2017 04:44 9,7 C 20,6 C 92 % 1017,9 hPa 0,0 l/m 0,0 km/h (0 Bft) S-SW 194 0 min 0,000 mm 0,0 UV-I 0 W/m 8,5 C 9,7 C 0,0 km/h (0 Bft) 94,29 %
23.08.2017 04:46 9,5 C 20,6 C 92 % 1017,9 hPa 0,0 l/m 0,2 km/h (0 Bft) S-SW 194 0 min 0,000 mm 0,0 UV-I 0 W/m 8,3 C 9,5 C 1,6 km/h (1 Bft) 98,04 %
23.08.2017 04:48 9,3 C 20,6 C 92 % 1017,9 hPa 0,0 l/m 0,4 km/h (0 Bft) S-SW 194 0 min 0,000 mm 0,0 UV-I 0 W/m 8,1 C 9,3 C 1,6 km/h (1 Bft) 96,43 %
23.08.2017 04:50 9,3 C 20,6 C 93 % 1018,0 hPa 0,0 l/m 2,0 km/h (1 Bft) S-SW 194 0 min 0,000 mm 0,0 UV-I 0 W/m 8,2 C 9,3 C 3,2 km/h (1 Bft) 100,00 %
23.08.2017 04:52 9,2 C 20,6 C 93 % 1018,0 hPa 0,0 l/m 2,4 km/h (1 Bft) S-SW 194 0 min 0,000 mm 0,0 UV-I 0 W/m 8,1 C 9,2 C 4,8 km/h (1 Bft) 96,23 %
23.08.2017 04:54 9,2 C 20,6 C 93 % 1018,0 hPa 0,0 l/m 1,6 km/h (1 Bft) S-SW 194 0 min 0,000 mm 0,0 UV-I 0 W/m 8,1 C 9,2 C 3,2 km/h (1 Bft) 97,62 %
23.08.2017 04:56 9,2 C 20,6 C 93 % 1017,9 hPa 0,0 l/m 0,5 km/h (0 Bft) S-SW 194 0 min 0,000 mm 0,0 UV-I 0 W/m 8,1 C 9,2 C 1,6 km/h (1 Bft) 98,00 %
23.08.2017 04:58 9,2 C 20,6 C 94 % 1017,9 hPa 0,0 l/m 1,7 km/h (1 Bft) S-SW 194 0 min 0,000 mm 0,0 UV-I 0 W/m 8,3 C 9,2 C 3,2 km/h (1 Bft) 97,87 %
23.08.2017 05:00 9,2 C 20,6 C 94 % 1017,9 hPa 0,0 l/m 0,9 km/h (0 Bft) S-SW 194 0 min 0,000 mm 0,0 UV-I 0 W/m 8,3 C 9,2 C 1,6 km/h (1 Bft) 94,00 %
23.08.2017 05:02 9,2 C 20,6 C 94 % 1018,0 hPa 0,0 l/m 1,0 km/h (0 Bft) S-SW 194 0 min 0,000 mm 0,0 UV-I 0 W/m 8,3 C 9,2 C 1,6 km/h (1 Bft) 97,87 %
23.08.2017 05:04 9,3 C 20,6 C 94 % 1018,0 hPa 0,0 l/m 0,1 km/h (0 Bft) S-SW 194 0 min 0,000 mm 0,0 UV-I 0 W/m 8,4 C 9,3 C 1,6 km/h (1 Bft) 100,00 %
23.08.2017 05:06 9,3 C 20,6 C 94 % 1018,0 hPa 0,0 l/m 0,1 km/h (0 Bft) S-SW 194 0 min 0,000 mm 0,0 UV-I 0 W/m 8,4 C 9,3 C 1,6 km/h (1 Bft) 97,87 %
23.08.2017 05:08 9,3 C 20,6 C 94 % 1018,0 hPa 0,0 l/m 0,3 km/h (0 Bft) S-SW 194 0 min 0,000 mm 0,0 UV-I 0 W/m 8,4 C 9,3 C 1,6 km/h (1 Bft) 100,00 %
23.08.2017 05:10 9,3 C 20,6 C 94 % 1018,0 hPa 0,0 l/m 0,7 km/h (0 Bft) S-SW 194 0 min 0,000 mm 0,0 UV-I 0 W/m 8,4 C 9,3 C 1,6 km/h (1 Bft) 97,87 %
23.08.2017 05:12 9,3 C 20,6 C 94 % 1018,0 hPa 0,0 l/m 0,0 km/h (0 Bft) S-SW 194 0 min 0,000 mm 0,0 UV-I 0 W/m 8,4 C 9,3 C 1,6 km/h (1 Bft) 100,00 %
23.08.2017 05:14 9,3 C 20,6 C 94 % 1018,0 hPa 0,0 l/m 0,9 km/h (0 Bft) S-SW 194 0 min 0,000 mm 0,0 UV-I 0 W/m 8,4 C 9,3 C 1,6 km/h (1 Bft) 100,00 %
23.08.2017 05:16 9,2 C 20,6 C 94 % 1018,0 hPa 0,0 l/m 0,4 km/h (0 Bft) S-SW 194 0 min 0,000 mm 0,0 UV-I 0 W/m 8,3 C 9,2 C 1,6 km/h (1 Bft) 100,00 %
23.08.2017 05:18 9,2 C 20,6 C 94 % 1018,1 hPa 0,0 l/m 1,6 km/h (1 Bft) S-SW 194 0 min 0,000 mm 0,0 UV-I 0 W/m 8,3 C 9,2 C 3,2 km/h (1 Bft) 100,00 %
23.08.2017 05:20 9,2 C 20,6 C 94 % 1018,0 hPa 0,0 l/m 1,9 km/h (1 Bft) S-SW 194 0 min 0,000 mm 0,0 UV-I 0 W/m 8,3 C 9,2 C 3,2 km/h (1 Bft) 98,53 %
23.08.2017 05:22 9,2 C 20,6 C 94 % 1018,0 hPa 0,0 l/m 2,5 km/h (1 Bft) S-SW 194 0 min 0,000 mm 0,0 UV-I 0 W/m 8,3 C 9,2 C 3,2 km/h (1 Bft) 96,00 %
23.08.2017 05:24 9,1 C 20,6 C 94 % 1018,0 hPa 0,0 l/m 2,1 km/h (1 Bft) S-SW 194 0 min 0,000 mm 0,0 UV-I 0 W/m 8,2 C 9,1 C 3,2 km/h (1 Bft) 100,00 %
23.08.2017 05:26 9,1 C 20,6 C 94 % 1018,0 hPa 0,0 l/m 2,4 km/h (1 Bft) S-SW 194 0 min 0,000 mm 0,0 UV-I 0 W/m 8,2 C 9,1 C 3,2 km/h (1 Bft) 100,00 %
23.08.2017 05:28 9,1 C 20,6 C 94 % 1018,0 hPa 0,0 l/m 2,1 km/h (1 Bft) S-SW 194 0 min 0,000 mm 0,0 UV-I 0 W/m 8,2 C 9,1 C 3,2 km/h (1 Bft) 100,00 %
23.08.2017 05:30 9,1 C 20,6 C 94 % 1018,0 hPa 0,0 l/m 1,9 km/h (1 Bft) S-SW 194 0 min 0,000 mm 0,0 UV-I 0 W/m 8,2 C 9,1 C 3,2 km/h (1 Bft) 100,00 %
23.08.2017 05:32 9,1 C 20,6 C 94 % 1018,0 hPa 0,0 l/m 1,3 km/h (1 Bft) S-SW 194 0 min 0,000 mm 0,0 UV-I 0 W/m 8,2 C 9,1 C 1,6 km/h (1 Bft) 97,87 %
23.08.2017 05:34 9,1 C 20,6 C 94 % 1018,0 hPa 0,0 l/m 1,5 km/h (1 Bft) S-SW 194 0 min 0,000 mm 0,0 UV-I 0 W/m 8,2 C 9,1 C 3,2 km/h (1 Bft) 100,00 %
23.08.2017 05:36 9,1 C 20,6 C 94 % 1017,9 hPa 0,0 l/m 0,0 km/h (0 Bft) S-SW 194 0 min 0,000 mm 0,0 UV-I 0 W/m 8,2 C 9,1 C 0,0 km/h (0 Bft) 100,00 %
23.08.2017 05:38 9,1 C 20,6 C 94 % 1018,0 hPa 0,0 l/m 0,0 km/h (0 Bft) S-SW 194 0 min 0,000 mm 0,0 UV-I 0 W/m 8,2 C 9,1 C 0,0 km/h (0 Bft) 98,11 %
23.08.2017 05:40 9,1 C 20,6 C 94 % 1018,0 hPa 0,0 l/m 0,3 km/h (0 Bft) S-SW 194 0 min 0,000 mm 0,0 UV-I 0 W/m 8,2 C 9,1 C 1,6 km/h (1 Bft) 100,00 %
23.08.2017 05:42 9,1 C 20,6 C 94 % 1018,0 hPa 0,0 l/m 1,5 km/h (1 Bft) S-SW 194 0 min 0,000 mm 0,0 UV-I 0 W/m 8,2 C 9,1 C 3,2 km/h (1 Bft) 100,00 %
23.08.2017 05:44 9,1 C 20,6 C 94 % 1018,1 hPa 0,0 l/m 0,5 km/h (0 Bft) S-SW 194 0 min 0,000 mm 0,0 UV-I 0 W/m 8,2 C 9,1 C 1,6 km/h (1 Bft) 100,00 %
23.08.2017 05:46 9,1 C 20,6 C 94 % 1018,1 hPa 0,0 l/m 0,0 km/h (0 Bft) S-SW 194 0 min 0,000 mm 0,0 UV-I 0 W/m 8,2 C 9,1 C 0,0 km/h (0 Bft) 100,00 %
23.08.2017 05:48 9,1 C 20,6 C 94 % 1018,1 hPa 0,0 l/m 0,0 km/h (0 Bft) S-SW 194 0 min 0,000 mm 0,0 UV-I 0 W/m 8,2 C 9,1 C 0,0 km/h (0 Bft) 97,87 %
23.08.2017 05:50 9,2 C 20,6 C 94 % 1018,1 hPa 0,0 l/m 0,0 km/h (0 Bft) S-SW 194 0 min 0,000 mm 0,0 UV-I 0 W/m 8,3 C 9,2 C 0,0 km/h (0 Bft) 100,00 %
23.08.2017 05:52 9,1 C 20,6 C 94 % 1018,1 hPa 0,0 l/m 0,0 km/h (0 Bft) S-SW 194 0 min 0,000 mm 0,0 UV-I 0 W/m 8,2 C 9,1 C 0,0 km/h (0 Bft) 100,00 %
23.08.2017 05:54 9,1 C 20,6 C 94 % 1018,1 hPa 0,0 l/m 0,0 km/h (0 Bft) S-SW 194 0 min 0,000 mm 0,0 UV-I 0 W/m 8,2 C 9,1 C 0,0 km/h (0 Bft) 100,00 %
23.08.2017 05:56 9,1 C 20,6 C 94 % 1018,1 hPa 0,0 l/m 0,0 km/h (0 Bft) S-SW 194 0 min 0,000 mm 0,0 UV-I 0 W/m 8,2 C 9,1 C 0,0 km/h (0 Bft) 100,00 %
23.08.2017 05:58 9,1 C 20,6 C 94 % 1018,1 hPa 0,0 l/m 0,0 km/h (0 Bft) S-SW 194 0 min 0,000 mm 0,0 UV-I 0 W/m 8,2 C 9,1 C 0,0 km/h (0 Bft) 100,00 %
23.08.2017 06:00 9,1 C 20,6 C 94 % 1018,2 hPa 0,0 l/m 0,0 km/h (0 Bft) S-SW 194 0 min 0,000 mm 0,0 UV-I 1 W/m 8,2 C 9,1 C 0,0 km/h (0 Bft) 100,00 %
23.08.2017 06:02 9,0 C 20,6 C 94 % 1018,1 hPa 0,0 l/m 0,0 km/h (0 Bft) S-SW 194 0 min 0,000 mm 0,0 UV-I 5 W/m 8,1 C 9,0 C 0,0 km/h (0 Bft) 100,00 %
23.08.2017 06:04 9,0 C 20,6 C 94 % 1018,2 hPa 0,0 l/m 0,0 km/h (0 Bft) S-SW 194 0 min 0,000 mm 0,0 UV-I 5 W/m 8,1 C 9,0 C 0,0 km/h (0 Bft) 100,00 %
23.08.2017 06:06 9,0 C 20,6 C 94 % 1018,2 hPa 0,0 l/m 0,0 km/h (0 Bft) S-SW 194 0 min 0,000 mm 0,0 UV-I 5 W/m 8,1 C 9,0 C 0,0 km/h (0 Bft) 100,00 %
23.08.2017 06:08 9,0 C 20,6 C 94 % 1018,2 hPa 0,0 l/m 1,1 km/h (1 Bft) S-SW 194 0 min 0,000 mm 0,0 UV-I 5 W/m 8,1 C 9,0 C 3,2 km/h (1 Bft) 100,00 %
23.08.2017 06:10 9,0 C 20,6 C 94 % 1018,3 hPa 0,0 l/m 1,8 km/h (1 Bft) S-SW 194 0 min 0,000 mm 0,0 UV-I 5 W/m 8,1 C 9,0 C 3,2 km/h (1 Bft) 100,00 %
23.08.2017 06:12 8,9 C 20,6 C 94 % 1018,2 hPa 0,0 l/m 2,2 km/h (1 Bft) S-SW 194 0 min 0,000 mm 0,0 UV-I 5 W/m 8,0 C 8,9 C 3,2 km/h (1 Bft) 100,00 %
23.08.2017 06:14 8,9 C 20,6 C 94 % 1018,3 hPa 0,0 l/m 2,3 km/h (1 Bft) S-SW 194 0 min 0,000 mm 0,0 UV-I 5 W/m 8,0 C 8,9 C 3,2 km/h (1 Bft) 98,00 %
23.08.2017 06:16 8,9 C 20,6 C 94 % 1018,2 hPa 0,0 l/m 2,3 km/h (1 Bft) S-SW 194 0 min 0,000 mm 0,0 UV-I 7 W/m 8,0 C 8,9 C 3,2 km/h (1 Bft) 100,00 %
23.08.2017 06:18 8,9 C 20,6 C 94 % 1018,2 hPa 0,0 l/m 2,2 km/h (1 Bft) S-SW 194 0 min 0,000 mm 0,0 UV-I 7 W/m 8,0 C 8,9 C 3,2 km/h (1 Bft) 97,56 %
23.08.2017 06:20 8,9 C 20,6 C 94 % 1018,3 hPa 0,0 l/m 1,4 km/h (1 Bft) S-SW 194 0 min 0,000 mm 0,0 UV-I 7 W/m 8,0 C 8,9 C 3,2 km/h (1 Bft) 96,61 %
23.08.2017 06:22 8,9 C 20,6 C 94 % 1018,3 hPa 0,0 l/m 0,1 km/h (0 Bft) S-SW 194 0 min 0,000 mm 0,0 UV-I 9 W/m 8,0 C 8,9 C 1,6 km/h (1 Bft) 98,00 %
23.08.2017 06:24 8,9 C 20,6 C 94 % 1018,3 hPa 0,0 l/m 0,0 km/h (0 Bft) S-SW 194 0 min 0,000 mm 0,0 UV-I 10 W/m 8,0 C 8,9 C 1,6 km/h (1 Bft) 97,14 %
23.08.2017 06:26 8,9 C 20,6 C 94 % 1018,3 hPa 0,0 l/m 1,4 km/h (1 Bft) S-SW 194 0 min 0,000 mm 0,0 UV-I 11 W/m 8,0 C 8,9 C 3,2 km/h (1 Bft) 98,00 %
23.08.2017 06:28 8,9 C 20,6 C 94 % 1018,3 hPa 0,0 l/m 0,6 km/h (0 Bft) S-SW 194 0 min 0,000 mm 0,0 UV-I 13 W/m 8,0 C 8,9 C 3,2 km/h (1 Bft) 97,87 %
23.08.2017 06:30 8,9 C 20,6 C 94 % 1018,3 hPa 0,0 l/m 1,9 km/h (1 Bft) S-SW 194 0 min 0,000 mm 0,0 UV-I 15 W/m 8,0 C 8,9 C 3,2 km/h (1 Bft) 98,11 %
23.08.2017 06:32 8,9 C 20,6 C 94 % 1018,3 hPa 0,0 l/m 2,5 km/h (1 Bft) S-SW 194 0 min 0,000 mm 0,0 UV-I 18 W/m 8,0 C 8,9 C 4,8 km/h (1 Bft) 95,12 %
23.08.2017 06:34 8,9 C 20,6 C 95 % 1018,3 hPa 0,0 l/m 1,5 km/h (1 Bft) S-SW 194 0 min 0,000 mm 0,0 UV-I 20 W/m 8,1 C 8,9 C 3,2 km/h (1 Bft) 94,74 %
23.08.2017 06:36 8,9 C 20,6 C 95 % 1018,3 hPa 0,0 l/m 0,1 km/h (0 Bft) S-SW 194 0 min 0,000 mm 0,0 UV-I 24 W/m 8,1 C 8,9 C 1,6 km/h (1 Bft) 94,34 %
23.08.2017 06:38 8,9 C 20,6 C 94 % 1018,3 hPa 0,0 l/m 0,0 km/h (0 Bft) S-SW 194 0 min 0,000 mm 0,0 UV-I 26 W/m 8,0 C 8,9 C 0,0 km/h (0 Bft) 94,00 %
23.08.2017 06:40 9,0 C 20,6 C 94 % 1018,3 hPa 0,0 l/m 0,1 km/h (0 Bft) S-SW 194 0 min 0,000 mm 0,0 UV-I 31 W/m 8,1 C 9,0 C 1,6 km/h (1 Bft) 96,00 %
23.08.2017 06:42 9,0 C 20,6 C 94 % 1018,2 hPa 0,0 l/m 0,0 km/h (0 Bft) S-SW 194 0 min 0,000 mm 0,0 UV-I 33 W/m 8,1 C 9,0 C 0,0 km/h (0 Bft) 93,62 %
23.08.2017 06:44 9,1 C 20,6 C 95 % 1018,3 hPa 0,0 l/m 0,0 km/h (0 Bft) S-SW 194 0 min 0,000 mm 0,0 UV-I 40 W/m 8,3 C 9,1 C 0,0 km/h (0 Bft) 95,45 %
23.08.2017 06:46 9,1 C 20,6 C 94 % 1018,3 hPa 0,0 l/m 0,0 km/h (0 Bft) S-SW 194 0 min 0,000 mm 0,0 UV-I 47 W/m 8,2 C 9,1 C 0,0 km/h (0 Bft) 96,00 %
23.08.2017 06:48 9,1 C 20,6 C 94 % 1018,3 hPa 0,0 l/m 0,3 km/h (0 Bft) S-SW 194 2 min 0,000 mm 0,0 UV-I 52 W/m 8,2 C 9,1 C 1,6 km/h (1 Bft) 92,00 %
23.08.2017 06:50 9,0 C 20,6 C 94 % 1018,4 hPa 0,0 l/m 0,0 km/h (0 Bft) S-SW 194 2 min 0,000 mm 0,0 UV-I 58 W/m 8,1 C 9,0 C 0,0 km/h (0 Bft) 95,74 %
23.08.2017 06:52 8,9 C 20,6 C 94 % 1018,4 hPa 0,0 l/m 0,4 km/h (0 Bft) S-SW 194 2 min 0,000 mm 0,0 UV-I 63 W/m 8,0 C 8,9 C 1,6 km/h (1 Bft) 94,44 %
23.08.2017 06:54 8,9 C 20,6 C 95 % 1018,4 hPa 0,0 l/m 0,7 km/h (0 Bft) S-SW 194 2 min 0,000 mm 0,0 UV-I 68 W/m 8,1 C 8,9 C 1,6 km/h (1 Bft) 95,74 %
23.08.2017 06:56 8,9 C 20,6 C 95 % 1018,4 hPa 0,0 l/m 0,6 km/h (0 Bft) S-SW 194 2 min 0,000 mm 0,0 UV-I 74 W/m 8,1 C 8,9 C 1,6 km/h (1 Bft) 96,00 %
23.08.2017 06:58 9,0 C 20,6 C 95 % 1018,4 hPa 0,0 l/m 0,1 km/h (0 Bft) S-SW 194 2 min 0,000 mm 0,0 UV-I 78 W/m 8,2 C 9,0 C 1,6 km/h (1 Bft) 95,74 %
23.08.2017 07:00 9,1 C 20,6 C 95 % 1018,4 hPa 0,0 l/m 0,0 km/h (0 Bft) S-SW 194 2 min 0,026 mm 0,0 UV-I 82 W/m 8,3 C 9,1 C 0,0 km/h (0 Bft) 95,74 %
23.08.2017 07:03 9,2 C 20,6 C 95 % 1018,4 hPa 0,0 l/m 0,0 km/h (0 Bft) S-SW 194 3 min 0,000 mm 0,0 UV-I 88 W/m 8,4 C 9,2 C 0,0 km/h (0 Bft) 93,15 %
23.08.2017 07:04 9,3 C 20,6 C 95 % 1018,4 hPa 0,0 l/m 0,0 km/h (0 Bft) S-SW 194 1 min 0,000 mm 0,0 UV-I 92 W/m 8,5 C 9,3 C 0,0 km/h (0 Bft) 95,83 %
23.08.2017 07:06 9,3 C 20,6 C 95 % 1018,4 hPa 0,0 l/m 0,0 km/h (0 Bft) S-SW 194 2 min 0,000 mm 0,0 UV-I 95 W/m 8,5 C 9,3 C 0,0 km/h (0 Bft) 97,37 %
23.08.2017 07:08 9,4 C 20,6 C 95 % 1018,4 hPa 0,0 l/m 0,0 km/h (0 Bft) S-SW 194 2 min 0,000 mm 0,0 UV-I 99 W/m 8,6 C 9,4 C 0,0 km/h (0 Bft) 96,00 %
23.08.2017 07:10 9,5 C 20,6 C 95 % 1018,4 hPa 0,0 l/m 0,1 km/h (0 Bft) S-SW 194 2 min 0,000 mm 0,0 UV-I 103 W/m 8,7 C 9,5 C 1,6 km/h (1 Bft) 95,74 %
23.08.2017 07:12 9,6 C 20,6 C 95 % 1018,5 hPa 0,0 l/m 0,0 km/h (0 Bft) S-SW 194 2 min 0,000 mm 0,0 UV-I 108 W/m 8,8 C 9,6 C 1,6 km/h (1 Bft) 100,00 %
23.08.2017 07:14 9,7 C 20,6 C 95 % 1018,5 hPa 0,0 l/m 0,0 km/h (0 Bft) S-SW 194 2 min 0,000 mm 0,0 UV-I 112 W/m 8,9 C 9,7 C 0,0 km/h (0 Bft) 100,00 %
23.08.2017 07:16 9,7 C 20,6 C 95 % 1018,5 hPa 0,0 l/m 0,0 km/h (0 Bft) S-SW 194 2 min 0,000 mm 0,0 UV-I 116 W/m 8,9 C 9,7 C 0,0 km/h (0 Bft) 94,74 %
23.08.2017 07:18 9,8 C 20,6 C 95 % 1018,5 hPa 0,0 l/m 0,0 km/h (0 Bft) S-SW 194 2 min 0,000 mm 0,0 UV-I 121 W/m 9,0 C 9,8 C 0,0 km/h (0 Bft) 100,00 %
23.08.2017 07:20 9,9 C 20,6 C 95 % 1018,5 hPa 0,0 l/m 0,0 km/h (0 Bft) S-SW 194 2 min 0,000 mm 0,0 UV-I 124 W/m 9,1 C 9,9 C 0,0 km/h (0 Bft) 100,00 %
23.08.2017 07:22 10,1 C 20,6 C 95 % 1018,5 hPa 0,0 l/m 0,0 km/h (0 Bft) S-SW 194 2 min 0,000 mm 0,0 UV-I 129 W/m 9,3 C 10,1 C 0,0 km/h (0 Bft) 97,37 %
23.08.2017 07:24 10,1 C 20,6 C 95 % 1018,5 hPa 0,0 l/m 0,0 km/h (0 Bft) S-SW 194 2 min 0,000 mm 0,0 UV-I 134 W/m 9,3 C 10,1 C 0,0 km/h (0 Bft) 100,00 %
23.08.2017 07:26 10,2 C 20,6 C 94 % 1018,5 hPa 0,0 l/m 0,0 km/h (0 Bft) S-SW 194 2 min 0,000 mm 0,0 UV-I 138 W/m 9,3 C 10,2 C 0,0 km/h (0 Bft) 100,00 %
23.08.2017 07:28 10,2 C 20,6 C 94 % 1018,4 hPa 0,0 l/m 0,0 km/h (0 Bft) S-SW 194 2 min 0,000 mm 0,0 UV-I 144 W/m 9,3 C 10,2 C 0,0 km/h (0 Bft) 97,22 %
23.08.2017 07:30 10,3 C 20,6 C 94 % 1018,5 hPa 0,0 l/m 0,2 km/h (0 Bft) S-SW 194 2 min 0,000 mm 0,0 UV-I 151 W/m 9,4 C 10,3 C 1,6 km/h (1 Bft) 100,00 %
23.08.2017 07:32 10,5 C 20,6 C 94 % 1018,5 hPa 0,0 l/m 2,1 km/h (1 Bft) S-SW 194 2 min 0,000 mm 0,0 UV-I 157 W/m 9,6 C 10,5 C 4,8 km/h (1 Bft) 100,00 %
23.08.2017 07:34 10,7 C 20,6 C 93 % 1018,5 hPa 0,0 l/m 0,4 km/h (0 Bft) S-SW 194 2 min 0,000 mm 0,0 UV-I 163 W/m 9,6 C 10,7 C 3,2 km/h (1 Bft) 100,00 %
23.08.2017 07:36 10,9 C 20,6 C 92 % 1018,5 hPa 0,0 l/m 1,0 km/h (0 Bft) S-SW 194 2 min 0,000 mm 0,0 UV-I 166 W/m 9,7 C 10,9 C 3,2 km/h (1 Bft) 100,00 %
23.08.2017 07:38 11,2 C 20,6 C 92 % 1018,5 hPa 0,0 l/m 0,5 km/h (0 Bft) S-SW 194 2 min 0,000 mm 0,0 UV-I 171 W/m 9,9 C 11,2 C 3,2 km/h (1 Bft) 100,00 %
23.08.2017 07:40 11,3 C 20,6 C 92 % 1018,5 hPa 0,0 l/m 0,5 km/h (0 Bft) S-SW 194 2 min 0,000 mm 0,0 UV-I 175 W/m 10,0 C 11,3 C 1,6 km/h (1 Bft) 100,00 %
23.08.2017 07:42 11,5 C 20,6 C 90 % 1018,5 hPa 0,0 l/m 0,1 km/h (0 Bft) S-SW 194 2 min 0,000 mm 0,0 UV-I 179 W/m 9,9 C 11,5 C 1,6 km/h (1 Bft) 100,00 %
23.08.2017 07:44 11,7 C 20,6 C 90 % 1018,5 hPa 0,0 l/m 0,0 km/h (0 Bft) S-SW 194 2 min 0,000 mm 0,0 UV-I 185 W/m 10,1 C 11,7 C 0,0 km/h (0 Bft) 100,00 %
23.08.2017 07:46 11,8 C 20,6 C 90 % 1018,5 hPa 0,0 l/m 0,3 km/h (0 Bft) S-SW 194 2 min 0,000 mm 0,0 UV-I 193 W/m 10,2 C 11,8 C 3,2 km/h (1 Bft) 100,00 %
23.08.2017 07:48 11,8 C 20,6 C 89 % 1018,5 hPa 0,0 l/m 1,8 km/h (1 Bft) S-SW 194 2 min 0,000 mm 0,0 UV-I 200 W/m 10,0 C 11,8 C 3,2 km/h (1 Bft) 96,15 %
23.08.2017 07:50 11,9 C 20,6 C 88 % 1018,5 hPa 0,0 l/m 3,3 km/h (1 Bft) S 182 2 min 0,000 mm 0,0 UV-I 207 W/m 10,0 C 11,9 C 4,8 km/h (1 Bft) 100,00 %
23.08.2017 07:52 12,0 C 20,6 C 86 % 1018,5 hPa 0,0 l/m 3,3 km/h (1 Bft) O-SO 123 2 min 0,000 mm 0,0 UV-I 214 W/m 9,7 C 12,0 C 6,4 km/h (2 Bft) 100,00 %
23.08.2017 07:54 12,1 C 20,6 C 85 % 1018,5 hPa 0,0 l/m 4,2 km/h (1 Bft) NO 49 2 min 0,000 mm 0,0 UV-I 221 W/m 9,7 C 12,1 C 6,4 km/h (2 Bft) 97,37 %
23.08.2017 07:56 12,2 C 20,6 C 85 % 1018,5 hPa 0,0 l/m 4,7 km/h (1 Bft) NO 49 2 min 0,000 mm 0,0 UV-I 231 W/m 9,8 C 12,2 C 8,0 km/h (2 Bft) 100,00 %
23.08.2017 07:58 12,3 C 20,6 C 84 % 1018,5 hPa 0,0 l/m 5,5 km/h (1 Bft) NO 53 2 min 0,000 mm 0,1 UV-I 237 W/m 9,7 C 12,3 C 8,0 km/h (2 Bft) 97,37 %
23.08.2017 08:00 12,3 C 20,6 C 83 % 1018,4 hPa 0,0 l/m 5,0 km/h (1 Bft) O-NO 64 2 min 0,076 mm 0,5 UV-I 243 W/m 9,5 C 12,3 C 8,0 km/h (2 Bft) 100,00 %
23.08.2017 08:02 12,4 C 20,6 C 83 % 1018,4 hPa 0,0 l/m 6,4 km/h (2 Bft) O-NO 63 2 min 0,000 mm 0,5 UV-I 248 W/m 9,6 C 12,4 C 9,7 km/h (2 Bft) 100,00 %
23.08.2017 08:04 12,4 C 20,6 C 83 % 1018,5 hPa 0,0 l/m 5,4 km/h (1 Bft) NO 49 2 min 0,000 mm 0,5 UV-I 253 W/m 9,6 C 12,4 C 6,4 km/h (2 Bft) 100,00 %
23.08.2017 08:06 12,4 C 20,6 C 83 % 1018,5 hPa 0,0 l/m 4,8 km/h (1 Bft) NO 53 2 min 0,000 mm 0,5 UV-I 258 W/m 9,6 C 12,4 C 8,0 km/h (2 Bft) 100,00 %
23.08.2017 08:08 12,6 C 20,6 C 83 % 1018,6 hPa 0,0 l/m 3,4 km/h (1 Bft) NO 55 2 min 0,000 mm 0,5 UV-I 263 W/m 9,8 C 12,6 C 6,4 km/h (2 Bft) 100,00 %
23.08.2017 08:10 12,6 C 20,6 C 83 % 1018,5 hPa 0,0 l/m 4,5 km/h (1 Bft) NO 45 2 min 0,000 mm 0,6 UV-I 267 W/m 9,8 C 12,6 C 6,4 km/h (2 Bft) 100,00 %
23.08.2017 08:12 12,7 C 20,6 C 85 % 1018,5 hPa 0,0 l/m 3,7 km/h (1 Bft) NO 40 2 min 0,000 mm 0,6 UV-I 275 W/m 10,2 C 12,7 C 6,4 km/h (2 Bft) 100,00 %
23.08.2017 08:14 12,8 C 20,6 C 85 % 1018,5 hPa 0,0 l/m 5,2 km/h (1 Bft) N-NO 22 2 min 0,000 mm 0,6 UV-I 281 W/m 10,3 C 12,8 C 8,0 km/h (2 Bft) 100,00 %
23.08.2017 08:16 12,9 C 20,6 C 85 % 1018,5 hPa 0,0 l/m 7,1 km/h (2 Bft) N-NO 33 2 min 0,000 mm 0,6 UV-I 286 W/m 10,4 C 12,5 C 9,7 km/h (2 Bft) 98,00 %
23.08.2017 08:18 12,9 C 20,6 C 84 % 1018,5 hPa 0,0 l/m 6,8 km/h (2 Bft) N-NO 24 2 min 0,000 mm 0,6 UV-I 291 W/m 10,3 C 12,7 C 12,9 km/h (3 Bft) 100,00 %
23.08.2017 08:20 12,9 C 20,6 C 83 % 1018,5 hPa 0,0 l/m 9,0 km/h (2 Bft) N-NO 22 2 min 0,000 mm 0,7 UV-I 299 W/m 10,1 C 11,3 C 12,9 km/h (3 Bft) 98,11 %
23.08.2017 08:22 12,9 C 20,6 C 83 % 1018,5 hPa 0,0 l/m 8,2 km/h (2 Bft) N-NO 24 2 min 0,000 mm 0,7 UV-I 305 W/m 10,1 C 11,8 C 12,9 km/h (3 Bft) 100,00 %
23.08.2017 08:24 12,9 C 20,6 C 83 % 1018,5 hPa 0,0 l/m 8,5 km/h (2 Bft) N-NO 24 2 min 0,000 mm 0,7 UV-I 310 W/m 10,1 C 11,6 C 12,9 km/h (3 Bft) 100,00 %
23.08.2017 08:26 12,9 C 20,6 C 84 % 1018,5 hPa 0,0 l/m 8,0 km/h (2 Bft) N-NO 27 2 min 0,000 mm 0,7 UV-I 315 W/m 10,3 C 11,9 C 12,9 km/h (3 Bft) 100,00 %
23.08.2017 08:28 13,0 C 20,6 C 84 % 1018,4 hPa 0,0 l/m 7,5 km/h (2 Bft) N-NO 19 2 min 0,000 mm 0,8 UV-I 322 W/m 10,4 C 12,3 C 12,9 km/h (3 Bft) 98,53 %
23.08.2017 08:30 13,1 C 20,6 C 83 % 1018,5 hPa 0,0 l/m 5,5 km/h (1 Bft) NO 38 2 min 0,000 mm 0,8 UV-I 327 W/m 10,3 C 13,1 C 9,7 km/h (2 Bft) 100,00 %
23.08.2017 08:32 13,1 C 20,6 C 82 % 1018,5 hPa 0,0 l/m 8,6 km/h (2 Bft) N-NO 26 2 min 0,000 mm 0,8 UV-I 332 W/m 10,1 C 11,8 C 14,5 km/h (3 Bft) 98,53 %
23.08.2017 08:34 13,2 C 20,6 C 83 % 1018,5 hPa 0,0 l/m 7,9 km/h (2 Bft) N-NO 32 2 min 0,000 mm 0,8 UV-I 338 W/m 10,4 C 12,3 C 11,3 km/h (2 Bft) 97,87 %
23.08.2017 08:36 13,2 C 20,6 C 83 % 1018,5 hPa 0,0 l/m 6,6 km/h (2 Bft) N-NO 22 2 min 0,000 mm 0,9 UV-I 346 W/m 10,4 C 13,1 C 9,7 km/h (2 Bft) 100,00 %
23.08.2017 08:38 13,3 C 20,6 C 83 % 1018,4 hPa 0,0 l/m 6,1 km/h (2 Bft) N-NO 22 2 min 0,000 mm 0,9 UV-I 352 W/m 10,5 C 13,3 C 9,7 km/h (2 Bft) 97,87 %
23.08.2017 08:40 13,4 C 20,6 C 82 % 1018,5 hPa 0,0 l/m 4,9 km/h (1 Bft) O-NO 62 2 min 0,000 mm 0,9 UV-I 357 W/m 10,4 C 13,4 C 8,0 km/h (2 Bft) 97,37 %
23.08.2017 08:42 13,5 C 20,6 C 82 % 1018,5 hPa 0,0 l/m 7,4 km/h (2 Bft) NO 46 2 min 0,000 mm 0,9 UV-I 361 W/m 10,5 C 12,9 C 9,7 km/h (2 Bft) 97,73 %
23.08.2017 08:44 13,6 C 20,6 C 81 % 1018,5 hPa 0,0 l/m 6,9 km/h (2 Bft) NO 44 2 min 0,000 mm 1,0 UV-I 367 W/m 10,4 C 13,3 C 9,7 km/h (2 Bft) 98,11 %
23.08.2017 08:46 13,6 C 20,6 C 82 % 1018,4 hPa 0,0 l/m 6,5 km/h (2 Bft) NO 46 2 min 0,000 mm 1,0 UV-I 373 W/m 10,6 C 13,6 C 9,7 km/h (2 Bft) 96,30 %
23.08.2017 08:48 13,6 C 20,6 C 82 % 1018,5 hPa 0,0 l/m 4,6 km/h (1 Bft) NO 45 2 min 0,000 mm 1,0 UV-I 379 W/m 10,6 C 13,6 C 6,4 km/h (2 Bft) 98,51 %
23.08.2017 08:50 13,7 C 20,6 C 83 % 1018,4 hPa 0,0 l/m 6,5 km/h (2 Bft) O-NO 58 2 min 0,000 mm 1,1 UV-I 385 W/m 10,9 C 13,7 C 8,0 km/h (2 Bft) 94,00 %
23.08.2017 08:52 13,7 C 20,6 C 82 % 1018,5 hPa 0,0 l/m 6,5 km/h (2 Bft) NO 53 2 min 0,000 mm 1,1 UV-I 390 W/m 10,7 C 13,7 C 9,7 km/h (2 Bft) 100,00 %
23.08.2017 08:54 13,7 C 20,6 C 81 % 1018,4 hPa 0,0 l/m 7,0 km/h (2 Bft) O-NO 65 2 min 0,000 mm 1,1 UV-I 396 W/m 10,5 C 13,3 C 11,3 km/h (2 Bft) 96,00 %
23.08.2017 08:56 13,7 C 20,6 C 81 % 1018,5 hPa 0,0 l/m 5,9 km/h (2 Bft) O-NO 72 2 min 0,000 mm 1,1 UV-I 402 W/m 10,5 C 13,7 C 9,7 km/h (2 Bft) 98,11 %
23.08.2017 08:58 13,8 C 20,6 C 82 % 1018,5 hPa 0,0 l/m 5,0 km/h (1 Bft) NO 55 2 min 0,000 mm 1,2 UV-I 407 W/m 10,8 C 13,8 C 9,7 km/h (2 Bft) 94,87 %
23.08.2017 09:00 13,8 C 20,6 C 81 % 1018,5 hPa 0,0 l/m 6,5 km/h (2 Bft) NO 52 2 min 0,178 mm 1,2 UV-I 413 W/m 10,6 C 13,8 C 11,3 km/h (2 Bft) 96,43 %
23.08.2017 09:02 13,8 C 20,6 C 80 % 1018,5 hPa 0,0 l/m 6,2 km/h (2 Bft) O-NO 60 2 min 0,000 mm 1,2 UV-I 418 W/m 10,4 C 13,8 C 9,7 km/h (2 Bft) 97,87 %
23.08.2017 09:04 13,8 C 20,6 C 81 % 1018,5 hPa 0,0 l/m 4,1 km/h (1 Bft) O-NO 62 2 min 0,000 mm 1,3 UV-I 425 W/m 10,6 C 13,8 C 6,4 km/h (2 Bft) 97,87 %
23.08.2017 09:06 13,9 C 20,6 C 82 % 1018,5 hPa 0,0 l/m 6,8 km/h (2 Bft) O 80 2 min 0,000 mm 1,3 UV-I 432 W/m 10,9 C 13,7 C 8,0 km/h (2 Bft) 97,56 %
23.08.2017 09:08 13,9 C 20,6 C 80 % 1018,6 hPa 0,0 l/m 4,9 km/h (1 Bft) O-NO 65 2 min 0,000 mm 1,3 UV-I 437 W/m 10,5 C 13,9 C 8,0 km/h (2 Bft) 96,23 %
23.08.2017 09:10 13,9 C 20,6 C 81 % 1018,6 hPa 0,0 l/m 7,1 km/h (2 Bft) O-NO 68 2 min 0,000 mm 1,4 UV-I 441 W/m 10,7 C 13,5 C 11,3 km/h (2 Bft) 97,37 %
23.08.2017 09:12 14,0 C 20,6 C 80 % 1018,6 hPa 0,0 l/m 5,3 km/h (1 Bft) NO 53 2 min 0,000 mm 1,4 UV-I 447 W/m 10,6 C 14,0 C 8,0 km/h (2 Bft) 98,21 %
23.08.2017 09:14 14,1 C 20,6 C 81 % 1018,6 hPa 0,0 l/m 6,5 km/h (2 Bft) O-NO 67 2 min 0,000 mm 1,4 UV-I 453 W/m 10,9 C 14,1 C 8,0 km/h (2 Bft) 97,87 %
23.08.2017 09:16 14,2 C 20,6 C 80 % 1018,6 hPa 0,0 l/m 6,2 km/h (2 Bft) O-NO 65 2 min 0,000 mm 1,5 UV-I 457 W/m 10,8 C 14,2 C 9,7 km/h (2 Bft) 100,00 %
23.08.2017 09:18 14,2 C 20,6 C 79 % 1018,7 hPa 0,0 l/m 5,8 km/h (2 Bft) O-NO 69 2 min 0,000 mm 1,5 UV-I 463 W/m 10,6 C 14,2 C 8,0 km/h (2 Bft) 98,11 %
23.08.2017 09:20 14,3 C 20,6 C 79 % 1018,6 hPa 0,0 l/m 5,8 km/h (2 Bft) O-NO 74 2 min 0,000 mm 1,5 UV-I 468 W/m 10,7 C 14,3 C 8,0 km/h (2 Bft) 97,87 %
23.08.2017 09:22 14,3 C 20,6 C 78 % 1018,6 hPa 0,0 l/m 5,7 km/h (1 Bft) O-NO 67 2 min 0,000 mm 1,6 UV-I 474 W/m 10,5 C 14,3 C 9,7 km/h (2 Bft) 100,00 %
23.08.2017 09:24 14,4 C 20,6 C 79 % 1018,6 hPa 0,0 l/m 7,4 km/h (2 Bft) O-NO 72 2 min 0,000 mm 1,6 UV-I 479 W/m 10,8 C 13,8 C 11,3 km/h (2 Bft) 100,00 %
23.08.2017 09:26 14,4 C 20,6 C 79 % 1018,6 hPa 0,0 l/m 7,1 km/h (2 Bft) O-NO 65 2 min 0,000 mm 1,6 UV-I 483 W/m 10,8 C 14,0 C 11,3 km/h (2 Bft) 98,11 %
23.08.2017 09:28 14,6 C 20,6 C 78 % 1018,6 hPa 0,0 l/m 7,3 km/h (2 Bft) O-NO 66 2 min 0,000 mm 1,7 UV-I 489 W/m 10,8 C 14,1 C 11,3 km/h (2 Bft) 97,22 %
23.08.2017 09:30 14,7 C 20,6 C 77 % 1018,7 hPa 0,0 l/m 7,4 km/h (2 Bft) NO 40 2 min 0,000 mm 1,7 UV-I 495 W/m 10,7 C 14,1 C 11,3 km/h (2 Bft) 96,23 %
23.08.2017 09:32 14,7 C 20,6 C 77 % 1018,7 hPa 0,0 l/m 5,4 km/h (1 Bft) O-NO 63 2 min 0,000 mm 1,8 UV-I 499 W/m 10,7 C 14,7 C 11,3 km/h (2 Bft) 96,00 %
23.08.2017 09:34 14,8 C 20,6 C 76 % 1018,7 hPa 0,0 l/m 6,5 km/h (2 Bft) O 82 2 min 0,000 mm 1,8 UV-I 505 W/m 10,6 C 14,8 C 9,7 km/h (2 Bft) 92,00 %
23.08.2017 09:36 14,8 C 20,6 C 76 % 1018,7 hPa 0,0 l/m 5,0 km/h (1 Bft) O-NO 63 2 min 0,000 mm 1,8 UV-I 510 W/m 10,6 C 14,8 C 11,3 km/h (2 Bft) 97,37 %
23.08.2017 09:38 15,1 C 20,6 C 78 % 1018,7 hPa 0,0 l/m 5,1 km/h (1 Bft) O-NO 74 2 min 0,000 mm 1,9 UV-I 515 W/m 11,3 C 15,1 C 8,0 km/h (2 Bft) 98,11 %
23.08.2017 09:40 15,1 C 20,6 C 74 % 1018,7 hPa 0,0 l/m 4,5 km/h (1 Bft) O-NO 71 2 min 0,000 mm 1,9 UV-I 520 W/m 10,5 C 15,1 C 9,7 km/h (2 Bft) 96,00 %
23.08.2017 09:42 15,2 C 20,6 C 76 % 1018,7 hPa 0,0 l/m 5,5 km/h (1 Bft) O 86 2 min 0,000 mm 2,0 UV-I 525 W/m 11,0 C 15,2 C 8,0 km/h (2 Bft) 97,56 %
23.08.2017 09:44 15,2 C 20,6 C 75 % 1018,7 hPa 0,0 l/m 8,2 km/h (2 Bft) NO 56 2 min 0,000 mm 2,0 UV-I 530 W/m 10,8 C 14,2 C 12,9 km/h (3 Bft) 98,11 %
23.08.2017 09:46 15,2 C 20,6 C 76 % 1018,7 hPa 0,0 l/m 6,5 km/h (2 Bft) NO 55 2 min 0,000 mm 2,1 UV-I 535 W/m 11,0 C 15,2 C 9,7 km/h (2 Bft) 97,37 %
23.08.2017 09:48 15,3 C 20,6 C 76 % 1018,7 hPa 0,0 l/m 4,0 km/h (1 Bft) O-NO 71 2 min 0,000 mm 2,1 UV-I 541 W/m 11,1 C 15,3 C 6,4 km/h (2 Bft) 98,00 %
23.08.2017 09:50 15,3 C 20,6 C 75 % 1018,6 hPa 0,0 l/m 3,0 km/h (1 Bft) O-NO 69 2 min 0,000 mm 2,1 UV-I 545 W/m 10,9 C 15,3 C 8,0 km/h (2 Bft) 93,62 %
23.08.2017 09:52 15,3 C 20,6 C 77 % 1018,7 hPa 0,0 l/m 3,4 km/h (1 Bft) NO 49 2 min 0,000 mm 2,2 UV-I 548 W/m 11,3 C 15,3 C 6,4 km/h (2 Bft) 97,37 %
23.08.2017 09:54 15,4 C 20,6 C 77 % 1018,6 hPa 0,0 l/m 4,2 km/h (1 Bft) NO 44 2 min 0,000 mm 2,2 UV-I 554 W/m 11,4 C 15,4 C 6,4 km/h (2 Bft) 96,43 %
23.08.2017 09:56 15,6 C 20,6 C 77 % 1018,6 hPa 0,0 l/m 4,3 km/h (1 Bft) NO 35 2 min 0,000 mm 2,3 UV-I 558 W/m 11,6 C 15,6 C 8,0 km/h (2 Bft) 100,00 %
23.08.2017 09:58 15,7 C 20,6 C 76 % 1018,6 hPa 0,0 l/m 6,0 km/h (2 Bft) NO 51 2 min 0,000 mm 2,3 UV-I 563 W/m 11,5 C 15,7 C 8,0 km/h (2 Bft) 96,23 %
23.08.2017 10:00 15,8 C 20,6 C 75 % 1018,6 hPa 0,0 l/m 6,1 km/h (2 Bft) O-SO 108 2 min 0,000 mm 2,4 UV-I 569 W/m 11,4 C 15,8 C 12,9 km/h (3 Bft) 98,00 %
23.08.2017 10:02 15,8 C 20,6 C 73 % 1018,6 hPa 0,0 l/m 3,1 km/h (1 Bft) O 83 2 min 0,279 mm 2,4 UV-I 573 W/m 11,0 C 15,8 C 6,4 km/h (2 Bft) 97,44 %
23.08.2017 10:04 15,9 C 20,6 C 75 % 1018,6 hPa 0,0 l/m 5,9 km/h (2 Bft) NO 49 2 min 0,000 mm 2,5 UV-I 577 W/m 11,5 C 15,9 C 9,7 km/h (2 Bft) 97,37 %
23.08.2017 10:06 16,0 C 20,6 C 73 % 1018,6 hPa 0,0 l/m 2,7 km/h (1 Bft) NO 38 2 min 0,000 mm 2,5 UV-I 582 W/m 11,2 C 16,0 C 4,8 km/h (1 Bft) 98,44 %
23.08.2017 10:08 16,2 C 20,6 C 75 % 1018,6 hPa 0,0 l/m 1,8 km/h (1 Bft) O-SO 103 2 min 0,000 mm 2,6 UV-I 587 W/m 11,8 C 16,2 C 4,8 km/h (1 Bft) 97,50 %
23.08.2017 10:10 16,3 C 20,6 C 75 % 1018,6 hPa 0,0 l/m 4,8 km/h (1 Bft) NO 51 2 min 0,000 mm 2,6 UV-I 591 W/m 11,9 C 16,3 C 9,7 km/h (2 Bft) 98,00 %
23.08.2017 10:12 16,4 C 20,6 C 75 % 1018,6 hPa 0,0 l/m 4,5 km/h (1 Bft) O-NO 61 2 min 0,000 mm 2,7 UV-I 596 W/m 12,0 C 16,4 C 9,7 km/h (2 Bft) 98,00 %
23.08.2017 10:14 16,6 C 20,6 C 76 % 1018,6 hPa 0,0 l/m 6,2 km/h (2 Bft) NO 41 2 min 0,000 mm 2,7 UV-I 598 W/m 12,3 C 16,6 C 8,0 km/h (2 Bft) 94,00 %
23.08.2017 10:16 16,7 C 20,6 C 75 % 1018,5 hPa 0,0 l/m 5,3 km/h (1 Bft) NO 49 2 min 0,000 mm 2,7 UV-I 602 W/m 12,2 C 16,7 C 8,0 km/h (2 Bft) 100,00 %
23.08.2017 10:18 16,6 C 20,6 C 75 % 1018,6 hPa 0,0 l/m 3,5 km/h (1 Bft) NO 52 2 min 0,000 mm 2,8 UV-I 608 W/m 12,1 C 16,6 C 8,0 km/h (2 Bft) 95,74 %
23.08.2017 10:20 16,6 C 20,6 C 74 % 1018,6 hPa 0,0 l/m 6,3 km/h (2 Bft) NO 48 2 min 0,000 mm 2,8 UV-I 612 W/m 11,9 C 16,6 C 9,7 km/h (2 Bft) 96,23 %
23.08.2017 10:22 16,5 C 20,6 C 77 % 1018,6 hPa 0,0 l/m 3,5 km/h (1 Bft) NO 45 2 min 0,000 mm 2,9 UV-I 616 W/m 12,5 C 16,5 C 6,4 km/h (2 Bft) 95,45 %
23.08.2017 10:24 16,6 C 20,6 C 75 % 1018,6 hPa 0,0 l/m 9,3 km/h (2 Bft) O-NO 68 2 min 0,000 mm 2,9 UV-I 620 W/m 12,1 C 15,2 C 12,9 km/h (3 Bft) 97,73 %
23.08.2017 10:26 16,5 C 20,6 C 76 % 1018,5 hPa 0,0 l/m 7,6 km/h (2 Bft) NO 37 2 min 0,000 mm 3,0 UV-I 625 W/m 12,3 C 15,9 C 14,5 km/h (3 Bft) 100,00 %
23.08.2017 10:28 16,5 C 20,6 C 74 % 1018,5 hPa 0,0 l/m 3,0 km/h (1 Bft) O-NO 67 2 min 0,000 mm 3,0 UV-I 628 W/m 11,8 C 16,5 C 6,4 km/h (2 Bft) 98,00 %
23.08.2017 10:30 16,6 C 20,6 C 75 % 1018,5 hPa 0,0 l/m 8,7 km/h (2 Bft) O 92 2 min 0,000 mm 3,1 UV-I 632 W/m 12,1 C 15,5 C 12,9 km/h (3 Bft) 97,37 %
23.08.2017 10:32 16,7 C 20,6 C 73 % 1018,5 hPa 0,0 l/m 9,3 km/h (2 Bft) O-NO 76 2 min 0,000 mm 3,1 UV-I 636 W/m 11,8 C 15,3 C 14,5 km/h (3 Bft) 98,00 %
23.08.2017 10:34 16,8 C 20,6 C 75 % 1018,5 hPa 0,0 l/m 7,2 km/h (2 Bft) O-NO 67 2 min 0,000 mm 3,1 UV-I 642 W/m 12,3 C 16,4 C 11,3 km/h (2 Bft) 94,00 %
23.08.2017 10:36 16,9 C 20,6 C 70 % 1018,5 hPa 0,0 l/m 5,4 km/h (1 Bft) O 99 2 min 0,000 mm 3,1 UV-I 643 W/m 11,4 C 16,9 C 6,4 km/h (2 Bft) 100,00 %
23.08.2017 10:38 17,0 C 20,6 C 74 % 1018,5 hPa 0,0 l/m 4,8 km/h (1 Bft) N-NO 31 2 min 0,000 mm 3,2 UV-I 648 W/m 12,3 C 17,0 C 11,3 km/h (2 Bft) 96,23 %
23.08.2017 10:40 17,1 C 20,6 C 75 % 1018,4 hPa 0,0 l/m 4,4 km/h (1 Bft) O-NO 68 2 min 0,000 mm 3,2 UV-I 651 W/m 12,6 C 17,1 C 12,9 km/h (3 Bft) 96,00 %
23.08.2017 10:42 17,1 C 20,6 C 72 % 1018,4 hPa 0,0 l/m 8,0 km/h (2 Bft) O-NO 67 2 min 0,000 mm 3,3 UV-I 656 W/m 12,0 C 16,3 C 14,5 km/h (3 Bft) 97,73 %
23.08.2017 10:44 17,1 C 20,6 C 71 % 1018,4 hPa 0,0 l/m 4,4 km/h (1 Bft) NO 52 2 min 0,000 mm 3,3 UV-I 662 W/m 11,8 C 17,1 C 9,7 km/h (2 Bft) 98,11 %
23.08.2017 10:46 17,0 C 20,6 C 71 % 1018,4 hPa 0,0 l/m 5,2 km/h (1 Bft) O-NO 65 2 min 0,000 mm 3,4 UV-I 665 W/m 11,7 C 17,0 C 11,3 km/h (2 Bft) 97,44 %
23.08.2017 10:48 17,1 C 20,6 C 71 % 1018,4 hPa 0,0 l/m 7,8 km/h (2 Bft) NO 53 2 min 0,000 mm 3,5 UV-I 671 W/m 11,8 C 16,4 C 11,3 km/h (2 Bft) 97,87 %
23.08.2017 10:50 17,1 C 20,6 C 71 % 1018,4 hPa 0,0 l/m 5,3 km/h (1 Bft) O-NO 78 2 min 0,000 mm 3,5 UV-I 676 W/m 11,8 C 17,1 C 11,3 km/h (2 Bft) 98,21 %
23.08.2017 10:52 17,2 C 20,6 C 72 % 1018,4 hPa 0,0 l/m 8,4 km/h (2 Bft) O 85 2 min 0,000 mm 3,5 UV-I 679 W/m 12,1 C 16,2 C 14,5 km/h (3 Bft) 97,37 %
23.08.2017 10:54 17,2 C 20,6 C 73 % 1018,4 hPa 0,0 l/m 6,6 km/h (2 Bft) O-SO 102 2 min 0,000 mm 3,6 UV-I 679 W/m 12,3 C 17,1 C 11,3 km/h (2 Bft) 97,73 %
23.08.2017 10:56 17,3 C 20,6 C 73 % 1018,4 hPa 0,0 l/m 5,2 km/h (1 Bft) O-NO 61 2 min 0,000 mm 3,6 UV-I 683 W/m 12,4 C 17,3 C 8,0 km/h (2 Bft) 96,23 %
23.08.2017 10:58 17,6 C 20,6 C 72 % 1018,3 hPa 0,0 l/m 8,4 km/h (2 Bft) O-NO 78 2 min 0,000 mm 3,6 UV-I 686 W/m 12,5 C 16,7 C 14,5 km/h (3 Bft) 98,11 %
23.08.2017 11:00 17,7 C 21,1 C 71 % 1018,3 hPa 0,0 l/m 8,0 km/h (2 Bft) O-NO 69 2 min 0,356 mm 3,7 UV-I 693 W/m 12,4 C 16,9 C 12,9 km/h (3 Bft) 93,62 %
23.08.2017 11:02 17,7 C 21,1 C 69 % 1018,3 hPa 0,0 l/m 10,6 km/h (2 Bft) O-NO 70 2 min 0,000 mm 3,7 UV-I 696 W/m 11,9 C 15,9 C 16,1 km/h (3 Bft) 100,00 %
23.08.2017 11:04 17,6 C 21,1 C 70 % 1018,3 hPa 0,0 l/m 7,2 km/h (2 Bft) O-NO 78 2 min 0,000 mm 3,8 UV-I 698 W/m 12,1 C 17,2 C 12,9 km/h (3 Bft) 100,00 %
23.08.2017 11:06 17,6 C 21,1 C 70 % 1018,3 hPa 0,0 l/m 8,4 km/h (2 Bft) O-NO 63 2 min 0,000 mm 3,8 UV-I 701 W/m 12,1 C 16,7 C 12,9 km/h (3 Bft) 100,00 %
23.08.2017 11:08 17,7 C 21,1 C 69 % 1018,3 hPa 0,0 l/m 12,4 km/h (3 Bft) O 82 2 min 0,000 mm 3,8 UV-I 703 W/m 11,9 C 15,2 C 16,1 km/h (3 Bft) 100,00 %
23.08.2017 11:10 17,8 C 21,1 C 70 % 1018,3 hPa 0,0 l/m 7,2 km/h (2 Bft) O-NO 77 2 min 0,000 mm 3,9 UV-I 707 W/m 12,3 C 17,4 C 11,3 km/h (2 Bft) 98,11 %
23.08.2017 11:12 17,8 C 21,1 C 68 % 1018,3 hPa 0,0 l/m 6,3 km/h (2 Bft) O-SO 102 2 min 0,000 mm 3,9 UV-I 708 W/m 11,8 C 17,8 C 12,9 km/h (3 Bft) 100,00 %
23.08.2017 11:14 17,9 C 21,1 C 69 % 1018,3 hPa 0,0 l/m 10,2 km/h (2 Bft) O-NO 68 2 min 0,000 mm 3,9 UV-I 710 W/m 12,1 C 16,2 C 16,1 km/h (3 Bft) 100,00 %
23.08.2017 11:16 18,0 C 21,1 C 67 % 1018,2 hPa 0,0 l/m 6,0 km/h (2 Bft) O 90 2 min 0,000 mm 4,0 UV-I 716 W/m 11,8 C 18,0 C 12,9 km/h (3 Bft) 100,00 %
23.08.2017 11:18 18,1 C 21,1 C 69 % 1018,2 hPa 0,0 l/m 7,5 km/h (2 Bft) O 95 2 min 0,000 mm 4,0 UV-I 718 W/m 12,3 C 17,6 C 11,3 km/h (2 Bft) 100,00 %
23.08.2017 11:20 17,9 C 21,1 C 69 % 1018,2 hPa 0,0 l/m 11,1 km/h (2 Bft) O-NO 76 2 min 0,000 mm 4,0 UV-I 720 W/m 12,1 C 15,9 C 16,1 km/h (3 Bft) 100,00 %
23.08.2017 11:22 18,1 C 21,1 C 69 % 1018,2 hPa 0,0 l/m 9,7 km/h (2 Bft) O-NO 64 2 min 0,000 mm 4,1 UV-I 724 W/m 12,3 C 16,7 C 14,5 km/h (3 Bft) 100,00 %
23.08.2017 11:24 18,1 C 21,1 C 69 % 1018,2 hPa 0,0 l/m 5,6 km/h (1 Bft) O-NO 65 2 min 0,000 mm 4,1 UV-I 726 W/m 12,3 C 18,1 C 9,7 km/h (2 Bft) 100,00 %
23.08.2017 11:26 18,2 C 21,1 C 68 % 1018,2 hPa 0,0 l/m 6,4 km/h (2 Bft) O-NO 67 2 min 0,000 mm 4,2 UV-I 731 W/m 12,2 C 18,2 C 11,3 km/h (2 Bft) 100,00 %
23.08.2017 11:28 18,3 C 21,1 C 69 % 1018,2 hPa 0,0 l/m 5,5 km/h (1 Bft) O 79 2 min 0,000 mm 4,2 UV-I 736 W/m 12,5 C 18,3 C 16,1 km/h (3 Bft) 100,00 %
23.08.2017 11:30 18,3 C 21,1 C 68 % 1018,2 hPa 0,0 l/m 8,0 km/h (2 Bft) O 94 2 min 0,000 mm 4,3 UV-I 737 W/m 12,3 C 17,6 C 14,5 km/h (3 Bft) 100,00 %
23.08.2017 11:32 18,4 C 21,1 C 71 % 1018,2 hPa 0,0 l/m 7,8 km/h (2 Bft) O-NO 61 2 min 0,000 mm 4,3 UV-I 738 W/m 13,0 C 17,8 C 12,9 km/h (3 Bft) 100,00 %
23.08.2017 11:34 18,3 C 21,1 C 66 % 1018,2 hPa 0,0 l/m 4,9 km/h (1 Bft) O-NO 69 2 min 0,000 mm 4,3 UV-I 740 W/m 11,8 C 18,3 C 14,5 km/h (3 Bft) 100,00 %
23.08.2017 11:36 18,4 C 21,1 C 68 % 1018,2 hPa 0,0 l/m 10,1 km/h (2 Bft) O 80 2 min 0,000 mm 4,4 UV-I 744 W/m 12,4 C 16,8 C 16,1 km/h (3 Bft) 100,00 %
23.08.2017 11:38 18,5 C 21,1 C 69 % 1018,1 hPa 0,0 l/m 7,6 km/h (2 Bft) O 83 2 min 0,000 mm 4,4 UV-I 748 W/m 12,7 C 18,0 C 11,3 km/h (2 Bft) 100,00 %
23.08.2017 11:40 18,5 C 21,1 C 65 % 1018,0 hPa 0,0 l/m 5,1 km/h (1 Bft) O 91 2 min 0,000 mm 4,4 UV-I 747 W/m 11,8 C 18,5 C 11,3 km/h (2 Bft) 100,00 %
23.08.2017 11:42 18,6 C 21,1 C 65 % 1018,1 hPa 0,0 l/m 7,4 km/h (2 Bft) O-NO 57 2 min 0,000 mm 4,5 UV-I 751 W/m 11,9 C 18,1 C 12,9 km/h (3 Bft) 100,00 %
23.08.2017 11:44 18,8 C 21,1 C 67 % 1018,1 hPa 0,0 l/m 7,1 km/h (2 Bft) O 97 2 min 0,000 mm 4,5 UV-I 755 W/m 12,5 C 18,5 C 9,7 km/h (2 Bft) 100,00 %
23.08.2017 11:46 18,7 C 21,1 C 65 % 1018,0 hPa 0,0 l/m 5,3 km/h (1 Bft) O-NO 59 2 min 0,000 mm 4,5 UV-I 755 W/m 12,0 C 18,7 C 11,3 km/h (2 Bft) 97,87 %
23.08.2017 11:48 18,8 C 21,1 C 68 % 1018,1 hPa 0,0 l/m 5,7 km/h (1 Bft) O-NO 59 2 min 0,000 mm 4,6 UV-I 757 W/m 12,8 C 18,8 C 11,3 km/h (2 Bft) 100,00 %
23.08.2017 11:50 18,9 C 21,1 C 64 % 1018,1 hPa 0,0 l/m 8,4 km/h (2 Bft) O-NO 63 2 min 0,000 mm 4,6 UV-I 761 W/m 11,9 C 18,0 C 12,9 km/h (3 Bft) 100,00 %
23.08.2017 11:52 18,9 C 21,1 C 62 % 1018,0 hPa 0,0 l/m 6,2 km/h (2 Bft) O 88 2 min 0,000 mm 4,6 UV-I 763 W/m 11,5 C 18,9 C 11,3 km/h (2 Bft) 97,37 %
23.08.2017 11:54 18,8 C 21,1 C 64 % 1018,1 hPa 0,0 l/m 8,0 km/h (2 Bft) O 85 2 min 0,000 mm 4,6 UV-I 761 W/m 11,8 C 18,1 C 12,9 km/h (3 Bft) 100,00 %
23.08.2017 11:56 18,9 C 21,1 C 64 % 1018,0 hPa 0,0 l/m 7,6 km/h (2 Bft) O 90 2 min 0,000 mm 4,7 UV-I 765 W/m 11,9 C 18,4 C 11,3 km/h (2 Bft) 100,00 %
23.08.2017 11:58 18,9 C 21,1 C 66 % 1018,0 hPa 0,0 l/m 8,6 km/h (2 Bft) O-NO 70 2 min 0,000 mm 4,7 UV-I 770 W/m 12,4 C 18,0 C 12,9 km/h (3 Bft) 98,11 %
23.08.2017 12:00 19,1 C 21,1 C 65 % 1018,0 hPa 0,0 l/m 7,6 km/h (2 Bft) O 80 2 min 0,432 mm 4,7 UV-I 768 W/m 12,4 C 18,6 C 11,3 km/h (2 Bft) 100,00 %
23.08.2017 12:02 19,1 C 21,1 C 64 % 1018,0 hPa 0,0 l/m 5,3 km/h (1 Bft) NO 49 2 min 0,000 mm 4,7 UV-I 766 W/m 12,1 C 19,1 C 9,7 km/h (2 Bft) 100,00 %
23.08.2017 12:04 19,3 C 21,1 C 70 % 1017,9 hPa 0,0 l/m 4,4 km/h (1 Bft) N-NO 26 2 min 0,000 mm 4,8 UV-I 772 W/m 13,7 C 19,3 C 8,0 km/h (2 Bft) 100,00 %
23.08.2017 12:06 19,5 C 21,1 C 65 % 1017,9 hPa 0,0 l/m 7,5 km/h (2 Bft) O-NO 74 2 min 0,000 mm 4,8 UV-I 773 W/m 12,7 C 19,0 C 12,9 km/h (3 Bft) 100,00 %
23.08.2017 12:08 19,5 C 21,1 C 63 % 1017,9 hPa 0,0 l/m 9,9 km/h (2 Bft) O-NO 61 2 min 0,000 mm 4,9 UV-I 779 W/m 12,3 C 18,1 C 14,5 km/h (3 Bft) 100,00 %
23.08.2017 12:10 19,3 C 21,1 C 64 % 1017,9 hPa 0,0 l/m 3,7 km/h (1 Bft) O-SO 111 2 min 0,000 mm 4,9 UV-I 785 W/m 12,3 C 19,3 C 6,4 km/h (2 Bft) 98,21 %
23.08.2017 12:12 19,2 C 21,1 C 65 % 1017,9 hPa 0,0 l/m 3,7 km/h (1 Bft) O 88 2 min 0,000 mm 4,9 UV-I 784 W/m 12,5 C 19,2 C 8,0 km/h (2 Bft) 100,00 %
23.08.2017 12:14 19,2 C 21,1 C 64 % 1017,8 hPa 0,0 l/m 4,1 km/h (1 Bft) O-SO 104 2 min 0,000 mm 4,9 UV-I 780 W/m 12,2 C 19,2 C 9,7 km/h (2 Bft) 97,56 %
23.08.2017 12:16 19,3 C 21,1 C 64 % 1017,9 hPa 0,0 l/m 4,5 km/h (1 Bft) SO 128 2 min 0,000 mm 4,9 UV-I 780 W/m 12,3 C 19,3 C 9,7 km/h (2 Bft) 100,00 %
23.08.2017 12:18 19,4 C 21,1 C 63 % 1017,9 hPa 0,0 l/m 7,6 km/h (2 Bft) O-NO 58 2 min 0,000 mm 5,0 UV-I 786 W/m 12,2 C 18,9 C 12,9 km/h (3 Bft) 97,56 %
23.08.2017 12:20 19,6 C 21,1 C 65 % 1017,9 hPa 0,0 l/m 7,1 km/h (2 Bft) O-SO 107 2 min 0,000 mm 5,0 UV-I 788 W/m 12,8 C 19,3 C 11,3 km/h (2 Bft) 96,23 %
23.08.2017 12:22 19,7 C 21,1 C 64 % 1017,9 hPa 0,0 l/m 6,6 km/h (2 Bft) O-NO 64 2 min 0,000 mm 5,0 UV-I 789 W/m 12,7 C 19,6 C 9,7 km/h (2 Bft) 97,56 %
23.08.2017 12:24 19,6 C 21,1 C 62 % 1017,8 hPa 0,0 l/m 2,9 km/h (1 Bft) NO 48 2 min 0,000 mm 5,0 UV-I 791 W/m 12,1 C 19,6 C 6,4 km/h (2 Bft) 97,87 %
23.08.2017 12:26 19,7 C 21,1 C 62 % 1017,9 hPa 0,0 l/m 7,3 km/h (2 Bft) O-NO 59 2 min 0,000 mm 5,0 UV-I 791 W/m 12,2 C 19,3 C 14,5 km/h (3 Bft) 97,87 %
23.08.2017 12:28 19,7 C 21,1 C 64 % 1017,8 hPa 0,0 l/m 5,7 km/h (1 Bft) O-SO 102 2 min 0,000 mm 5,1 UV-I 792 W/m 12,7 C 19,7 C 16,1 km/h (3 Bft) 97,87 %
23.08.2017 12:30 19,8 C 21,1 C 61 % 1017,9 hPa 0,0 l/m 7,7 km/h (2 Bft) O-NO 76 2 min 0,000 mm 5,1 UV-I 793 W/m 12,1 C 19,3 C 12,9 km/h (3 Bft) 97,73 %
23.08.2017 12:32 19,8 C 21,1 C 61 % 1017,8 hPa 0,0 l/m 6,7 km/h (2 Bft) O 86 2 min 0,000 mm 5,1 UV-I 793 W/m 12,1 C 19,7 C 11,3 km/h (2 Bft) 97,78 %
23.08.2017 12:34 19,9 C 21,1 C 64 % 1017,8 hPa 0,0 l/m 5,5 km/h (1 Bft) O-NO 76 2 min 0,000 mm 5,1 UV-I 795 W/m 12,9 C 19,9 C 6,4 km/h (2 Bft) 96,43 %
23.08.2017 12:36 20,2 C 21,1 C 66 % 1017,8 hPa 0,0 l/m 9,5 km/h (2 Bft) N-NO 20 2 min 0,000 mm 5,1 UV-I 794 W/m 13,6 C 19,0 C 14,5 km/h (3 Bft) 96,00 %
23.08.2017 12:38 20,4 C 21,1 C 64 % 1017,8 hPa 0,0 l/m 2,2 km/h (1 Bft) N 360 2 min 0,000 mm 5,1 UV-I 785 W/m 13,4 C 20,4 C 6,4 km/h (2 Bft) 97,56 %
23.08.2017 12:40 20,5 C 21,1 C 64 % 1017,8 hPa 0,0 l/m 5,1 km/h (1 Bft) N-NO 15 2 min 0,000 mm 5,1 UV-I 787 W/m 13,5 C 20,5 C 9,7 km/h (2 Bft) 97,44 %
23.08.2017 12:42 20,4 C 21,1 C 63 % 1017,8 hPa 0,0 l/m 5,5 km/h (1 Bft) N-NO 32 2 min 0,000 mm 5,1 UV-I 795 W/m 13,1 C 20,4 C 11,3 km/h (2 Bft) 98,18 %
23.08.2017 12:44 20,5 C 21,1 C 69 % 1017,8 hPa 0,0 l/m 2,7 km/h (1 Bft) N-NO 26 2 min 0,000 mm 5,1 UV-I 795 W/m 14,6 C 20,5 C 8,0 km/h (2 Bft) 94,87 %
23.08.2017 12:46 20,5 C 21,1 C 64 % 1017,8 hPa 0,0 l/m 1,8 km/h (1 Bft) N-NO 16 2 min 0,000 mm 5,2 UV-I 795 W/m 13,5 C 20,5 C 6,4 km/h (2 Bft) 98,00 %
23.08.2017 12:48 20,5 C 21,1 C 64 % 1017,8 hPa 0,0 l/m 4,7 km/h (1 Bft) N-NO 32 2 min 0,000 mm 5,2 UV-I 789 W/m 13,5 C 20,5 C 9,7 km/h (2 Bft) 98,11 %
23.08.2017 12:50 20,6 C 21,1 C 61 % 1017,8 hPa 0,0 l/m 5,9 km/h (2 Bft) O-SO 103 2 min 0,000 mm 5,2 UV-I 798 W/m 12,8 C 20,6 C 9,7 km/h (2 Bft) 98,00 %
23.08.2017 12:52 20,4 C 21,1 C 60 % 1017,8 hPa 0,0 l/m 5,3 km/h (1 Bft) NO 44 2 min 0,000 mm 5,2 UV-I 799 W/m 12,4 C 20,4 C 8,0 km/h (2 Bft) 100,00 %
23.08.2017 12:54 20,4 C 21,1 C 61 % 1017,8 hPa 0,0 l/m 6,5 km/h (2 Bft) NO 34 2 min 0,000 mm 5,2 UV-I 796 W/m 12,6 C 20,4 C 9,7 km/h (2 Bft) 100,00 %
23.08.2017 12:56 20,6 C 21,1 C 62 % 1017,8 hPa 0,0 l/m 5,7 km/h (1 Bft) O 89 2 min 0,000 mm 5,2 UV-I 788 W/m 13,1 C 20,6 C 11,3 km/h (2 Bft) 95,74 %
23.08.2017 12:58 20,5 C 21,1 C 59 % 1017,8 hPa 0,0 l/m 6,8 km/h (2 Bft) O 94 2 min 0,000 mm 5,1 UV-I 796 W/m 12,2 C 20,3 C 11,3 km/h (2 Bft) 100,00 %
23.08.2017 13:00 20,5 C 21,1 C 62 % 1017,8 hPa 0,0 l/m 7,0 km/h (2 Bft) N-NO 21 2 min 0,000 mm 5,2 UV-I 798 W/m 13,0 C 20,3 C 11,3 km/h (2 Bft) 100,00 %
23.08.2017 13:02 20,7 C 21,1 C 64 % 1017,8 hPa 0,0 l/m 1,8 km/h (1 Bft) N-NO 13 2 min 0,482 mm 5,2 UV-I 800 W/m 13,6 C 20,7 C 6,4 km/h (2 Bft) 100,00 %
23.08.2017 13:04 20,5 C 21,1 C 59 % 1017,8 hPa 0,0 l/m 0,7 km/h (0 Bft) N 360 2 min 0,000 mm 5,2 UV-I 789 W/m 12,2 C 20,5 C 3,2 km/h (1 Bft) 100,00 %
23.08.2017 13:06 20,3 C 21,7 C 61 % 1017,8 hPa 0,0 l/m 1,2 km/h (1 Bft) N-NW 333 2 min 0,000 mm 4,7 UV-I 795 W/m 12,5 C 20,3 C 4,8 km/h (1 Bft) 100,00 %
23.08.2017 13:08 20,4 C 21,7 C 65 % 1017,8 hPa 0,0 l/m 3,5 km/h (1 Bft) N-NW 342 2 min 0,000 mm 5,2 UV-I 785 W/m 13,6 C 20,4 C 6,4 km/h (2 Bft) 93,18 %
23.08.2017 13:10 20,4 C 21,7 C 60 % 1017,7 hPa 0,0 l/m 2,1 km/h (1 Bft) N 355 2 min 0,000 mm 5,2 UV-I 780 W/m 12,4 C 20,4 C 6,4 km/h (2 Bft) 100,00 %
23.08.2017 13:12 20,3 C 21,7 C 63 % 1017,7 hPa 0,0 l/m 1,3 km/h (1 Bft) N-NO 19 2 min 0,000 mm 5,3 UV-I 802 W/m 13,0 C 20,3 C 6,4 km/h (2 Bft) 100,00 %
23.08.2017 13:14 20,3 C 21,7 C 61 % 1017,7 hPa 0,0 l/m 2,6 km/h (1 Bft) NO 34 2 min 0,000 mm 5,1 UV-I 802 W/m 12,5 C 20,3 C 8,0 km/h (2 Bft) 100,00 %
23.08.2017 13:16 20,6 C 21,7 C 67 % 1017,6 hPa 0,0 l/m 4,3 km/h (1 Bft) N 5 2 min 0,000 mm 4,5 UV-I 799 W/m 14,3 C 20,6 C 11,3 km/h (2 Bft) 98,00 %
23.08.2017 13:18 20,8 C 21,7 C 63 % 1017,6 hPa 0,0 l/m 1,9 km/h (1 Bft) N-NO 26 2 min 0,000 mm 5,2 UV-I 796 W/m 13,5 C 20,8 C 8,0 km/h (2 Bft) 100,00 %
23.08.2017 13:20 20,8 C 21,7 C 61 % 1017,5 hPa 0,0 l/m 3,0 km/h (1 Bft) N-NO 28 2 min 0,000 mm 5,2 UV-I 793 W/m 13,0 C 20,8 C 8,0 km/h (2 Bft) 100,00 %
23.08.2017 13:22 20,7 C 21,7 C 63 % 1017,6 hPa 0,0 l/m 2,0 km/h (1 Bft) N-NW 346 2 min 0,000 mm 5,1 UV-I 786 W/m 13,4 C 20,7 C 4,8 km/h (1 Bft) 100,00 %
23.08.2017 13:24 20,8 C 21,7 C 61 % 1017,6 hPa 0,0 l/m 1,9 km/h (1 Bft) N-NW 329 2 min 0,000 mm 5,1 UV-I 782 W/m 13,0 C 20,8 C 3,2 km/h (1 Bft) 100,00 %
23.08.2017 13:26 20,8 C 21,7 C 59 % 1017,6 hPa 0,0 l/m 1,1 km/h (1 Bft) N-NW 329 2 min 0,000 mm 5,0 UV-I 774 W/m 12,5 C 20,8 C 4,8 km/h (1 Bft) 100,00 %
23.08.2017 13:28 20,7 C 21,7 C 60 % 1017,6 hPa 0,0 l/m 1,6 km/h (1 Bft) N-NW 333 2 min 0,000 mm 5,0 UV-I 759 W/m 12,7 C 20,7 C 3,2 km/h (1 Bft) 100,00 %
23.08.2017 13:30 20,7 C 21,7 C 57 % 1017,6 hPa 0,0 l/m 1,1 km/h (1 Bft) N-NW 333 2 min 0,000 mm 5,1 UV-I 760 W/m 11,9 C 20,7 C 4,8 km/h (1 Bft) 96,61 %
23.08.2017 13:32 20,8 C 21,7 C 61 % 1017,5 hPa 0,0 l/m 1,7 km/h (1 Bft) N 355 2 min 0,000 mm 5,1 UV-I 784 W/m 13,0 C 20,8 C 4,8 km/h (1 Bft) 100,00 %
23.08.2017 13:34 21,1 C 21,7 C 65 % 1017,5 hPa 0,0 l/m 3,9 km/h (1 Bft) O-NO 69 2 min 0,000 mm 5,2 UV-I 769 W/m 14,3 C 21,1 C 8,0 km/h (2 Bft) 100,00 %
23.08.2017 13:36 21,2 C 21,7 C 62 % 1017,5 hPa 0,0 l/m 1,8 km/h (1 Bft) N 355 2 min 0,000 mm 5,2 UV-I 790 W/m 13,6 C 21,2 C 4,8 km/h (1 Bft) 98,31 %
23.08.2017 13:38 21,2 C 21,7 C 61 % 1017,5 hPa 0,0 l/m 5,7 km/h (1 Bft) N-NO 22 2 min 0,000 mm 5,1 UV-I 787 W/m 13,4 C 21,2 C 11,3 km/h (2 Bft) 100,00 %
23.08.2017 13:40 21,2 C 21,7 C 59 % 1017,5 hPa 0,0 l/m 2,0 km/h (1 Bft) NW 309 2 min 0,000 mm 5,1 UV-I 789 W/m 12,9 C 21,2 C 3,2 km/h (1 Bft) 100,00 %
23.08.2017 13:42 21,2 C 21,7 C 57 % 1017,5 hPa 0,0 l/m 3,7 km/h (1 Bft) NW 322 2 min 0,000 mm 5,1 UV-I 787 W/m 12,3 C 21,2 C 6,4 km/h (2 Bft) 100,00 %
23.08.2017 13:44 21,2 C 21,7 C 54 % 1017,5 hPa 0,0 l/m 2,9 km/h (1 Bft) NW 319 2 min 0,000 mm 5,1 UV-I 787 W/m 11,5 C 21,2 C 6,4 km/h (2 Bft) 100,00 %
23.08.2017 13:46 21,1 C 21,7 C 56 % 1017,5 hPa 0,0 l/m 1,0 km/h (0 Bft) NW 319 2 min 0,000 mm 5,1 UV-I 767 W/m 12,0 C 21,1 C 3,2 km/h (1 Bft) 98,00 %
23.08.2017 13:48 21,0 C 21,7 C 57 % 1017,5 hPa 0,0 l/m 2,8 km/h (1 Bft) NO 42 2 min 0,000 mm 5,1 UV-I 783 W/m 12,1 C 21,0 C 9,7 km/h (2 Bft) 100,00 %
23.08.2017 13:50 21,2 C 21,7 C 60 % 1017,5 hPa 0,0 l/m 5,1 km/h (1 Bft) N 11 2 min 0,000 mm 5,1 UV-I 784 W/m 13,1 C 21,2 C 11,3 km/h (2 Bft) 100,00 %
23.08.2017 13:52 21,1 C 21,7 C 56 % 1017,5 hPa 0,0 l/m 1,2 km/h (1 Bft) NW 310 2 min 0,000 mm 5,0 UV-I 781 W/m 12,0 C 21,1 C 3,2 km/h (1 Bft) 100,00 %
23.08.2017 13:54 21,1 C 21,7 C 56 % 1017,5 hPa 0,0 l/m 4,2 km/h (1 Bft) O-SO 102 2 min 0,000 mm 5,0 UV-I 780 W/m 12,0 C 21,1 C 9,7 km/h (2 Bft) 100,00 %
23.08.2017 13:56 21,2 C 21,7 C 55 % 1017,5 hPa 0,0 l/m 2,5 km/h (1 Bft) SO 130 2 min 0,000 mm 5,0 UV-I 780 W/m 11,8 C 21,2 C 6,4 km/h (2 Bft) 100,00 %
23.08.2017 13:58 21,0 C 21,7 C 56 % 1017,5 hPa 0,0 l/m 3,5 km/h (1 Bft) S 182 2 min 0,000 mm 5,0 UV-I 780 W/m 11,9 C 21,0 C 8,0 km/h (2 Bft) 97,92 %
23.08.2017 14:00 21,0 C 21,7 C 54 % 1017,4 hPa 0,0 l/m 3,8 km/h (1 Bft) SO 133 2 min 0,483 mm 4,9 UV-I 774 W/m 11,3 C 21,0 C 6,4 km/h (2 Bft) 98,00 %
23.08.2017 14:02 21,0 C 21,7 C 54 % 1017,4 hPa 0,0 l/m 1,7 km/h (1 Bft) O-SO 112 2 min 0,000 mm 4,9 UV-I 774 W/m 11,3 C 21,0 C 4,8 km/h (1 Bft) 100,00 %
23.08.2017 14:04 21,2 C 21,7 C 56 % 1017,5 hPa 0,0 l/m 4,5 km/h (1 Bft) O-SO 103 2 min 0,000 mm 4,9 UV-I 775 W/m 12,1 C 21,2 C 9,7 km/h (2 Bft) 100,00 %
23.08.2017 14:06 21,4 C 21,7 C 54 % 1017,4 hPa 0,0 l/m 4,4 km/h (1 Bft) SO 127 2 min 0,000 mm 4,9 UV-I 774 W/m 11,7 C 21,4 C 9,7 km/h (2 Bft) 97,56 %
23.08.2017 14:08 21,6 C 21,7 C 53 % 1017,4 hPa 0,0 l/m 6,8 km/h (2 Bft) O-SO 111 2 min 0,000 mm 4,4 UV-I 771 W/m 11,6 C 21,5 C 11,3 km/h (2 Bft) 98,21 %
23.08.2017 14:10 21,7 C 21,7 C 56 % 1017,4 hPa 0,0 l/m 6,2 km/h (2 Bft) O 86 2 min 0,000 mm 4,7 UV-I 767 W/m 12,5 C 21,7 C 9,7 km/h (2 Bft) 100,00 %
23.08.2017 14:12 21,6 C 21,7 C 52 % 1017,3 hPa 0,0 l/m 3,3 km/h (1 Bft) O 90 2 min 0,000 mm 4,8 UV-I 767 W/m 11,3 C 21,6 C 4,8 km/h (1 Bft) 100,00 %
23.08.2017 14:14 21,6 C 21,7 C 55 % 1017,3 hPa 0,0 l/m 1,6 km/h (1 Bft) O 90 2 min 0,000 mm 4,8 UV-I 765 W/m 12,2 C 21,6 C 3,2 km/h (1 Bft) 100,00 %
23.08.2017 14:16 21,7 C 21,7 C 56 % 1017,3 hPa 0,0 l/m 4,9 km/h (1 Bft) NO 44 2 min 0,000 mm 4,8 UV-I 765 W/m 12,5 C 21,7 C 8,0 km/h (2 Bft) 98,00 %
23.08.2017 14:18 21,9 C 21,7 C 55 % 1017,3 hPa 0,0 l/m 8,0 km/h (2 Bft) NO 40 2 min 0,000 mm 4,8 UV-I 762 W/m 12,4 C 21,3 C 9,7 km/h (2 Bft) 98,11 %
23.08.2017 14:20 21,9 C 21,7 C 59 % 1017,3 hPa 0,0 l/m 4,6 km/h (1 Bft) NO 44 2 min 0,000 mm 4,7 UV-I 753 W/m 13,5 C 21,9 C 8,0 km/h (2 Bft) 95,12 %
23.08.2017 14:22 22,0 C 21,7 C 58 % 1017,3 hPa 0,0 l/m 2,9 km/h (1 Bft) N 355 2 min 0,000 mm 4,6 UV-I 746 W/m 13,3 C 22,0 C 6,4 km/h (2 Bft) 93,62 %
23.08.2017 14:24 22,0 C 21,7 C 58 % 1017,2 hPa 0,0 l/m 2,1 km/h (1 Bft) N-NW 342 2 min 0,000 mm 4,6 UV-I 749 W/m 13,3 C 22,0 C 4,8 km/h (1 Bft) 96,23 %
23.08.2017 14:26 22,1 C 21,7 C 56 % 1017,2 hPa 0,0 l/m 1,4 km/h (1 Bft) N-NW 344 2 min 0,000 mm 4,6 UV-I 747 W/m 12,9 C 22,1 C 3,2 km/h (1 Bft) 94,74 %
23.08.2017 14:28 21,9 C 21,7 C 55 % 1017,2 hPa 0,0 l/m 3,2 km/h (1 Bft) N-NO 15 2 min 0,000 mm 4,6 UV-I 743 W/m 12,4 C 21,9 C 6,4 km/h (2 Bft) 96,00 %
23.08.2017 14:30 21,7 C 21,7 C 52 % 1017,2 hPa 0,0 l/m 2,2 km/h (1 Bft) N-NO 15 2 min 0,000 mm 4,5 UV-I 739 W/m 11,4 C 21,7 C 6,4 km/h (2 Bft) 94,00 %
23.08.2017 14:32 21,7 C 21,7 C 54 % 1017,2 hPa 0,0 l/m 1,2 km/h (1 Bft) NO 48 2 min 0,000 mm 4,5 UV-I 736 W/m 12,0 C 21,7 C 3,2 km/h (1 Bft) 92,68 %
23.08.2017 14:34 21,6 C 22,2 C 53 % 1017,2 hPa 0,0 l/m 1,3 km/h (1 Bft) NO 48 2 min 0,000 mm 4,5 UV-I 732 W/m 11,6 C 21,6 C 4,8 km/h (1 Bft) 94,34 %
23.08.2017 14:36 21,6 C 22,2 C 55 % 1017,1 hPa 0,0 l/m 1,8 km/h (1 Bft) NW 321 2 min 0,000 mm 4,4 UV-I 729 W/m 12,2 C 21,6 C 4,8 km/h (1 Bft) 92,31 %
23.08.2017 14:38 21,7 C 22,2 C 53 % 1017,1 hPa 0,0 l/m 2,2 km/h (1 Bft) W-NW 295 2 min 0,000 mm 4,4 UV-I 703 W/m 11,7 C 21,7 C 6,4 km/h (2 Bft) 94,00 %
23.08.2017 14:40 21,6 C 22,2 C 53 % 1017,1 hPa 0,0 l/m 4,3 km/h (1 Bft) W-NW 296 2 min 0,000 mm 4,4 UV-I 719 W/m 11,6 C 21,6 C 8,0 km/h (2 Bft) 97,14 %
23.08.2017 14:42 21,7 C 22,2 C 53 % 1017,1 hPa 0,0 l/m 3,5 km/h (1 Bft) NW 308 2 min 0,000 mm 4,4 UV-I 728 W/m 11,7 C 21,7 C 8,0 km/h (2 Bft) 92,54 %
23.08.2017 14:44 21,8 C 22,2 C 57 % 1017,1 hPa 0,0 l/m 1,5 km/h (1 Bft) NW 305 2 min 0,000 mm 4,3 UV-I 723 W/m 12,9 C 21,8 C 3,2 km/h (1 Bft) 95,83 %
23.08.2017 14:46 21,9 C 22,2 C 52 % 1017,1 hPa 0,0 l/m 1,2 km/h (1 Bft) NW 309 2 min 0,000 mm 4,3 UV-I 723 W/m 11,6 C 21,9 C 3,2 km/h (1 Bft) 92,68 %
23.08.2017 14:48 21,8 C 22,2 C 52 % 1017,0 hPa 0,0 l/m 1,9 km/h (1 Bft) NW 309 2 min 0,000 mm 4,3 UV-I 722 W/m 11,5 C 21,8 C 3,2 km/h (1 Bft) 98,11 %
23.08.2017 14:50 21,7 C 22,2 C 52 % 1017,0 hPa 0,0 l/m 2,4 km/h (1 Bft) NW 309 2 min 0,000 mm 4,3 UV-I 718 W/m 11,4 C 21,7 C 3,2 km/h (1 Bft) 97,56 %
23.08.2017 14:52 21,8 C 22,2 C 56 % 1017,0 hPa 0,0 l/m 1,2 km/h (1 Bft) NW 309 2 min 0,000 mm 4,2 UV-I 711 W/m 12,6 C 21,8 C 3,2 km/h (1 Bft) 98,00 %
23.08.2017 14:54 21,8 C 22,2 C 50 % 1017,0 hPa 0,0 l/m 2,1 km/h (1 Bft) NW 309 2 min 0,000 mm 4,2 UV-I 712 W/m 10,9 C 21,8 C 4,8 km/h (1 Bft) 95,74 %
23.08.2017 14:56 21,7 C 22,2 C 51 % 1017,0 hPa 0,0 l/m 1,1 km/h (1 Bft) NW 310 2 min 0,000 mm 4,2 UV-I 714 W/m 11,1 C 21,7 C 3,2 km/h (1 Bft) 92,68 %
23.08.2017 14:58 21,7 C 22,2 C 51 % 1017,0 hPa 0,0 l/m 2,8 km/h (1 Bft) O-NO 61 2 min 0,000 mm 4,1 UV-I 704 W/m 11,1 C 21,7 C 6,4 km/h (2 Bft) 94,34 %
23.08.2017 15:00 21,8 C 22,2 C 50 % 1016,9 hPa 0,0 l/m 4,0 km/h (1 Bft) SO 130 2 min 0,457 mm 4,1 UV-I 702 W/m 10,9 C 21,8 C 6,4 km/h (2 Bft) 97,73 %
23.08.2017 15:02 21,7 C 22,2 C 50 % 1016,9 hPa 0,0 l/m 2,1 km/h (1 Bft) S-SO 150 2 min 0,000 mm 4,1 UV-I 701 W/m 10,8 C 21,7 C 4,8 km/h (1 Bft) 97,37 %
23.08.2017 15:04 21,9 C 22,2 C 50 % 1016,9 hPa 0,0 l/m 2,7 km/h (1 Bft) O-NO 69 2 min 0,000 mm 4,0 UV-I 700 W/m 11,0 C 21,9 C 6,4 km/h (2 Bft) 98,00 %
23.08.2017 15:06 22,2 C 22,2 C 52 % 1016,9 hPa 0,0 l/m 1,8 km/h (1 Bft) N-NO 17 2 min 0,000 mm 4,0 UV-I 693 W/m 11,9 C 22,2 C 4,8 km/h (1 Bft) 98,11 %
23.08.2017 15:08 22,2 C 22,2 C 52 % 1016,9 hPa 0,0 l/m 1,8 km/h (1 Bft) NO 40 2 min 0,000 mm 3,9 UV-I 688 W/m 11,9 C 22,2 C 4,8 km/h (1 Bft) 92,68 %
23.08.2017 15:10 22,3 C 22,2 C 55 % 1016,9 hPa 0,0 l/m 1,2 km/h (1 Bft) NO 37 2 min 0,000 mm 3,9 UV-I 684 W/m 12,8 C 22,3 C 4,8 km/h (1 Bft) 98,00 %
23.08.2017 15:12 22,4 C 22,2 C 50 % 1016,9 hPa 0,0 l/m 6,6 km/h (2 Bft) W-SW 240 2 min 0,000 mm 3,9 UV-I 685 W/m 11,5 C 22,3 C 12,9 km/h (3 Bft) 98,11 %
23.08.2017 15:14 22,4 C 22,2 C 48 % 1016,9 hPa 0,0 l/m 4,7 km/h (1 Bft) W 259 2 min 0,000 mm 3,8 UV-I 681 W/m 10,8 C 22,4 C 11,3 km/h (2 Bft) 97,56 %
23.08.2017 15:16 22,3 C 22,2 C 51 % 1016,8 hPa 0,0 l/m 1,0 km/h (0 Bft) W-NW 286 2 min 0,000 mm 3,8 UV-I 679 W/m 11,7 C 22,3 C 3,2 km/h (1 Bft) 97,73 %
23.08.2017 15:18 22,4 C 22,2 C 50 % 1016,9 hPa 0,0 l/m 3,3 km/h (1 Bft) W 275 2 min 0,000 mm 3,8 UV-I 675 W/m 11,5 C 22,4 C 4,8 km/h (1 Bft) 96,00 %
23.08.2017 15:20 22,4 C 22,2 C 50 % 1016,8 hPa 0,0 l/m 4,6 km/h (1 Bft) W 261 2 min 0,000 mm 3,7 UV-I 672 W/m 11,5 C 22,4 C 11,3 km/h (2 Bft) 97,62 %
23.08.2017 15:22 22,4 C 22,2 C 49 % 1016,9 hPa 0,0 l/m 4,9 km/h (1 Bft) W-NW 284 2 min 0,000 mm 3,7 UV-I 670 W/m 11,2 C 22,4 C 12,9 km/h (3 Bft) 96,00 %
23.08.2017 15:24 22,3 C 22,2 C 46 % 1016,9 hPa 0,0 l/m 3,9 km/h (1 Bft) NW 304 2 min 0,000 mm 3,6 UV-I 664 W/m 10,1 C 22,3 C 8,0 km/h (2 Bft) 96,23 %
23.08.2017 15:26 22,3 C 22,2 C 46 % 1016,8 hPa 0,0 l/m 3,3 km/h (1 Bft) NW 309 2 min 0,000 mm 3,6 UV-I 663 W/m 10,1 C 22,3 C 6,4 km/h (2 Bft) 97,56 %
23.08.2017 15:28 22,2 C 22,2 C 50 % 1016,8 hPa 0,0 l/m 0,4 km/h (0 Bft) NW 310 2 min 0,000 mm 3,5 UV-I 658 W/m 11,3 C 22,2 C 1,6 km/h (1 Bft) 98,00 %
23.08.2017 15:30 22,2 C 22,2 C 50 % 1016,8 hPa 0,0 l/m 1,5 km/h (1 Bft) S 173 2 min 0,000 mm 3,5 UV-I 647 W/m 11,3 C 22,2 C 3,2 km/h (1 Bft) 98,00 %
23.08.2017 15:32 22,3 C 22,2 C 50 % 1016,7 hPa 0,0 l/m 3,7 km/h (1 Bft) S 188 2 min 0,000 mm 3,4 UV-I 643 W/m 11,4 C 22,3 C 9,7 km/h (2 Bft) 94,74 %
23.08.2017 15:34 22,4 C 22,2 C 47 % 1016,7 hPa 0,0 l/m 5,4 km/h (1 Bft) S-SW 208 2 min 0,000 mm 3,4 UV-I 641 W/m 10,5 C 22,4 C 8,0 km/h (2 Bft) 98,00 %
23.08.2017 15:36 22,6 C 22,2 C 50 % 1016,7 hPa 0,0 l/m 5,0 km/h (1 Bft) SW 221 2 min 0,000 mm 3,4 UV-I 638 W/m 11,6 C 22,6 C 9,7 km/h (2 Bft) 98,11 %
23.08.2017 15:38 22,7 C 22,2 C 47 % 1016,7 hPa 0,0 l/m 2,7 km/h (1 Bft) W 275 2 min 0,000 mm 3,3 UV-I 632 W/m 10,8 C 22,7 C 6,4 km/h (2 Bft) 97,14 %
23.08.2017 15:40 22,7 C 22,2 C 49 % 1016,7 hPa 0,0 l/m 0,7 km/h (0 Bft) W 275 2 min 0,000 mm 3,3 UV-I 628 W/m 11,4 C 22,7 C 3,2 km/h (1 Bft) 98,11 %
23.08.2017 15:42 22,7 C 22,2 C 51 % 1016,7 hPa 0,0 l/m 0,1 km/h (0 Bft) W 275 2 min 0,000 mm 3,2 UV-I 623 W/m 12,0 C 22,7 C 1,6 km/h (1 Bft) 100,00 %
23.08.2017 15:44 22,8 C 22,2 C 50 % 1016,7 hPa 0,0 l/m 2,1 km/h (1 Bft) NW 326 2 min 0,000 mm 3,2 UV-I 617 W/m 11,8 C 22,8 C 8,0 km/h (2 Bft) 100,00 %
23.08.2017 15:46 22,7 C 22,2 C 48 % 1016,7 hPa 0,0 l/m 3,9 km/h (1 Bft) W-NW 298 2 min 0,000 mm 3,1 UV-I 614 W/m 11,1 C 22,7 C 9,7 km/h (2 Bft) 100,00 %
23.08.2017 15:48 22,6 C 22,2 C 49 % 1016,7 hPa 0,0 l/m 1,5 km/h (1 Bft) NW 304 2 min 0,000 mm 3,1 UV-I 610 W/m 11,3 C 22,6 C 6,4 km/h (2 Bft) 100,00 %
23.08.2017 15:50 22,5 C 22,2 C 46 % 1016,7 hPa 0,0 l/m 3,5 km/h (1 Bft) W-NW 302 2 min 0,000 mm 3,1 UV-I 604 W/m 10,3 C 22,5 C 6,4 km/h (2 Bft) 100,00 %
23.08.2017 15:52 22,4 C 22,2 C 45 % 1016,7 hPa 0,0 l/m 3,2 km/h (1 Bft) W-SW 254 2 min 0,000 mm 3,0 UV-I 599 W/m 9,9 C 22,4 C 6,4 km/h (2 Bft) 100,00 %
23.08.2017 15:54 22,3 C 22,2 C 48 % 1016,7 hPa 0,0 l/m 1,0 km/h (0 Bft) W-SW 254 2 min 0,000 mm 2,9 UV-I 592 W/m 10,8 C 22,3 C 3,2 km/h (1 Bft) 100,00 %
23.08.2017 15:56 22,3 C 22,2 C 47 % 1016,7 hPa 0,0 l/m 4,1 km/h (1 Bft) W-SW 241 2 min 0,000 mm 2,7 UV-I 585 W/m 10,4 C 22,3 C 6,4 km/h (2 Bft) 98,00 %
23.08.2017 15:58 22,4 C 22,2 C 48 % 1016,6 hPa 0,0 l/m 5,1 km/h (1 Bft) S-SW 195 2 min 0,000 mm 2,4 UV-I 581 W/m 10,8 C 22,4 C 6,4 km/h (2 Bft) 100,00 %
23.08.2017 16:00 22,4 C 22,2 C 46 % 1016,7 hPa 0,0 l/m 1,2 km/h (1 Bft) S-SW 195 2 min 0,406 mm 2,8 UV-I 579 W/m 10,2 C 22,4 C 3,2 km/h (1 Bft) 97,87 %
23.08.2017 16:02 22,6 C 22,2 C 52 % 1016,6 hPa 0,0 l/m 0,7 km/h (0 Bft) S-SW 195 2 min 0,000 mm 2,8 UV-I 576 W/m 12,2 C 22,6 C 3,2 km/h (1 Bft) 98,11 %
23.08.2017 16:04 22,6 C 22,2 C 47 % 1016,6 hPa 0,0 l/m 2,0 km/h (1 Bft) N-NO 26 2 min 0,000 mm 2,7 UV-I 575 W/m 10,7 C 22,6 C 6,4 km/h (2 Bft) 100,00 %
23.08.2017 16:06 22,5 C 22,2 C 49 % 1016,6 hPa 0,0 l/m 2,0 km/h (1 Bft) N-NO 15 2 min 0,000 mm 2,7 UV-I 570 W/m 11,2 C 22,5 C 6,4 km/h (2 Bft) 100,00 %
23.08.2017 16:08 22,6 C 22,2 C 48 % 1016,6 hPa 0,0 l/m 4,0 km/h (1 Bft) NO 43 2 min 0,000 mm 2,7 UV-I 565 W/m 11,0 C 22,6 C 6,4 km/h (2 Bft) 97,87 %
23.08.2017 16:10 22,6 C 22,2 C 48 % 1016,6 hPa 0,0 l/m 1,6 km/h (1 Bft) NO 43 2 min 0,000 mm 2,6 UV-I 556 W/m 11,0 C 22,6 C 4,8 km/h (1 Bft) 97,14 %
23.08.2017 16:12 22,7 C 22,2 C 49 % 1016,6 hPa 0,0 l/m 3,2 km/h (1 Bft) NO 40 2 min 0,000 mm 2,5 UV-I 547 W/m 11,4 C 22,7 C 4,8 km/h (1 Bft) 98,00 %
23.08.2017 16:14 22,7 C 22,2 C 50 % 1016,6 hPa 0,0 l/m 2,5 km/h (1 Bft) NO 40 2 min 0,000 mm 2,5 UV-I 540 W/m 11,7 C 22,7 C 4,8 km/h (1 Bft) 96,00 %
23.08.2017 16:16 22,8 C 22,2 C 50 % 1016,6 hPa 0,0 l/m 3,5 km/h (1 Bft) N-NO 27 2 min 0,000 mm 2,4 UV-I 533 W/m 11,8 C 22,8 C 6,4 km/h (2 Bft) 98,00 %
23.08.2017 16:18 22,8 C 22,2 C 49 % 1016,5 hPa 0,0 l/m 2,2 km/h (1 Bft) NW 321 2 min 0,000 mm 2,4 UV-I 534 W/m 11,5 C 22,8 C 4,8 km/h (1 Bft) 97,73 %
23.08.2017 16:20 22,8 C 22,2 C 49 % 1016,5 hPa 0,0 l/m 1,7 km/h (1 Bft) N 9 2 min 0,000 mm 2,4 UV-I 511 W/m 11,5 C 22,8 C 4,8 km/h (1 Bft) 97,87 %
23.08.2017 16:22 22,7 C 22,2 C 50 % 1016,5 hPa 0,0 l/m 1,1 km/h (1 Bft) N-NO 17 2 min 0,000 mm 2,3 UV-I 526 W/m 11,7 C 22,7 C 3,2 km/h (1 Bft) 93,62 %
23.08.2017 16:24 22,6 C 22,2 C 48 % 1016,5 hPa 0,0 l/m 0,5 km/h (0 Bft) N-NW 334 2 min 0,000 mm 2,3 UV-I 520 W/m 11,0 C 22,6 C 3,2 km/h (1 Bft) 96,00 %
23.08.2017 16:26 22,6 C 22,2 C 53 % 1016,5 hPa 0,0 l/m 3,3 km/h (1 Bft) N-NO 26 2 min 0,000 mm 2,2 UV-I 516 W/m 12,5 C 22,6 C 11,3 km/h (2 Bft) 100,00 %
23.08.2017 16:28 22,6 C 22,2 C 51 % 1016,5 hPa 0,0 l/m 2,1 km/h (1 Bft) NO 37 2 min 0,000 mm 2,2 UV-I 509 W/m 11,9 C 22,6 C 6,4 km/h (2 Bft) 97,01 %
23.08.2017 16:30 22,6 C 22,2 C 50 % 1016,4 hPa 0,0 l/m 2,7 km/h (1 Bft) N-NO 19 2 min 0,000 mm 2,2 UV-I 502 W/m 11,6 C 22,6 C 4,8 km/h (1 Bft) 97,73 %
23.08.2017 16:32 22,6 C 22,2 C 54 % 1016,5 hPa 0,0 l/m 1,8 km/h (1 Bft) N-NO 22 2 min 0,000 mm 2,1 UV-I 496 W/m 12,8 C 22,6 C 4,8 km/h (1 Bft) 98,00 %
23.08.2017 16:34 22,7 C 22,2 C 49 % 1016,5 hPa 0,0 l/m 2,6 km/h (1 Bft) N-NO 14 2 min 0,000 mm 2,1 UV-I 490 W/m 11,4 C 22,7 C 4,8 km/h (1 Bft) 97,56 %
23.08.2017 16:36 22,6 C 22,2 C 48 % 1016,4 hPa 0,0 l/m 0,8 km/h (0 Bft) N 5 2 min 0,000 mm 2,0 UV-I 486 W/m 11,0 C 22,6 C 4,8 km/h (1 Bft) 97,92 %
23.08.2017 16:38 22,5 C 22,2 C 49 % 1016,4 hPa 0,0 l/m 1,0 km/h (0 Bft) N-NW 344 2 min 0,000 mm 2,0 UV-I 480 W/m 11,2 C 22,5 C 4,8 km/h (1 Bft) 97,87 %
23.08.2017 16:40 22,4 C 22,2 C 46 % 1016,5 hPa 0,0 l/m 0,7 km/h (0 Bft) N-NW 346 2 min 0,000 mm 1,9 UV-I 472 W/m 10,2 C 22,4 C 3,2 km/h (1 Bft) 100,00 %
23.08.2017 16:42 22,4 C 22,2 C 48 % 1016,4 hPa 0,0 l/m 0,7 km/h (0 Bft) N 360 2 min 0,000 mm 1,9 UV-I 468 W/m 10,8 C 22,4 C 3,2 km/h (1 Bft) 96,43 %
23.08.2017 16:44 22,4 C 22,2 C 47 % 1016,5 hPa 0,0 l/m 0,3 km/h (0 Bft) N 360 2 min 0,000 mm 1,9 UV-I 463 W/m 10,5 C 22,4 C 1,6 km/h (1 Bft) 100,00 %
23.08.2017 16:46 22,5 C 22,2 C 49 % 1016,4 hPa 0,0 l/m 1,2 km/h (1 Bft) N 355 2 min 0,000 mm 1,8 UV-I 460 W/m 11,2 C 22,5 C 4,8 km/h (1 Bft) 97,87 %
23.08.2017 16:48 22,6 C 22,2 C 47 % 1016,4 hPa 0,0 l/m 3,6 km/h (1 Bft) N-NO 17 2 min 0,000 mm 1,8 UV-I 456 W/m 10,7 C 22,6 C 4,8 km/h (1 Bft) 100,00 %
23.08.2017 16:50 22,6 C 22,2 C 50 % 1016,4 hPa 0,0 l/m 1,2 km/h (1 Bft) N-NO 19 2 min 0,000 mm 1,8 UV-I 450 W/m 11,6 C 22,6 C 3,2 km/h (1 Bft) 94,00 %
23.08.2017 16:52 22,6 C 22,2 C 51 % 1016,4 hPa 0,0 l/m 0,2 km/h (0 Bft) N-NO 19 2 min 0,000 mm 1,7 UV-I 443 W/m 11,9 C 22,6 C 1,6 km/h (1 Bft) 100,00 %
23.08.2017 16:54 22,7 C 22,2 C 47 % 1016,5 hPa 0,0 l/m 2,1 km/h (1 Bft) N-NO 19 2 min 0,000 mm 1,7 UV-I 438 W/m 10,8 C 22,7 C 3,2 km/h (1 Bft) 100,00 %
23.08.2017 16:56 22,7 C 22,2 C 47 % 1016,4 hPa 0,0 l/m 1,0 km/h (0 Bft) N-NO 19 2 min 0,000 mm 1,6 UV-I 433 W/m 10,8 C 22,7 C 1,6 km/h (1 Bft) 96,36 %
23.08.2017 16:58 22,7 C 22,2 C 48 % 1016,5 hPa 0,0 l/m 1,6 km/h (1 Bft) N-NW 335 2 min 0,000 mm 1,6 UV-I 430 W/m 11,1 C 22,7 C 6,4 km/h (2 Bft) 100,00 %
23.08.2017 17:00 22,7 C 22,2 C 46 % 1016,4 hPa 0,0 l/m 1,7 km/h (1 Bft) N-NW 335 2 min 0,305 mm 1,6 UV-I 426 W/m 10,5 C 22,7 C 6,4 km/h (2 Bft) 100,00 %
23.08.2017 17:02 22,6 C 22,2 C 45 % 1016,4 hPa 0,0 l/m 0,1 km/h (0 Bft) N-NW 335 2 min 0,000 mm 1,5 UV-I 422 W/m 10,1 C 22,6 C 1,6 km/h (1 Bft) 100,00 %
23.08.2017 17:04 22,6 C 22,2 C 48 % 1016,4 hPa 0,0 l/m 0,1 km/h (0 Bft) N-NW 335 2 min 0,000 mm 1,5 UV-I 417 W/m 11,0 C 22,6 C 1,6 km/h (1 Bft) 100,00 %
23.08.2017 17:06 22,7 C 22,2 C 45 % 1016,4 hPa 0,0 l/m 1,1 km/h (1 Bft) N 5 2 min 0,000 mm 1,5 UV-I 411 W/m 10,1 C 22,7 C 3,2 km/h (1 Bft) 100,00 %
23.08.2017 17:08 22,7 C 22,2 C 47 % 1016,4 hPa 0,0 l/m 0,7 km/h (0 Bft) N 5 2 min 0,000 mm 1,4 UV-I 407 W/m 10,8 C 22,7 C 1,6 km/h (1 Bft) 100,00 %
23.08.2017 17:10 22,8 C 22,8 C 49 % 1016,4 hPa 0,0 l/m 2,4 km/h (1 Bft) N 5 2 min 0,000 mm 1,4 UV-I 401 W/m 11,5 C 22,8 C 4,8 km/h (1 Bft) 100,00 %
23.08.2017 17:12 22,8 C 22,8 C 49 % 1016,3 hPa 0,0 l/m 3,3 km/h (1 Bft) N-NO 15 2 min 0,000 mm 1,4 UV-I 395 W/m 11,5 C 22,8 C 6,4 km/h (2 Bft) 100,00 %
23.08.2017 17:14 22,9 C 22,8 C 47 % 1016,4 hPa 0,0 l/m 0,4 km/h (0 Bft) N-NO 15 2 min 0,000 mm 1,3 UV-I 388 W/m 11,0 C 22,9 C 1,6 km/h (1 Bft) 96,00 %
23.08.2017 17:16 22,8 C 22,8 C 49 % 1016,4 hPa 0,0 l/m 0,7 km/h (0 Bft) N-NO 12 2 min 0,000 mm 1,3 UV-I 382 W/m 11,5 C 22,8 C 3,2 km/h (1 Bft) 100,00 %
23.08.2017 17:18 22,8 C 22,8 C 49 % 1016,4 hPa 0,0 l/m 0,8 km/h (0 Bft) N 10 2 min 0,000 mm 1,3 UV-I 377 W/m 11,5 C 22,8 C 3,2 km/h (1 Bft) 100,00 %
23.08.2017 17:20 22,7 C 22,8 C 48 % 1016,4 hPa 0,0 l/m 1,5 km/h (1 Bft) N-NO 30 2 min 0,000 mm 1,2 UV-I 370 W/m 11,1 C 22,7 C 8,0 km/h (2 Bft) 96,00 %
23.08.2017 17:22 22,7 C 22,8 C 48 % 1016,4 hPa 0,0 l/m 4,8 km/h (1 Bft) N-NO 26 2 min 0,000 mm 1,2 UV-I 365 W/m 11,1 C 22,7 C 8,0 km/h (2 Bft) 100,00 %
23.08.2017 17:24 22,6 C 22,8 C 48 % 1016,4 hPa 0,0 l/m 5,2 km/h (1 Bft) NO 49 2 min 0,000 mm 1,2 UV-I 358 W/m 11,0 C 22,6 C 9,7 km/h (2 Bft) 100,00 %
23.08.2017 17:26 22,6 C 22,8 C 49 % 1016,4 hPa 0,0 l/m 6,1 km/h (2 Bft) NO 53 2 min 0,000 mm 1,1 UV-I 350 W/m 11,3 C 22,6 C 11,3 km/h (2 Bft) 100,00 %
23.08.2017 17:28 22,7 C 22,8 C 48 % 1016,3 hPa 0,0 l/m 5,9 km/h (2 Bft) NO 50 2 min 0,000 mm 1,1 UV-I 345 W/m 11,1 C 22,7 C 8,0 km/h (2 Bft) 100,00 %
23.08.2017 17:30 22,7 C 22,8 C 48 % 1016,4 hPa 0,0 l/m 5,0 km/h (1 Bft) NO 51 2 min 0,000 mm 1,1 UV-I 340 W/m 11,1 C 22,7 C 6,4 km/h (2 Bft) 98,00 %
23.08.2017 17:32 22,6 C 22,8 C 47 % 1016,3 hPa 0,0 l/m 2,7 km/h (1 Bft) NO 38 2 min 0,000 mm 1,0 UV-I 334 W/m 10,7 C 22,6 C 6,4 km/h (2 Bft) 100,00 %
23.08.2017 17:34 22,6 C 22,8 C 47 % 1016,4 hPa 0,0 l/m 1,8 km/h (1 Bft) NO 38 2 min 0,000 mm 1,0 UV-I 328 W/m 10,7 C 22,6 C 4,8 km/h (1 Bft) 98,00 %
23.08.2017 17:36 22,5 C 22,8 C 46 % 1016,3 hPa 0,0 l/m 0,8 km/h (0 Bft) NO 38 2 min 0,000 mm 1,0 UV-I 321 W/m 10,3 C 22,5 C 4,8 km/h (1 Bft) 100,00 %
23.08.2017 17:38 22,6 C 22,8 C 49 % 1016,3 hPa 0,0 l/m 3,9 km/h (1 Bft) NO 51 2 min 0,000 mm 0,9 UV-I 316 W/m 11,3 C 22,6 C 6,4 km/h (2 Bft) 100,00 %
23.08.2017 17:40 22,6 C 22,8 C 46 % 1016,3 hPa 0,0 l/m 2,9 km/h (1 Bft) O-NO 59 2 min 0,000 mm 0,9 UV-I 310 W/m 10,4 C 22,6 C 4,8 km/h (1 Bft) 97,37 %
23.08.2017 17:42 22,5 C 22,8 C 46 % 1016,3 hPa 0,0 l/m 0,2 km/h (0 Bft) O-NO 59 2 min 0,000 mm 0,9 UV-I 304 W/m 10,3 C 22,5 C 1,6 km/h (1 Bft) 98,21 %
23.08.2017 17:44 22,6 C 22,8 C 48 % 1016,3 hPa 0,0 l/m 3,0 km/h (1 Bft) NO 54 2 min 0,000 mm 0,9 UV-I 300 W/m 11,0 C 22,6 C 6,4 km/h (2 Bft) 100,00 %
23.08.2017 17:46 22,6 C 22,8 C 44 % 1016,3 hPa 0,0 l/m 1,4 km/h (1 Bft) NO 54 2 min 0,000 mm 0,8 UV-I 295 W/m 9,7 C 22,6 C 3,2 km/h (1 Bft) 98,00 %
23.08.2017 17:48 22,6 C 22,8 C 46 % 1016,3 hPa 0,0 l/m 0,6 km/h (0 Bft) NO 55 2 min 0,000 mm 0,8 UV-I 288 W/m 10,4 C 22,6 C 1,6 km/h (1 Bft) 98,00 %
23.08.2017 17:50 22,6 C 22,8 C 48 % 1016,2 hPa 0,0 l/m 0,3 km/h (0 Bft) NO 54 2 min 0,000 mm 0,8 UV-I 282 W/m 11,0 C 22,6 C 1,6 km/h (1 Bft) 96,00 %
23.08.2017 17:52 22,6 C 22,8 C 45 % 1016,2 hPa 0,0 l/m 0,5 km/h (0 Bft) NO 54 2 min 0,000 mm 0,8 UV-I 276 W/m 10,1 C 22,6 C 3,2 km/h (1 Bft) 100,00 %
23.08.2017 17:54 22,6 C 22,8 C 45 % 1016,2 hPa 0,0 l/m 1,4 km/h (1 Bft) NO 54 2 min 0,000 mm 0,7 UV-I 271 W/m 10,1 C 22,6 C 4,8 km/h (1 Bft) 98,11 %
23.08.2017 17:56 22,6 C 22,8 C 47 % 1016,2 hPa 0,0 l/m 1,0 km/h (0 Bft) NO 54 2 min 0,000 mm 0,7 UV-I 265 W/m 10,7 C 22,6 C 3,2 km/h (1 Bft) 98,08 %
23.08.2017 17:58 22,6 C 22,8 C 46 % 1016,1 hPa 0,0 l/m 2,8 km/h (1 Bft) NO 54 2 min 0,000 mm 0,7 UV-I 260 W/m 10,4 C 22,6 C 4,8 km/h (1 Bft) 97,62 %
23.08.2017 18:00 22,6 C 22,8 C 51 % 1016,1 hPa 0,0 l/m 3,1 km/h (1 Bft) NO 48 2 min 0,000 mm 0,7 UV-I 253 W/m 11,9 C 22,6 C 6,4 km/h (2 Bft) 98,11 %
23.08.2017 18:02 22,5 C 22,8 C 47 % 1016,1 hPa 0,0 l/m 3,7 km/h (1 Bft) NO 40 2 min 0,229 mm 0,6 UV-I 248 W/m 10,6 C 22,5 C 6,4 km/h (2 Bft) 94,74 %
23.08.2017 18:04 22,5 C 22,8 C 48 % 1016,2 hPa 0,0 l/m 1,7 km/h (1 Bft) NO 40 2 min 0,000 mm 0,6 UV-I 243 W/m 10,9 C 22,5 C 3,2 km/h (1 Bft) 97,87 %
23.08.2017 18:06 22,6 C 22,8 C 46 % 1016,2 hPa 0,0 l/m 0,1 km/h (0 Bft) NO 40 2 min 0,000 mm 0,6 UV-I 238 W/m 10,4 C 22,6 C 1,6 km/h (1 Bft) 96,00 %
23.08.2017 18:08 22,6 C 22,8 C 49 % 1016,1 hPa 0,0 l/m 2,0 km/h (1 Bft) NO 40 2 min 0,000 mm 0,6 UV-I 231 W/m 11,3 C 22,6 C 4,8 km/h (1 Bft) 98,11 %
23.08.2017 18:10 22,5 C 22,8 C 46 % 1016,2 hPa 0,0 l/m 2,5 km/h (1 Bft) NO 40 2 min 0,000 mm 0,5 UV-I 225 W/m 10,3 C 22,5 C 6,4 km/h (2 Bft) 97,87 %
23.08.2017 18:12 22,6 C 22,8 C 48 % 1016,2 hPa 0,0 l/m 3,1 km/h (1 Bft) NO 40 2 min 0,000 mm 0,5 UV-I 220 W/m 11,0 C 22,6 C 6,4 km/h (2 Bft) 97,56 %
23.08.2017 18:14 22,6 C 22,8 C 47 % 1016,2 hPa 0,0 l/m 2,3 km/h (1 Bft) NO 40 2 min 0,000 mm 0,5 UV-I 215 W/m 10,7 C 22,6 C 4,8 km/h (1 Bft) 97,56 %
23.08.2017 18:16 22,6 C 22,8 C 50 % 1016,2 hPa 0,0 l/m 2,3 km/h (1 Bft) NO 40 2 min 0,000 mm 0,5 UV-I 210 W/m 11,6 C 22,6 C 3,2 km/h (1 Bft) 97,87 %
23.08.2017 18:18 22,6 C 22,8 C 48 % 1016,2 hPa 0,0 l/m 0,5 km/h (0 Bft) NO 40 2 min 0,000 mm 0,5 UV-I 204 W/m 11,0 C 22,6 C 3,2 km/h (1 Bft) 94,00 %
23.08.2017 18:20 22,5 C 22,8 C 48 % 1016,1 hPa 0,0 l/m 0,0 km/h (0 Bft) NO 40 2 min 0,000 mm 0,0 UV-I 199 W/m 10,9 C 22,5 C 1,6 km/h (1 Bft) 98,00 %
23.08.2017 18:22 22,4 C 22,8 C 49 % 1016,2 hPa 0,0 l/m 0,4 km/h (0 Bft) NO 40 2 min 0,000 mm 0,0 UV-I 193 W/m 11,2 C 22,4 C 1,6 km/h (1 Bft) 97,87 %
23.08.2017 18:24 22,3 C 22,8 C 46 % 1016,1 hPa 0,0 l/m 0,1 km/h (0 Bft) NO 40 2 min 0,000 mm 0,0 UV-I 188 W/m 10,1 C 22,3 C 1,6 km/h (1 Bft) 97,87 %
23.08.2017 18:26 22,3 C 22,8 C 50 % 1016,1 hPa 0,0 l/m 2,6 km/h (1 Bft) NO 40 2 min 0,000 mm 0,0 UV-I 183 W/m 11,4 C 22,3 C 4,8 km/h (1 Bft) 97,87 %
23.08.2017 18:28 22,2 C 22,8 C 50 % 1016,1 hPa 0,0 l/m 4,1 km/h (1 Bft) NO 40 2 min 0,000 mm 0,0 UV-I 178 W/m 11,3 C 22,2 C 6,4 km/h (2 Bft) 97,56 %
23.08.2017 18:30 22,2 C 22,8 C 51 % 1016,1 hPa 0,0 l/m 1,9 km/h (1 Bft) NO 40 2 min 0,000 mm 0,0 UV-I 172 W/m 11,6 C 22,2 C 4,8 km/h (1 Bft) 100,00 %
23.08.2017 18:32 22,2 C 22,8 C 51 % 1016,1 hPa 0,0 l/m 4,1 km/h (1 Bft) NO 40 2 min 0,000 mm 0,0 UV-I 167 W/m 11,6 C 22,2 C 6,4 km/h (2 Bft) 100,00 %
23.08.2017 18:34 22,1 C 22,8 C 51 % 1016,1 hPa 0,0 l/m 2,5 km/h (1 Bft) NO 40 2 min 0,000 mm 0,0 UV-I 162 W/m 11,5 C 22,1 C 4,8 km/h (1 Bft) 100,00 %
23.08.2017 18:36 22,1 C 22,8 C 52 % 1016,1 hPa 0,0 l/m 0,0 km/h (0 Bft) NO 40 2 min 0,000 mm 0,0 UV-I 156 W/m 11,8 C 22,1 C 1,6 km/h (1 Bft) 100,00 %
23.08.2017 18:38 22,1 C 22,8 C 49 % 1016,1 hPa 0,0 l/m 0,2 km/h (0 Bft) NO 40 2 min 0,000 mm 0,0 UV-I 151 W/m 10,9 C 22,1 C 1,6 km/h (1 Bft) 98,00 %
23.08.2017 18:40 22,1 C 22,8 C 51 % 1016,1 hPa 0,0 l/m 1,1 km/h (1 Bft) NO 40 2 min 0,000 mm 0,0 UV-I 145 W/m 11,5 C 22,1 C 3,2 km/h (1 Bft) 100,00 %
23.08.2017 18:42 22,0 C 22,8 C 50 % 1016,0 hPa 0,0 l/m 1,0 km/h (0 Bft) NO 40 2 min 0,000 mm 0,0 UV-I 140 W/m 11,1 C 22,0 C 3,2 km/h (1 Bft) 100,00 %
23.08.2017 18:44 22,1 C 22,8 C 53 % 1016,0 hPa 0,0 l/m 0,3 km/h (0 Bft) NO 40 2 min 0,000 mm 0,0 UV-I 134 W/m 12,1 C 22,1 C 1,6 km/h (1 Bft) 97,37 %
23.08.2017 18:46 22,1 C 22,8 C 53 % 1016,1 hPa 0,0 l/m 0,2 km/h (0 Bft) NO 40 2 min 0,000 mm 0,0 UV-I 129 W/m 12,1 C 22,1 C 1,6 km/h (1 Bft) 98,00 %
23.08.2017 18:48 22,0 C 22,8 C 52 % 1016,1 hPa 0,0 l/m 0,6 km/h (0 Bft) NO 40 2 min 0,000 mm 0,0 UV-I 124 W/m 11,7 C 22,0 C 1,6 km/h (1 Bft) 100,00 %
23.08.2017 18:50 21,9 C 22,8 C 50 % 1016,1 hPa 0,0 l/m 0,0 km/h (0 Bft) NO 40 2 min 0,000 mm 0,0 UV-I 119 W/m 11,0 C 21,9 C 0,0 km/h (0 Bft) 96,43 %
23.08.2017 18:52 21,9 C 22,8 C 50 % 1016,1 hPa 0,0 l/m 0,0 km/h (0 Bft) NO 40 2 min 0,000 mm 0,0 UV-I 115 W/m 11,0 C 21,9 C 1,6 km/h (1 Bft) 95,74 %
23.08.2017 18:54 22,0 C 22,8 C 52 % 1016,1 hPa 0,0 l/m 0,2 km/h (0 Bft) NO 40 2 min 0,000 mm 0,0 UV-I 112 W/m 11,7 C 22,0 C 1,6 km/h (1 Bft) 100,00 %
23.08.2017 18:56 22,1 C 22,8 C 51 % 1016,1 hPa 0,0 l/m 0,0 km/h (0 Bft) NO 40 2 min 0,000 mm 0,0 UV-I 107 W/m 11,5 C 22,1 C 0,0 km/h (0 Bft) 96,00 %
23.08.2017 18:58 22,1 C 22,8 C 49 % 1016,1 hPa 0,0 l/m 0,0 km/h (0 Bft) NO 40 2 min 0,000 mm 0,0 UV-I 101 W/m 10,9 C 22,1 C 0,0 km/h (0 Bft) 94,74 %
23.08.2017 19:00 22,1 C 22,8 C 48 % 1016,1 hPa 0,0 l/m 0,0 km/h (0 Bft) NO 40 2 min 0,127 mm 0,0 UV-I 97 W/m 10,6 C 22,1 C 0,0 km/h (0 Bft) 98,39 %
23.08.2017 19:02 22,1 C 22,8 C 49 % 1016,1 hPa 0,0 l/m 0,9 km/h (0 Bft) NO 40 2 min 0,000 mm 0,0 UV-I 93 W/m 10,9 C 22,1 C 3,2 km/h (1 Bft) 97,87 %
23.08.2017 19:04 22,1 C 22,8 C 52 % 1016,1 hPa 0,0 l/m 0,7 km/h (0 Bft) NO 40 2 min 0,000 mm 0,0 UV-I 89 W/m 11,8 C 22,1 C 3,2 km/h (1 Bft) 97,87 %
23.08.2017 19:06 21,9 C 22,8 C 53 % 1016,1 hPa 0,0 l/m 0,7 km/h (0 Bft) NO 40 2 min 0,000 mm 0,0 UV-I 85 W/m 11,9 C 21,9 C 1,6 km/h (1 Bft) 97,37 %
23.08.2017 19:08 21,9 C 22,8 C 53 % 1016,1 hPa 0,0 l/m 0,6 km/h (0 Bft) NO 40 2 min 0,000 mm 0,0 UV-I 80 W/m 11,9 C 21,9 C 1,6 km/h (1 Bft) 98,11 %
23.08.2017 19:10 21,8 C 22,8 C 53 % 1016,1 hPa 0,0 l/m 0,0 km/h (0 Bft) NO 40 2 min 0,000 mm 0,0 UV-I 76 W/m 11,8 C 21,8 C 0,0 km/h (0 Bft) 97,87 %
23.08.2017 19:12 21,8 C 22,8 C 57 % 1016,1 hPa 0,0 l/m 0,9 km/h (0 Bft) NO 40 2 min 0,000 mm 0,0 UV-I 72 W/m 12,9 C 21,8 C 3,2 km/h (1 Bft) 97,44 %
23.08.2017 19:14 21,7 C 22,8 C 57 % 1016,1 hPa 0,0 l/m 1,5 km/h (1 Bft) NO 40 2 min 0,000 mm 0,0 UV-I 68 W/m 12,8 C 21,7 C 3,2 km/h (1 Bft) 97,87 %
23.08.2017 19:16 21,6 C 22,2 C 56 % 1016,1 hPa 0,0 l/m 2,3 km/h (1 Bft) NO 40 2 min 0,000 mm 0,0 UV-I 64 W/m 12,4 C 21,6 C 3,2 km/h (1 Bft) 96,00 %
23.08.2017 19:18 21,4 C 22,2 C 58 % 1016,1 hPa 0,0 l/m 1,9 km/h (1 Bft) NO 40 0 min 0,000 mm 0,0 UV-I 60 W/m 12,8 C 21,4 C 3,2 km/h (1 Bft) 97,96 %
23.08.2017 19:20 21,2 C 22,2 C 64 % 1016,1 hPa 0,0 l/m 1,0 km/h (0 Bft) NO 40 0 min 0,000 mm 0,0 UV-I 56 W/m 14,1 C 21,2 C 3,2 km/h (1 Bft) 97,37 %
23.08.2017 19:22 21,0 C 22,2 C 65 % 1016,1 hPa 0,0 l/m 1,4 km/h (1 Bft) NO 40 0 min 0,000 mm 0,0 UV-I 51 W/m 14,2 C 21,0 C 3,2 km/h (1 Bft) 96,43 %
23.08.2017 19:24 20,8 C 22,2 C 66 % 1016,1 hPa 0,0 l/m 1,8 km/h (1 Bft) NO 40 0 min 0,000 mm 0,0 UV-I 49 W/m 14,2 C 20,8 C 3,2 km/h (1 Bft) 97,37 %
23.08.2017 19:26 20,6 C 22,2 C 68 % 1016,1 hPa 0,0 l/m 0,2 km/h (0 Bft) NO 40 0 min 0,000 mm 0,0 UV-I 46 W/m 14,5 C 20,6 C 1,6 km/h (1 Bft) 96,23 %
23.08.2017 19:28 20,3 C 22,2 C 69 % 1016,0 hPa 0,0 l/m 0,0 km/h (0 Bft) NO 40 0 min 0,000 mm 0,0 UV-I 41 W/m 14,4 C 20,3 C 0,0 km/h (0 Bft) 97,87 %
23.08.2017 19:30 20,1 C 22,2 C 69 % 1016,1 hPa 0,0 l/m 0,0 km/h (0 Bft) NO 40 0 min 0,000 mm 0,0 UV-I 38 W/m 14,2 C 20,1 C 0,0 km/h (0 Bft) 97,14 %
23.08.2017 19:32 19,8 C 22,2 C 68 % 1016,1 hPa 0,0 l/m 0,0 km/h (0 Bft) NO 40 0 min 0,000 mm 0,0 UV-I 34 W/m 13,7 C 19,8 C 0,0 km/h (0 Bft) 96,49 %
23.08.2017 19:34 19,6 C 22,2 C 70 % 1016,1 hPa 0,0 l/m 0,0 km/h (0 Bft) NO 40 0 min 0,000 mm 0,0 UV-I 31 W/m 14,0 C 19,6 C 0,0 km/h (0 Bft) 98,00 %
23.08.2017 19:36 19,4 C 22,2 C 68 % 1016,1 hPa 0,0 l/m 0,0 km/h (0 Bft) NO 40 0 min 0,000 mm 0,0 UV-I 27 W/m 13,3 C 19,4 C 0,0 km/h (0 Bft) 97,87 %
23.08.2017 19:38 19,2 C 22,2 C 69 % 1016,2 hPa 0,0 l/m 0,0 km/h (0 Bft) NO 40 0 min 0,000 mm 0,0 UV-I 26 W/m 13,4 C 19,2 C 0,0 km/h (0 Bft) 95,74 %
23.08.2017 19:40 19,0 C 22,2 C 68 % 1016,2 hPa 0,0 l/m 0,0 km/h (0 Bft) NO 40 0 min 0,000 mm 0,0 UV-I 24 W/m 13,0 C 19,0 C 0,0 km/h (0 Bft) 100,00 %
23.08.2017 19:42 18,9 C 22,2 C 68 % 1016,2 hPa 0,0 l/m 0,0 km/h (0 Bft) NO 40 0 min 0,000 mm 0,0 UV-I 22 W/m 12,9 C 18,9 C 0,0 km/h (0 Bft) 95,74 %
23.08.2017 19:44 18,7 C 22,2 C 68 % 1016,2 hPa 0,0 l/m 0,0 km/h (0 Bft) NO 40 0 min 0,000 mm 0,0 UV-I 19 W/m 12,7 C 18,7 C 0,0 km/h (0 Bft) 98,00 %
23.08.2017 19:46 18,5 C 22,2 C 69 % 1016,2 hPa 0,0 l/m 0,4 km/h (0 Bft) NO 40 2 min 0,000 mm 0,0 UV-I 17 W/m 12,7 C 18,5 C 3,2 km/h (1 Bft) 95,74 %
23.08.2017 19:48 18,3 C 22,2 C 71 % 1016,2 hPa 0,0 l/m 3,6 km/h (1 Bft) NO 40 2 min 0,000 mm 0,0 UV-I 16 W/m 12,9 C 18,3 C 4,8 km/h (1 Bft) 97,87 %
23.08.2017 19:50 18,1 C 22,2 C 72 % 1016,2 hPa 0,0 l/m 3,5 km/h (1 Bft) NO 40 2 min 0,000 mm 0,0 UV-I 14 W/m 13,0 C 18,1 C 4,8 km/h (1 Bft) 94,00 %
23.08.2017 19:52 17,8 C 22,2 C 73 % 1016,3 hPa 0,0 l/m 3,4 km/h (1 Bft) NO 40 0 min 0,000 mm 0,0 UV-I 13 W/m 12,9 C 17,8 C 4,8 km/h (1 Bft) 97,44 %
23.08.2017 19:54 17,7 C 22,2 C 73 % 1016,3 hPa 0,0 l/m 2,4 km/h (1 Bft) NO 40 0 min 0,000 mm 0,0 UV-I 12 W/m 12,8 C 17,7 C 3,2 km/h (1 Bft) 94,34 %
23.08.2017 19:56 17,6 C 22,2 C 74 % 1016,3 hPa 0,0 l/m 1,7 km/h (1 Bft) NO 40 0 min 0,000 mm 0,0 UV-I 12 W/m 12,9 C 17,6 C 3,2 km/h (1 Bft) 91,49 %
23.08.2017 19:58 17,4 C 22,2 C 74 % 1016,3 hPa 0,0 l/m 0,9 km/h (0 Bft) NO 40 0 min 0,000 mm 0,0 UV-I 11 W/m 12,7 C 17,4 C 1,6 km/h (1 Bft) 96,00 %
23.08.2017 20:00 17,3 C 22,2 C 74 % 1016,3 hPa 0,0 l/m 0,0 km/h (0 Bft) NO 40 0 min 0,025 mm 0,0 UV-I 9 W/m 12,6 C 17,3 C 0,0 km/h (0 Bft) 91,49 %
23.08.2017 20:02 17,3 C 22,2 C 74 % 1016,3 hPa 0,0 l/m 0,0 km/h (0 Bft) NO 40 0 min 0,000 mm 0,0 UV-I 8 W/m 12,6 C 17,3 C 0,0 km/h (0 Bft) 95,74 %
23.08.2017 20:04 17,3 C 22,2 C 75 % 1016,3 hPa 0,0 l/m 0,0 km/h (0 Bft) NO 40 0 min 0,000 mm 0,0 UV-I 7 W/m 12,8 C 17,3 C 0,0 km/h (0 Bft) 96,00 %
23.08.2017 20:06 17,2 C 22,2 C 74 % 1016,4 hPa 0,0 l/m 0,0 km/h (0 Bft) NO 40 0 min 0,000 mm 0,0 UV-I 6 W/m 12,5 C 17,2 C 0,0 km/h (0 Bft) 94,74 %
23.08.2017 20:08 17,2 C 22,2 C 73 % 1016,3 hPa 0,0 l/m 0,0 km/h (0 Bft) NO 40 0 min 0,000 mm 0,0 UV-I 5 W/m 12,3 C 17,2 C 0,0 km/h (0 Bft) 94,12 %
23.08.2017 20:10 17,2 C 22,2 C 74 % 1016,3 hPa 0,0 l/m 0,0 km/h (0 Bft) NO 40 0 min 0,000 mm 0,0 UV-I 5 W/m 12,5 C 17,2 C 0,0 km/h (0 Bft) 93,62 %
23.08.2017 20:12 17,1 C 22,2 C 75 % 1016,3 hPa 0,0 l/m 0,0 km/h (0 Bft) NO 40 0 min 0,000 mm 0,0 UV-I 5 W/m 12,6 C 17,1 C 0,0 km/h (0 Bft) 97,87 %
23.08.2017 20:14 17,1 C 22,2 C 74 % 1016,4 hPa 0,0 l/m 0,0 km/h (0 Bft) NO 40 0 min 0,000 mm 0,0 UV-I 5 W/m 12,4 C 17,1 C 0,0 km/h (0 Bft) 95,74 %
23.08.2017 20:16 17,1 C 22,2 C 73 % 1016,4 hPa 0,0 l/m 0,0 km/h (0 Bft) NO 40 0 min 0,000 mm 0,0 UV-I 0 W/m 12,2 C 17,1 C 0,0 km/h (0 Bft) 98,00 %
23.08.2017 20:18 17,1 C 22,2 C 74 % 1016,4 hPa 0,0 l/m 0,0 km/h (0 Bft) NO 40 0 min 0,000 mm 0,0 UV-I 0 W/m 12,4 C 17,1 C 0,0 km/h (0 Bft) 97,56 %
23.08.2017 20:20 16,9 C 22,2 C 74 % 1016,3 hPa 0,0 l/m 0,0 km/h (0 Bft) NO 40 0 min 0,000 mm 0,0 UV-I 0 W/m 12,2 C 16,9 C 0,0 km/h (0 Bft) 96,00 %
23.08.2017 20:22 16,9 C 22,2 C 73 % 1016,3 hPa 0,0 l/m 0,0 km/h (0 Bft) NO 40 0 min 0,000 mm 0,0 UV-I 0 W/m 12,0 C 16,9 C 0,0 km/h (0 Bft) 97,56 %
23.08.2017 20:24 16,8 C 22,2 C 72 % 1016,4 hPa 0,0 l/m 0,0 km/h (0 Bft) NO 40 0 min 0,000 mm 0,0 UV-I 0 W/m 11,7 C 16,8 C 0,0 km/h (0 Bft) 95,45 %
23.08.2017 20:26 16,8 C 22,2 C 73 % 1016,4 hPa 0,0 l/m 1,2 km/h (1 Bft) NO 40 0 min 0,000 mm 0,0 UV-I 0 W/m 11,9 C 16,8 C 3,2 km/h (1 Bft) 96,00 %
23.08.2017 20:28 16,8 C 22,2 C 73 % 1016,4 hPa 0,0 l/m 2,5 km/h (1 Bft) NO 40 0 min 0,000 mm 0,0 UV-I 0 W/m 11,9 C 16,8 C 3,2 km/h (1 Bft) 100,00 %
23.08.2017 20:30 16,7 C 22,2 C 74 % 1016,4 hPa 0,0 l/m 1,6 km/h (1 Bft) NO 40 0 min 0,000 mm 0,0 UV-I 0 W/m 12,0 C 16,7 C 3,2 km/h (1 Bft) 100,00 %
23.08.2017 20:32 16,6 C 22,2 C 74 % 1016,4 hPa 0,0 l/m 2,0 km/h (1 Bft) NO 40 0 min 0,000 mm 0,0 UV-I 0 W/m 11,9 C 16,6 C 3,2 km/h (1 Bft) 100,00 %
23.08.2017 20:34 16,6 C 22,2 C 74 % 1016,4 hPa 0,0 l/m 0,4 km/h (0 Bft) NO 40 0 min 0,000 mm 0,0 UV-I 0 W/m 11,9 C 16,6 C 3,2 km/h (1 Bft) 94,34 %
23.08.2017 20:36 16,5 C 22,2 C 74 % 1016,4 hPa 0,0 l/m 0,0 km/h (0 Bft) NO 40 0 min 0,000 mm 0,0 UV-I 0 W/m 11,8 C 16,5 C 0,0 km/h (0 Bft) 100,00 %
23.08.2017 20:38 16,4 C 22,2 C 74 % 1016,4 hPa 0,0 l/m 0,0 km/h (0 Bft) NO 40 0 min 0,000 mm 0,0 UV-I 0 W/m 11,8 C 16,4 C 0,0 km/h (0 Bft) 97,87 %
23.08.2017 20:40 16,4 C 22,2 C 73 % 1016,4 hPa 0,0 l/m 0,0 km/h (0 Bft) NO 40 0 min 0,000 mm 0,0 UV-I 0 W/m 11,5 C 16,4 C 0,0 km/h (0 Bft) 97,87 %
23.08.2017 20:42 16,5 C 22,2 C 73 % 1016,5 hPa 0,0 l/m 2,6 km/h (1 Bft) NO 40 0 min 0,000 mm 0,0 UV-I 0 W/m 11,6 C 16,5 C 4,8 km/h (1 Bft) 97,87 %
23.08.2017 20:44 16,6 C 22,2 C 72 % 1016,5 hPa 0,0 l/m 3,0 km/h (1 Bft) NO 40 0 min 0,000 mm 0,0 UV-I 0 W/m 11,5 C 16,6 C 4,8 km/h (1 Bft) 97,87 %
23.08.2017 20:46 16,5 C 22,2 C 72 % 1016,5 hPa 0,0 l/m 3,0 km/h (1 Bft) NO 40 0 min 0,000 mm 0,0 UV-I 0 W/m 11,4 C 16,5 C 3,2 km/h (1 Bft) 100,00 %
23.08.2017 20:48 16,5 C 22,2 C 73 % 1016,5 hPa 0,0 l/m 2,8 km/h (1 Bft) NO 40 0 min 0,000 mm 0,0 UV-I 0 W/m 11,6 C 16,5 C 4,8 km/h (1 Bft) 100,00 %
23.08.2017 20:50 16,4 C 22,2 C 74 % 1016,5 hPa 0,0 l/m 3,4 km/h (1 Bft) NO 40 0 min 0,000 mm 0,0 UV-I 0 W/m 11,8 C 16,4 C 4,8 km/h (1 Bft) 97,87 %
23.08.2017 20:52 16,2 C 22,2 C 74 % 1016,5 hPa 0,0 l/m 2,5 km/h (1 Bft) NO 40 0 min 0,000 mm 0,0 UV-I 0 W/m 11,6 C 16,2 C 3,2 km/h (1 Bft) 100,00 %
23.08.2017 20:54 16,2 C 22,2 C 75 % 1016,6 hPa 0,0 l/m 0,1 km/h (0 Bft) NO 40 0 min 0,000 mm 0,0 UV-I 0 W/m 11,8 C 16,2 C 1,6 km/h (1 Bft) 100,00 %
23.08.2017 20:56 16,1 C 22,2 C 75 % 1016,6 hPa 0,0 l/m 0,0 km/h (0 Bft) NO 40 0 min 0,000 mm 0,0 UV-I 0 W/m 11,7 C 16,1 C 0,0 km/h (0 Bft) 100,00 %
23.08.2017 20:58 16,2 C 22,2 C 74 % 1016,6 hPa 0,0 l/m 0,0 km/h (0 Bft) NO 40 0 min 0,000 mm 0,0 UV-I 0 W/m 11,6 C 16,2 C 1,6 km/h (1 Bft) 100,00 %
23.08.2017 21:00 16,2 C 22,2 C 74 % 1016,6 hPa 0,0 l/m 0,0 km/h (0 Bft) NO 40 0 min 0,000 mm 0,0 UV-I 0 W/m 11,6 C 16,2 C 0,0 km/h (0 Bft) 100,00 %
23.08.2017 21:02 16,2 C 22,2 C 76 % 1016,6 hPa 0,0 l/m 0,0 km/h (0 Bft) NO 40 0 min 0,000 mm 0,0 UV-I 0 W/m 12,0 C 16,2 C 0,0 km/h (0 Bft) 100,00 %
23.08.2017 21:04 16,1 C 22,2 C 77 % 1016,6 hPa 0,0 l/m 0,0 km/h (0 Bft) NO 40 0 min 0,000 mm 0,0 UV-I 0 W/m 12,1 C 16,1 C 0,0 km/h (0 Bft) 100,00 %
23.08.2017 21:06 16,1 C 22,2 C 77 % 1016,6 hPa 0,0 l/m 0,0 km/h (0 Bft) NO 40 0 min 0,000 mm 0,0 UV-I 0 W/m 12,1 C 16,1 C 0,0 km/h (0 Bft) 97,87 %
23.08.2017 21:08 16,1 C 22,2 C 77 % 1016,6 hPa 0,0 l/m 0,1 km/h (0 Bft) NO 40 0 min 0,000 mm 0,0 UV-I 0 W/m 12,1 C 16,1 C 1,6 km/h (1 Bft) 100,00 %
23.08.2017 21:10 16,0 C 22,2 C 78 % 1016,6 hPa 0,0 l/m 0,5 km/h (0 Bft) NO 40 0 min 0,000 mm 0,0 UV-I 0 W/m 12,2 C 16,0 C 1,6 km/h (1 Bft) 97,87 %
23.08.2017 21:12 15,9 C 22,2 C 79 % 1016,6 hPa 0,0 l/m 0,0 km/h (0 Bft) NO 40 0 min 0,000 mm 0,0 UV-I 0 W/m 12,3 C 15,9 C 0,0 km/h (0 Bft) 98,18 %
23.08.2017 21:14 15,8 C 22,2 C 78 % 1016,6 hPa 0,0 l/m 0,1 km/h (0 Bft) NO 40 0 min 0,000 mm 0,0 UV-I 0 W/m 12,0 C 15,8 C 1,6 km/h (1 Bft) 97,92 %
23.08.2017 21:16 15,8 C 22,2 C 79 % 1016,6 hPa 0,0 l/m 0,1 km/h (0 Bft) NO 40 0 min 0,000 mm 0,0 UV-I 0 W/m 12,2 C 15,8 C 1,6 km/h (1 Bft) 97,37 %
23.08.2017 21:18 15,8 C 22,2 C 79 % 1016,6 hPa 0,0 l/m 0,8 km/h (0 Bft) NO 40 0 min 0,000 mm 0,0 UV-I 0 W/m 12,2 C 15,8 C 3,2 km/h (1 Bft) 97,56 %
23.08.2017 21:20 15,7 C 22,2 C 79 % 1016,6 hPa 0,0 l/m 1,1 km/h (1 Bft) NO 40 0 min 0,000 mm 0,0 UV-I 0 W/m 12,1 C 15,7 C 3,2 km/h (1 Bft) 100,00 %
23.08.2017 21:22 15,7 C 22,2 C 79 % 1016,7 hPa 0,0 l/m 1,0 km/h (0 Bft) NO 40 0 min 0,000 mm 0,0 UV-I 0 W/m 12,1 C 15,7 C 3,2 km/h (1 Bft) 97,92 %
23.08.2017 21:24 15,7 C 22,2 C 79 % 1016,6 hPa 0,0 l/m 0,0 km/h (0 Bft) NO 40 0 min 0,000 mm 0,0 UV-I 0 W/m 12,1 C 15,7 C 1,6 km/h (1 Bft) 98,00 %
23.08.2017 21:26 15,7 C 22,2 C 80 % 1016,7 hPa 0,0 l/m 0,0 km/h (0 Bft) NO 40 0 min 0,000 mm 0,0 UV-I 0 W/m 12,3 C 15,7 C 0,0 km/h (0 Bft) 100,00 %
23.08.2017 21:28 15,6 C 22,2 C 79 % 1016,7 hPa 0,0 l/m 0,0 km/h (0 Bft) NO 40 0 min 0,000 mm 0,0 UV-I 0 W/m 12,0 C 15,6 C 0,0 km/h (0 Bft) 97,87 %
23.08.2017 21:30 15,6 C 22,2 C 79 % 1016,7 hPa 0,0 l/m 0,0 km/h (0 Bft) NO 40 0 min 0,000 mm 0,0 UV-I 0 W/m 12,0 C 15,6 C 0,0 km/h (0 Bft) 100,00 %
23.08.2017 21:32 15,6 C 22,2 C 79 % 1016,7 hPa 0,0 l/m 0,0 km/h (0 Bft) NO 40 0 min 0,000 mm 0,0 UV-I 0 W/m 12,0 C 15,6 C 0,0 km/h (0 Bft) 97,87 %
23.08.2017 21:34 15,6 C 22,2 C 79 % 1016,6 hPa 0,0 l/m 0,4 km/h (0 Bft) NO 40 0 min 0,000 mm 0,0 UV-I 0 W/m 12,0 C 15,6 C 1,6 km/h (1 Bft) 98,11 %
23.08.2017 21:36 15,6 C 22,2 C 79 % 1016,7 hPa 0,0 l/m 0,5 km/h (0 Bft) NO 40 0 min 0,000 mm 0,0 UV-I 0 W/m 12,0 C 15,6 C 1,6 km/h (1 Bft) 100,00 %
23.08.2017 21:38 15,5 C 22,2 C 79 % 1016,7 hPa 0,0 l/m 0,2 km/h (0 Bft) NO 40 0 min 0,000 mm 0,0 UV-I 0 W/m 11,9 C 15,5 C 1,6 km/h (1 Bft) 100,00 %
23.08.2017 21:40 15,5 C 22,2 C 80 % 1016,7 hPa 0,0 l/m 0,0 km/h (0 Bft) NO 40 0 min 0,000 mm 0,0 UV-I 0 W/m 12,1 C 15,5 C 0,0 km/h (0 Bft) 100,00 %
23.08.2017 21:42 15,4 C 22,2 C 80 % 1016,6 hPa 0,0 l/m 0,1 km/h (0 Bft) NO 40 0 min 0,000 mm 0,0 UV-I 0 W/m 12,0 C 15,4 C 1,6 km/h (1 Bft) 100,00 %
23.08.2017 21:44 15,4 C 22,2 C 80 % 1016,6 hPa 0,0 l/m 0,2 km/h (0 Bft) NO 40 0 min 0,000 mm 0,0 UV-I 0 W/m 12,0 C 15,4 C 1,6 km/h (1 Bft) 100,00 %
23.08.2017 21:46 15,4 C 22,2 C 80 % 1016,7 hPa 0,0 l/m 1,2 km/h (1 Bft) NO 40 0 min 0,000 mm 0,0 UV-I 0 W/m 12,0 C 15,4 C 3,2 km/h (1 Bft) 100,00 %
23.08.2017 21:48 15,4 C 22,2 C 80 % 1016,7 hPa 0,0 l/m 0,5 km/h (0 Bft) NO 40 0 min 0,000 mm 0,0 UV-I 0 W/m 12,0 C 15,4 C 1,6 km/h (1 Bft) 98,00 %
23.08.2017 21:50 15,3 C 22,2 C 80 % 1016,7 hPa 0,0 l/m 0,8 km/h (0 Bft) NO 40 0 min 0,000 mm 0,0 UV-I 0 W/m 11,9 C 15,3 C 1,6 km/h (1 Bft) 100,00 %
23.08.2017 21:52 15,3 C 22,2 C 80 % 1016,7 hPa 0,0 l/m 0,2 km/h (0 Bft) NO 40 0 min 0,000 mm 0,0 UV-I 0 W/m 11,9 C 15,3 C 1,6 km/h (1 Bft) 98,11 %
23.08.2017 21:54 15,3 C 22,2 C 79 % 1016,7 hPa 0,0 l/m 0,2 km/h (0 Bft) NO 40 0 min 0,000 mm 0,0 UV-I 0 W/m 11,7 C 15,3 C 1,6 km/h (1 Bft) 100,00 %
23.08.2017 21:56 15,2 C 22,2 C 79 % 1016,6 hPa 0,0 l/m 0,0 km/h (0 Bft) NO 40 0 min 0,000 mm 0,0 UV-I 0 W/m 11,6 C 15,2 C 0,0 km/h (0 Bft) 100,00 %
23.08.2017 21:58 15,2 C 22,2 C 79 % 1016,6 hPa 0,0 l/m 0,1 km/h (0 Bft) NO 40 0 min 0,000 mm 0,0 UV-I 0 W/m 11,6 C 15,2 C 1,6 km/h (1 Bft) 97,87 %
23.08.2017 22:00 15,2 C 22,2 C 79 % 1016,6 hPa 0,0 l/m 0,6 km/h (0 Bft) NO 40 0 min 0,000 mm 0,0 UV-I 0 W/m 11,6 C 15,2 C 1,6 km/h (1 Bft) 97,87 %
23.08.2017 22:02 15,3 C 22,2 C 79 % 1016,6 hPa 0,0 l/m 0,2 km/h (0 Bft) NO 40 0 min 0,000 mm 0,0 UV-I 0 W/m 11,7 C 15,3 C 1,6 km/h (1 Bft) 95,74 %
23.08.2017 22:04 15,3 C 22,2 C 79 % 1016,6 hPa 0,0 l/m 0,0 km/h (0 Bft) NO 40 0 min 0,000 mm 0,0 UV-I 0 W/m 11,7 C 15,3 C 0,0 km/h (0 Bft) 98,11 %
23.08.2017 22:06 15,3 C 22,2 C 79 % 1016,6 hPa 0,0 l/m 1,6 km/h (1 Bft) NO 40 0 min 0,000 mm 0,0 UV-I 0 W/m 11,7 C 15,3 C 3,2 km/h (1 Bft) 95,74 %
23.08.2017 22:08 15,2 C 22,2 C 79 % 1016,6 hPa 0,0 l/m 2,0 km/h (1 Bft) NO 40 0 min 0,000 mm 0,0 UV-I 0 W/m 11,6 C 15,2 C 3,2 km/h (1 Bft) 97,62 %
23.08.2017 22:10 15,2 C 22,2 C 79 % 1016,6 hPa 0,0 l/m 2,1 km/h (1 Bft) NO 40 0 min 0,000 mm 0,0 UV-I 0 W/m 11,6 C 15,2 C 3,2 km/h (1 Bft) 96,23 %
23.08.2017 22:12 15,1 C 22,2 C 79 % 1016,6 hPa 0,0 l/m 1,7 km/h (1 Bft) NO 40 0 min 0,000 mm 0,0 UV-I 0 W/m 11,5 C 15,1 C 3,2 km/h (1 Bft) 97,56 %
23.08.2017 22:14 15,1 C 22,2 C 78 % 1016,6 hPa 0,0 l/m 2,2 km/h (1 Bft) NO 40 0 min 0,000 mm 0,0 UV-I 0 W/m 11,3 C 15,1 C 3,2 km/h (1 Bft) 98,00 %
23.08.2017 22:16 15,1 C 22,2 C 79 % 1016,6 hPa 0,0 l/m 2,4 km/h (1 Bft) NO 40 0 min 0,000 mm 0,0 UV-I 0 W/m 11,5 C 15,1 C 3,2 km/h (1 Bft) 97,56 %
23.08.2017 22:18 15,1 C 22,2 C 79 % 1016,6 hPa 0,0 l/m 2,1 km/h (1 Bft) NO 40 0 min 0,000 mm 0,0 UV-I 0 W/m 11,5 C 15,1 C 3,2 km/h (1 Bft) 97,87 %
23.08.2017 22:20 15,0 C 22,2 C 79 % 1016,6 hPa 0,0 l/m 2,1 km/h (1 Bft) NO 40 0 min 0,000 mm 0,0 UV-I 0 W/m 11,4 C 15,0 C 3,2 km/h (1 Bft) 98,11 %
23.08.2017 22:22 15,0 C 22,2 C 80 % 1016,7 hPa 0,0 l/m 1,4 km/h (1 Bft) NO 40 0 min 0,000 mm 0,0 UV-I 0 W/m 11,6 C 15,0 C 3,2 km/h (1 Bft) 98,00 %
23.08.2017 22:24 14,9 C 22,2 C 80 % 1016,7 hPa 0,0 l/m 0,3 km/h (0 Bft) NO 40 0 min 0,000 mm 0,0 UV-I 0 W/m 11,5 C 14,9 C 1,6 km/h (1 Bft) 95,74 %
23.08.2017 22:26 14,9 C 22,2 C 81 % 1016,7 hPa 0,0 l/m 0,8 km/h (0 Bft) NO 40 0 min 0,000 mm 0,0 UV-I 0 W/m 11,7 C 14,9 C 3,2 km/h (1 Bft) 97,44 %
23.08.2017 22:28 14,9 C 22,2 C 81 % 1016,7 hPa 0,0 l/m 1,7 km/h (1 Bft) NO 40 0 min 0,000 mm 0,0 UV-I 0 W/m 11,7 C 14,9 C 3,2 km/h (1 Bft) 97,14 %
23.08.2017 22:30 14,8 C 22,2 C 81 % 1016,7 hPa 0,0 l/m 1,0 km/h (0 Bft) NO 40 0 min 0,000 mm 0,0 UV-I 0 W/m 11,6 C 14,8 C 3,2 km/h (1 Bft) 96,43 %
23.08.2017 22:32 14,8 C 22,2 C 81 % 1016,6 hPa 0,0 l/m 0,5 km/h (0 Bft) NO 40 0 min 0,000 mm 0,0 UV-I 0 W/m 11,6 C 14,8 C 1,6 km/h (1 Bft) 97,87 %
23.08.2017 22:34 14,7 C 22,2 C 82 % 1016,7 hPa 0,0 l/m 1,1 km/h (1 Bft) NO 40 0 min 0,000 mm 0,0 UV-I 0 W/m 11,7 C 14,7 C 3,2 km/h (1 Bft) 98,11 %
23.08.2017 22:36 14,7 C 22,2 C 82 % 1016,7 hPa 0,0 l/m 0,1 km/h (0 Bft) NO 40 0 min 0,000 mm 0,0 UV-I 0 W/m 11,7 C 14,7 C 1,6 km/h (1 Bft) 100,00 %
23.08.2017 22:38 14,7 C 22,2 C 82 % 1016,7 hPa 0,0 l/m 1,3 km/h (1 Bft) NO 40 0 min 0,000 mm 0,0 UV-I 0 W/m 11,7 C 14,7 C 1,6 km/h (1 Bft) 100,00 %
23.08.2017 22:40 14,7 C 22,2 C 82 % 1016,7 hPa 0,0 l/m 1,6 km/h (1 Bft) NO 40 0 min 0,000 mm 0,0 UV-I 0 W/m 11,7 C 14,7 C 3,2 km/h (1 Bft) 98,00 %
23.08.2017 22:42 14,7 C 22,2 C 82 % 1016,7 hPa 0,0 l/m 1,9 km/h (1 Bft) NO 40 0 min 0,000 mm 0,0 UV-I 0 W/m 11,7 C 14,7 C 3,2 km/h (1 Bft) 97,56 %
23.08.2017 22:44 14,7 C 22,2 C 82 % 1016,7 hPa 0,0 l/m 3,0 km/h (1 Bft) NO 40 0 min 0,000 mm 0,0 UV-I 0 W/m 11,7 C 14,7 C 4,8 km/h (1 Bft) 100,00 %
23.08.2017 22:46 14,7 C 22,2 C 82 % 1016,6 hPa 0,0 l/m 2,8 km/h (1 Bft) NO 40 0 min 0,000 mm 0,0 UV-I 0 W/m 11,7 C 14,7 C 4,8 km/h (1 Bft) 100,00 %
23.08.2017 22:48 14,6 C 22,2 C 83 % 1016,7 hPa 0,0 l/m 2,9 km/h (1 Bft) NO 40 0 min 0,000 mm 0,0 UV-I 0 W/m 11,7 C 14,6 C 4,8 km/h (1 Bft) 97,87 %
23.08.2017 22:50 14,6 C 22,2 C 83 % 1016,7 hPa 0,0 l/m 3,0 km/h (1 Bft) NO 40 0 min 0,000 mm 0,0 UV-I 0 W/m 11,7 C 14,6 C 4,8 km/h (1 Bft) 97,87 %
23.08.2017 22:52 14,5 C 22,2 C 83 % 1016,6 hPa 0,0 l/m 2,8 km/h (1 Bft) NO 40 0 min 0,000 mm 0,0 UV-I 0 W/m 11,6 C 14,5 C 4,8 km/h (1 Bft) 95,74 %
23.08.2017 22:54 14,5 C 22,2 C 83 % 1016,7 hPa 0,0 l/m 2,3 km/h (1 Bft) NO 40 0 min 0,000 mm 0,0 UV-I 0 W/m 11,6 C 14,5 C 3,2 km/h (1 Bft) 98,00 %
23.08.2017 22:56 14,5 C 22,2 C 83 % 1016,7 hPa 0,0 l/m 2,4 km/h (1 Bft) NO 40 0 min 0,000 mm 0,0 UV-I 0 W/m 11,6 C 14,5 C 3,2 km/h (1 Bft) 97,87 %
23.08.2017 22:58 14,5 C 22,2 C 83 % 1016,7 hPa 0,0 l/m 2,6 km/h (1 Bft) NO 40 0 min 0,000 mm 0,0 UV-I 0 W/m 11,6 C 14,5 C 4,8 km/h (1 Bft) 95,12 %
23.08.2017 23:00 14,5 C 22,2 C 83 % 1016,7 hPa 0,0 l/m 2,5 km/h (1 Bft) NO 40 0 min 0,000 mm 0,0 UV-I 0 W/m 11,6 C 14,5 C 3,2 km/h (1 Bft) 98,00 %
23.08.2017 23:02 14,6 C 22,2 C 83 % 1016,7 hPa 0,0 l/m 1,8 km/h (1 Bft) NO 40 0 min 0,000 mm 0,0 UV-I 0 W/m 11,7 C 14,6 C 3,2 km/h (1 Bft) 98,00 %
23.08.2017 23:04 14,6 C 22,2 C 83 % 1016,7 hPa 0,0 l/m 2,0 km/h (1 Bft) NO 40 0 min 0,000 mm 0,0 UV-I 0 W/m 11,7 C 14,6 C 3,2 km/h (1 Bft) 98,00 %
23.08.2017 23:06 14,6 C 22,2 C 83 % 1016,7 hPa 0,0 l/m 2,1 km/h (1 Bft) NO 40 0 min 0,000 mm 0,0 UV-I 0 W/m 11,7 C 14,6 C 3,2 km/h (1 Bft) 97,87 %
23.08.2017 23:08 14,5 C 22,2 C 83 % 1016,7 hPa 0,0 l/m 2,1 km/h (1 Bft) NO 40 0 min 0,000 mm 0,0 UV-I 0 W/m 11,6 C 14,5 C 4,8 km/h (1 Bft) 95,74 %
23.08.2017 23:11 14,4 C 22,2 C 83 % 1016,7 hPa 0,0 l/m 2,8 km/h (1 Bft) NO 40 0 min 0,000 mm 0,0 UV-I 0 W/m 11,5 C 14,4 C 4,8 km/h (1 Bft) 97,30 %
23.08.2017 23:12 14,4 C 22,2 C 84 % 1016,7 hPa 0,0 l/m 2,8 km/h (1 Bft) NO 40 0 min 0,000 mm 0,0 UV-I 0 W/m 11,7 C 14,4 C 3,2 km/h (1 Bft) 95,65 %
23.08.2017 23:16 14,3 C 22,2 C 84 % 1016,8 hPa 0,0 l/m 3,4 km/h (1 Bft) NO 40 0 min 0,000 mm 0,0 UV-I 0 W/m 11,6 C 14,3 C 4,8 km/h (1 Bft) 97,50 %
23.08.2017 23:20 14,3 C 22,2 C 84 % 1016,8 hPa 0,0 l/m 3,2 km/h (1 Bft) NO 45 0 min 0,000 mm 0,0 UV-I 0 W/m 11,6 C 14,3 C 6,4 km/h (2 Bft) 99,12 %
23.08.2017 23:26 14,6 C 22,2 C 84 % 1016,8 hPa 0,0 l/m 4,6 km/h (1 Bft) S-SW 202 0 min 0,000 mm 0,0 UV-I 0 W/m 11,9 C 14,6 C 6,4 km/h (2 Bft) 97,92 %
23.08.2017 23:28 14,6 C 22,2 C 84 % 1016,8 hPa 0,0 l/m 6,4 km/h (2 Bft) S-SW 202 0 min 0,000 mm 0,0 UV-I 0 W/m 11,9 C 14,6 C 6,4 km/h (2 Bft) 97,92 %
23.08.2017 23:30 14,6 C 22,2 C 84 % 1016,8 hPa 0,0 l/m 4,8 km/h (1 Bft) S-SW 202 0 min 0,000 mm 0,0 UV-I 0 W/m 11,9 C 14,6 C 6,4 km/h (2 Bft) 97,92 %
23.08.2017 23:32 14,6 C 22,2 C 84 % 1016,8 hPa 0,0 l/m 4,8 km/h (1 Bft) S-SW 202 0 min 0,000 mm 0,0 UV-I 0 W/m 11,9 C 14,6 C 6,4 km/h (2 Bft) 97,92 %
23.08.2017 23:34 14,6 C 22,2 C 84 % 1016,8 hPa 0,0 l/m 6,4 km/h (2 Bft) S-SW 202 0 min 0,000 mm 0,0 UV-I 0 W/m 11,9 C 14,6 C 6,4 km/h (2 Bft) 97,92 %
23.08.2017 23:36 14,6 C 22,2 C 84 % 1016,8 hPa 0,0 l/m 4,8 km/h (1 Bft) S-SW 202 0 min 0,000 mm 0,0 UV-I 0 W/m 11,9 C 14,6 C 8,0 km/h (2 Bft) 97,92 %
23.08.2017 23:38 14,6 C 22,2 C 84 % 1016,8 hPa 0,0 l/m 4,7 km/h (1 Bft) S-SW 201 0 min 0,000 mm 0,0 UV-I 0 W/m 11,9 C 14,6 C 8,0 km/h (2 Bft) 96,84 %
23.08.2017 23:40 14,6 C 22,2 C 84 % 1016,9 hPa 0,0 l/m 3,9 km/h (1 Bft) S-SW 201 0 min 0,000 mm 0,0 UV-I 0 W/m 11,9 C 14,6 C 4,8 km/h (1 Bft) 100,00 %
23.08.2017 23:42 14,6 C 22,2 C 84 % 1016,9 hPa 0,0 l/m 4,4 km/h (1 Bft) S-SW 201 0 min 0,000 mm 0,0 UV-I 0 W/m 11,9 C 14,6 C 6,4 km/h (2 Bft) 98,11 %
23.08.2017 23:44 14,6 C 22,2 C 84 % 1016,9 hPa 0,0 l/m 3,9 km/h (1 Bft) S-SW 201 0 min 0,000 mm 0,0 UV-I 0 W/m 11,9 C 14,6 C 4,8 km/h (1 Bft) 97,56 %
23.08.2017 23:46 14,6 C 22,2 C 84 % 1016,9 hPa 0,0 l/m 4,9 km/h (1 Bft) S-SW 201 0 min 0,000 mm 0,0 UV-I 0 W/m 11,9 C 14,6 C 6,4 km/h (2 Bft) 98,11 %
23.08.2017 23:48 14,6 C 22,2 C 84 % 1016,9 hPa 0,0 l/m 3,9 km/h (1 Bft) S-SW 201 0 min 0,000 mm 0,0 UV-I 0 W/m 11,9 C 14,6 C 6,4 km/h (2 Bft) 97,14 %
23.08.2017 23:50 14,5 C 21,7 C 85 % 1016,9 hPa 0,0 l/m 4,7 km/h (1 Bft) S-SW 201 0 min 0,000 mm 0,0 UV-I 0 W/m 12,0 C 14,5 C 6,4 km/h (2 Bft) 100,00 %
23.08.2017 23:52 14,5 C 22,2 C 85 % 1016,9 hPa 0,0 l/m 4,6 km/h (1 Bft) S-SW 201 0 min 0,000 mm 0,0 UV-I 0 W/m 12,0 C 14,5 C 6,4 km/h (2 Bft) 100,00 %
23.08.2017 23:54 14,4 C 22,2 C 85 % 1016,9 hPa 0,0 l/m 3,5 km/h (1 Bft) S-SW 201 0 min 0,000 mm 0,0 UV-I 0 W/m 11,9 C 14,4 C 4,8 km/h (1 Bft) 100,00 %
23.08.2017 23:56 14,4 C 21,7 C 85 % 1016,9 hPa 0,0 l/m 3,7 km/h (1 Bft) S-SW 201 0 min 0,000 mm 0,0 UV-I 0 W/m 11,9 C 14,4 C 4,8 km/h (1 Bft) 100,00 %
23.08.2017 23:58 14,4 C 21,7 C 85 % 1017,0 hPa 0,0 l/m 3,9 km/h (1 Bft) S-SW 201 0 min 0,000 mm 0,0 UV-I 0 W/m 11,9 C 14,4 C 4,8 km/h (1 Bft) 97,56 %
_ Min-Zeit 06:10 04:36 17:46 18:42 - 02:46 - - - - - - 06:12 06:12 02:46 00:02
Minimum _ 8,9 C 20,6 C 44 % 1016,0 hPa - 0,0 km/h (0 Bft) - - - - - - 8,0 C 8,9 C 0,0 km/h (0 Bft) 12,50 %
_ Max-Zeit 17:14 17:10 06:34 09:18 00:00 11:08 - - 07:03 14:00 13:12 13:12 12:44 17:14 11:02 00:00
Maximum _ 22,9 C 22,8 C 95 % 1018,7 hPa 0,0 l/m 12,4 km/h
O (3 Bft)
- - 3 min 0,483 mm 5,3 UV-I 802 W/m 14,6 C 22,9 C 16,1 km/h
O-NO (3 Bft)
100,00 %
Durchschnitt _ 15,9 C 21,5 C 74 % 1017,5 hPa #0,0 l/m 2,8 km/h (1 Bft) NO - #12:36 h #3,886 mm 3,0 UV-I 448 W/m 10,8 C 15,9 C 5,3 km/h (1 Bft) 97,88 %